<?xml version='1.0' encoding='UTF-8'?><gpx version="1.1" creator="JPX - https://github.com/jenetics/jpx" xmlns="http://www.topografix.com/GPX/1/1"><trk><trkseg><trkpt lat="44.244350264069425" lon="9.581492654598545"><ele>592.0</ele><time>2026-05-02T16:35:14Z</time></trkpt><trkpt lat="44.24423803997474" lon="9.581482119101494"><ele>592.0</ele><time>2026-05-02T16:35:15Z</time></trkpt><trkpt lat="44.244143661455404" lon="9.581505936415645"><ele>592.0</ele><time>2026-05-02T16:35:16Z</time></trkpt><trkpt lat="44.244033155447525" lon="9.581508979781672"><ele>592.0</ele><time>2026-05-02T16:35:17Z</time></trkpt><trkpt lat="44.24390384228054" lon="9.581619564897805"><ele>591.3333333333334</ele><time>2026-05-02T16:35:18Z</time></trkpt><trkpt lat="44.24376442607232" lon="9.58174264439571"><ele>590.6666666666666</ele><time>2026-05-02T16:35:19Z</time></trkpt><trkpt lat="44.24364931536073" lon="9.581878460244011"><ele>590.0</ele><time>2026-05-02T16:35:20Z</time></trkpt><trkpt lat="44.24353312775411" lon="9.581987459896457"><ele>588.0</ele><time>2026-05-02T16:35:21Z</time></trkpt><trkpt lat="44.24340853070629" lon="9.582092989205456"><ele>586.0</ele><time>2026-05-02T16:35:22Z</time></trkpt><trkpt lat="44.24327421289155" lon="9.58222812122128"><ele>584.0</ele><time>2026-05-02T16:35:23Z</time></trkpt><trkpt lat="44.24313734688064" lon="9.582369403438701"><ele>586.75</ele><time>2026-05-02T16:35:24Z</time></trkpt><trkpt lat="44.24303736906122" lon="9.582518014981018"><ele>589.5</ele><time>2026-05-02T16:35:24.999Z</time></trkpt><trkpt lat="44.242980052398494" lon="9.582655613193618"><ele>592.25</ele><time>2026-05-02T16:35:25.999Z</time></trkpt><trkpt lat="44.24291136143388" lon="9.582721963325724"><ele>595.0</ele><time>2026-05-02T16:35:26.999Z</time></trkpt><trkpt lat="44.24279292527129" lon="9.582695190449511"><ele>595.0</ele><time>2026-05-02T16:35:27.999Z</time></trkpt><trkpt lat="44.24267271828318" lon="9.582721254748172"><ele>595.0</ele><time>2026-05-02T16:35:28.999Z</time></trkpt><trkpt lat="44.24253597514136" lon="9.58277764938509"><ele>595.0</ele><time>2026-05-02T16:35:29.999Z</time></trkpt><trkpt lat="44.24239233019946" lon="9.582804419027383"><ele>595.0</ele><time>2026-05-02T16:35:30.999Z</time></trkpt><trkpt lat="44.242246989102405" lon="9.582842720002937"><ele>588.3333333333334</ele><time>2026-05-02T16:35:31.999Z</time></trkpt><trkpt lat="44.2420726391812" lon="9.582895586753787"><ele>581.6666666666666</ele><time>2026-05-02T16:35:32.999Z</time></trkpt><trkpt lat="44.241942724000296" lon="9.582967517691717"><ele>575.0</ele><time>2026-05-02T16:35:33.999Z</time></trkpt><trkpt lat="44.241826960890464" lon="9.58306276619914"><ele>575.0</ele><time>2026-05-02T16:35:34.999Z</time></trkpt><trkpt lat="44.2417097556214" lon="9.58313045133354"><ele>575.0</ele><time>2026-05-02T16:35:35.999Z</time></trkpt><trkpt lat="44.241570739668965" lon="9.58314910860757"><ele>575.0</ele><time>2026-05-02T16:35:36.999Z</time></trkpt><trkpt lat="44.24143971700678" lon="9.583099408038363"><ele>575.0</ele><time>2026-05-02T16:35:37.999Z</time></trkpt><trkpt lat="44.241289657054296" lon="9.583024960600975"><ele>576.0</ele><time>2026-05-02T16:35:38.999Z</time></trkpt><trkpt lat="44.24115643254403" lon="9.582926071162525"><ele>577.0</ele><time>2026-05-02T16:35:39.999Z</time></trkpt><trkpt lat="44.24101011873508" lon="9.582784790220572"><ele>578.0</ele><time>2026-05-02T16:35:40.999Z</time></trkpt><trkpt lat="44.24085011882919" lon="9.582688335839963"><ele>580.6666666666666</ele><time>2026-05-02T16:35:41.999Z</time></trkpt><trkpt lat="44.24069357362522" lon="9.582632241746715"><ele>583.3333333333334</ele><time>2026-05-02T16:35:42.999Z</time></trkpt><trkpt lat="44.24054028968854" lon="9.5826613434047"><ele>586.0</ele><time>2026-05-02T16:35:43.999Z</time></trkpt><trkpt lat="44.24039928234909" lon="9.582769324022886"><ele>586.0</ele><time>2026-05-02T16:35:44.999Z</time></trkpt><trkpt lat="44.24026451426633" lon="9.582839915226005"><ele>586.0</ele><time>2026-05-02T16:35:45.999Z</time></trkpt><trkpt lat="44.24016853029828" lon="9.582926340281935"><ele>586.0</ele><time>2026-05-02T16:35:46.999Z</time></trkpt><trkpt lat="44.24004951582431" lon="9.582864723766878"><ele>586.0</ele><time>2026-05-02T16:35:47.999Z</time></trkpt><trkpt lat="44.23995677078246" lon="9.58274722186959"><ele>586.0</ele><time>2026-05-02T16:35:48.999Z</time></trkpt><trkpt lat="44.23988136183231" lon="9.582578329522821"><ele>586.0</ele><time>2026-05-02T16:35:49.999Z</time></trkpt><trkpt lat="44.239858950819" lon="9.582401348629668"><ele>586.0</ele><time>2026-05-02T16:35:50.999Z</time></trkpt><trkpt lat="44.23985639154579" lon="9.58220889044481"><ele>586.0</ele><time>2026-05-02T16:35:51.999Z</time></trkpt><trkpt lat="44.23985263227239" lon="9.582009096645749"><ele>584.6666666666667</ele><time>2026-05-02T16:35:52.999Z</time></trkpt><trkpt lat="44.2397981202908" lon="9.58182209351276"><ele>583.3333333333334</ele><time>2026-05-02T16:35:53.999Z</time></trkpt><trkpt lat="44.23969280460491" lon="9.581661326857223"><ele>582.0</ele><time>2026-05-02T16:35:54.999Z</time></trkpt><trkpt lat="44.23957467718446" lon="9.58152845744417"><ele>582.0</ele><time>2026-05-02T16:35:55.999Z</time></trkpt><trkpt lat="44.2394651243501" lon="9.581399182105391"><ele>582.0</ele><time>2026-05-02T16:35:56.999Z</time></trkpt><trkpt lat="44.23936334836369" lon="9.581303654174468"><ele>582.0</ele><time>2026-05-02T16:35:57.999Z</time></trkpt><trkpt lat="44.23927702528694" lon="9.581223986139872"><ele>582.0</ele><time>2026-05-02T16:35:58.999Z</time></trkpt><trkpt lat="44.23919511095113" lon="9.58119151068578"><ele>582.0</ele><time>2026-05-02T16:35:59.999Z</time></trkpt><trkpt lat="44.23911254253834" lon="9.581231631829095"><ele>582.0</ele><time>2026-05-02T16:36:00.999Z</time></trkpt><trkpt lat="44.23903596851982" lon="9.581331505729558"><ele>582.0</ele><time>2026-05-02T16:36:01.999Z</time></trkpt><trkpt lat="44.238975118722536" lon="9.5814514083915"><ele>582.0</ele><time>2026-05-02T16:36:02.999Z</time></trkpt><trkpt lat="44.23887974590657" lon="9.581524024814618"><ele>582.0</ele><time>2026-05-02T16:36:03.999Z</time></trkpt><trkpt lat="44.23877677277014" lon="9.581566434278587"><ele>582.2</ele><time>2026-05-02T16:36:04.999Z</time></trkpt><trkpt lat="44.23866520151989" lon="9.581556060596084"><ele>582.4000000000001</ele><time>2026-05-02T16:36:05.999Z</time></trkpt><trkpt lat="44.23855993781008" lon="9.581574789593727"><ele>582.5999999999999</ele><time>2026-05-02T16:36:06.999Z</time></trkpt><trkpt lat="44.23847268677448" lon="9.58157386481367"><ele>582.8</ele><time>2026-05-02T16:36:07.999Z</time></trkpt><trkpt lat="44.238387940315874" lon="9.581598676646017"><ele>583.0</ele><time>2026-05-02T16:36:08.999Z</time></trkpt><trkpt lat="44.238300551723064" lon="9.58166533169167"><ele>583.0</ele><time>2026-05-02T16:36:09.999Z</time></trkpt><trkpt lat="44.23825154085921" lon="9.581835536795976"><ele>583.0</ele><time>2026-05-02T16:36:10.999Z</time></trkpt><trkpt lat="44.23818270751188" lon="9.58197495326973"><ele>583.0</ele><time>2026-05-02T16:36:11.999Z</time></trkpt><trkpt lat="44.23811648043677" lon="9.582132804993739"><ele>583.0</ele><time>2026-05-02T16:36:12.999Z</time></trkpt><trkpt lat="44.23806987617993" lon="9.582306035826662"><ele>583.0</ele><time>2026-05-02T16:36:13.999Z</time></trkpt><trkpt lat="44.23801931847561" lon="9.582498932600384"><ele>583.0</ele><time>2026-05-02T16:36:14.999Z</time></trkpt><trkpt lat="44.23796926172506" lon="9.582694917559802"><ele>583.0</ele><time>2026-05-02T16:36:15.999Z</time></trkpt><trkpt lat="44.23791422714265" lon="9.582891999537331"><ele>583.0</ele><time>2026-05-02T16:36:16.999Z</time></trkpt><trkpt lat="44.23785125596829" lon="9.583070635541665"><ele>579.8</ele><time>2026-05-02T16:36:17.999Z</time></trkpt><trkpt lat="44.23774798339352" lon="9.583190931065301"><ele>576.5999999999999</ele><time>2026-05-02T16:36:18.999Z</time></trkpt><trkpt lat="44.237654010510205" lon="9.58326944758879"><ele>573.4000000000001</ele><time>2026-05-02T16:36:19.999Z</time></trkpt><trkpt lat="44.23757774613031" lon="9.583298785277874"><ele>570.2</ele><time>2026-05-02T16:36:20.999Z</time></trkpt><trkpt lat="44.23749791509277" lon="9.583267500356067"><ele>567.0</ele><time>2026-05-02T16:36:21.999Z</time></trkpt><trkpt lat="44.23741827599931" lon="9.583172459247102"><ele>567.0</ele><time>2026-05-02T16:36:22.999Z</time></trkpt><trkpt lat="44.23736171342368" lon="9.583036237061705"><ele>567.0</ele><time>2026-05-02T16:36:23.999Z</time></trkpt><trkpt lat="44.2372802402686" lon="9.5829373428353"><ele>567.0</ele><time>2026-05-02T16:36:24.999Z</time></trkpt><trkpt lat="44.237188663669286" lon="9.582880705336605"><ele>567.0</ele><time>2026-05-02T16:36:25.999Z</time></trkpt><trkpt lat="44.23708607196944" lon="9.582899770412805"><ele>567.0</ele><time>2026-05-02T16:36:26.999Z</time></trkpt><trkpt lat="44.236969385086134" lon="9.58304694127769"><ele>568.75</ele><time>2026-05-02T16:36:27.999Z</time></trkpt><trkpt lat="44.236880355467974" lon="9.583187325334363"><ele>570.5</ele><time>2026-05-02T16:36:28.999Z</time></trkpt><trkpt lat="44.23676901871462" lon="9.583294210585684"><ele>572.25</ele><time>2026-05-02T16:36:29.998Z</time></trkpt><trkpt lat="44.23667485886892" lon="9.58341860159437"><ele>574.0</ele><time>2026-05-02T16:36:30.998Z</time></trkpt><trkpt lat="44.23657012816183" lon="9.583480255777555"><ele>573.0</ele><time>2026-05-02T16:36:31.998Z</time></trkpt><trkpt lat="44.23645517112795" lon="9.583473846912726"><ele>572.0</ele><time>2026-05-02T16:36:32.998Z</time></trkpt><trkpt lat="44.2363242899635" lon="9.583487391050168"><ele>571.0</ele><time>2026-05-02T16:36:33.998Z</time></trkpt><trkpt lat="44.23618747595074" lon="9.583470248796836"><ele>570.0</ele><time>2026-05-02T16:36:34.998Z</time></trkpt><trkpt lat="44.236054126595356" lon="9.583408644580748"><ele>570.0</ele><time>2026-05-02T16:36:35.998Z</time></trkpt><trkpt lat="44.23592193186703" lon="9.583312586070281"><ele>570.0</ele><time>2026-05-02T16:36:36.998Z</time></trkpt><trkpt lat="44.235780159895775" lon="9.583220810341395"><ele>570.0</ele><time>2026-05-02T16:36:37.998Z</time></trkpt><trkpt lat="44.23563982216385" lon="9.583126524621186"><ele>569.3333333333334</ele><time>2026-05-02T16:36:38.998Z</time></trkpt><trkpt lat="44.235478397997454" lon="9.583096070637955"><ele>568.6666666666667</ele><time>2026-05-02T16:36:39.998Z</time></trkpt><trkpt lat="44.235321521560365" lon="9.58309014543202"><ele>568.0</ele><time>2026-05-02T16:36:40.998Z</time></trkpt><trkpt lat="44.23517432679035" lon="9.583113981469749"><ele>568.0</ele><time>2026-05-02T16:36:41.998Z</time></trkpt><trkpt lat="44.23504409427632" lon="9.583207470695818"><ele>568.0</ele><time>2026-05-02T16:36:42.998Z</time></trkpt><trkpt lat="44.23490464521457" lon="9.58336415721494"><ele>568.0</ele><time>2026-05-02T16:36:43.998Z</time></trkpt><trkpt lat="44.23477214740461" lon="9.583504786966659"><ele>570.6666666666667</ele><time>2026-05-02T16:36:44.998Z</time></trkpt><trkpt lat="44.23463466630807" lon="9.583630234195404"><ele>573.3333333333334</ele><time>2026-05-02T16:36:45.998Z</time></trkpt><trkpt lat="44.234513820150056" lon="9.583786715526877"><ele>576.0</ele><time>2026-05-02T16:36:46.998Z</time></trkpt><trkpt lat="44.23441185818726" lon="9.583972550993757"><ele>579.25</ele><time>2026-05-02T16:36:47.998Z</time></trkpt><trkpt lat="44.23431791204414" lon="9.58414187461571"><ele>582.5</ele><time>2026-05-02T16:36:48.998Z</time></trkpt><trkpt lat="44.23423463664965" lon="9.584281850776977"><ele>585.75</ele><time>2026-05-02T16:36:49.998Z</time></trkpt><trkpt lat="44.23416920023666" lon="9.584408549087364"><ele>589.0</ele><time>2026-05-02T16:36:50.998Z</time></trkpt><trkpt lat="44.23414680802667" lon="9.584573786731207"><ele>589.75</ele><time>2026-05-02T16:36:51.998Z</time></trkpt><trkpt lat="44.23417314672206" lon="9.584746530353927"><ele>590.5</ele><time>2026-05-02T16:36:52.998Z</time></trkpt><trkpt lat="44.23423605993215" lon="9.584909289511303"><ele>591.25</ele><time>2026-05-02T16:36:53.998Z</time></trkpt><trkpt lat="44.23431778415016" lon="9.585053569280229"><ele>592.0</ele><time>2026-05-02T16:36:54.998Z</time></trkpt><trkpt lat="44.23438944473674" lon="9.585202638478235"><ele>589.2</ele><time>2026-05-02T16:36:55.998Z</time></trkpt><trkpt lat="44.23442823465065" lon="9.585352416988037"><ele>586.4000000000001</ele><time>2026-05-02T16:36:56.998Z</time></trkpt><trkpt lat="44.234465023719146" lon="9.585455767586417"><ele>583.5999999999999</ele><time>2026-05-02T16:36:57.998Z</time></trkpt><trkpt lat="44.234457006571866" lon="9.585543551164443"><ele>580.8</ele><time>2026-05-02T16:36:58.998Z</time></trkpt><trkpt lat="44.23439627847144" lon="9.585637222460615"><ele>578.0</ele><time>2026-05-02T16:37:00Z</time></trkpt><trkpt lat="44.23429887328791" lon="9.585660904350819"><ele>578.0</ele><time>2026-05-02T16:37:01Z</time></trkpt><trkpt lat="44.23422063074392" lon="9.585731411674697"><ele>578.0</ele><time>2026-05-02T16:37:02Z</time></trkpt><trkpt lat="44.234130462217934" lon="9.585795417694019"><ele>578.0</ele><time>2026-05-02T16:37:03Z</time></trkpt><trkpt lat="44.23405112458188" lon="9.58587274410987"><ele>578.0</ele><time>2026-05-02T16:37:04Z</time></trkpt><trkpt lat="44.23395074168446" lon="9.58595773313886"><ele>578.0</ele><time>2026-05-02T16:37:05Z</time></trkpt><trkpt lat="44.23385483558333" lon="9.586043404503116"><ele>577.0</ele><time>2026-05-02T16:37:06Z</time></trkpt><trkpt lat="44.23377206043926" lon="9.586146787466005"><ele>576.0</ele><time>2026-05-02T16:37:07Z</time></trkpt><trkpt lat="44.233687019015115" lon="9.586260754276704"><ele>575.0</ele><time>2026-05-02T16:37:08Z</time></trkpt><trkpt lat="44.233599462831485" lon="9.586347780853036"><ele>574.0</ele><time>2026-05-02T16:37:09Z</time></trkpt><trkpt lat="44.23349783423577" lon="9.586374023015372"><ele>573.0</ele><time>2026-05-02T16:37:10Z</time></trkpt><trkpt lat="44.2333957161198" lon="9.586323061729576"><ele>573.0</ele><time>2026-05-02T16:37:11Z</time></trkpt><trkpt lat="44.23331392429219" lon="9.58625676163207"><ele>573.0</ele><time>2026-05-02T16:37:12Z</time></trkpt><trkpt lat="44.23321473520975" lon="9.586192397500184"><ele>573.0</ele><time>2026-05-02T16:37:13Z</time></trkpt><trkpt lat="44.23311513045951" lon="9.586133352566508"><ele>573.0</ele><time>2026-05-02T16:37:14Z</time></trkpt><trkpt lat="44.23299880232263" lon="9.586099224526254"><ele>573.0</ele><time>2026-05-02T16:37:15Z</time></trkpt><trkpt lat="44.232879777317144" lon="9.586081944449056"><ele>580.75</ele><time>2026-05-02T16:37:16Z</time></trkpt><trkpt lat="44.232751527551144" lon="9.586055676677802"><ele>588.5</ele><time>2026-05-02T16:37:17Z</time></trkpt><trkpt lat="44.232637804939685" lon="9.586002849142327"><ele>596.25</ele><time>2026-05-02T16:37:18Z</time></trkpt><trkpt lat="44.23252885142152" lon="9.585979769150983"><ele>604.0</ele><time>2026-05-02T16:37:19Z</time></trkpt><trkpt lat="44.23242199529768" lon="9.586019650541251"><ele>604.0</ele><time>2026-05-02T16:37:20Z</time></trkpt><trkpt lat="44.2323183703911" lon="9.586132312836957"><ele>604.0</ele><time>2026-05-02T16:37:21Z</time></trkpt><trkpt lat="44.23221746347523" lon="9.586246508448946"><ele>604.0</ele><time>2026-05-02T16:37:22Z</time></trkpt><trkpt lat="44.232102600481795" lon="9.586323317981162"><ele>604.0</ele><time>2026-05-02T16:37:23Z</time></trkpt><trkpt lat="44.231981643792324" lon="9.586390352377729"><ele>600.5</ele><time>2026-05-02T16:37:24Z</time></trkpt><trkpt lat="44.23186400990752" lon="9.58646920580194"><ele>597.0</ele><time>2026-05-02T16:37:25Z</time></trkpt><trkpt lat="44.23174778503508" lon="9.586514702966626"><ele>593.5</ele><time>2026-05-02T16:37:26Z</time></trkpt><trkpt lat="44.231634201817336" lon="9.586535015528911"><ele>590.0</ele><time>2026-05-02T16:37:27Z</time></trkpt><trkpt lat="44.23151409555618" lon="9.586469976973754"><ele>586.0</ele><time>2026-05-02T16:37:28Z</time></trkpt><trkpt lat="44.23139823950836" lon="9.586448615967377"><ele>582.0</ele><time>2026-05-02T16:37:29Z</time></trkpt><trkpt lat="44.23129794942415" lon="9.586459928731585"><ele>578.0</ele><time>2026-05-02T16:37:30Z</time></trkpt><trkpt lat="44.231181982839054" lon="9.586541834820999"><ele>574.0</ele><time>2026-05-02T16:37:31Z</time></trkpt><trkpt lat="44.23108704238831" lon="9.586677879951536"><ele>574.0</ele><time>2026-05-02T16:37:32Z</time></trkpt><trkpt lat="44.23100427604599" lon="9.586822389064139"><ele>574.0</ele><time>2026-05-02T16:37:32.999Z</time></trkpt><trkpt lat="44.23092108719299" lon="9.586995214208304"><ele>574.0</ele><time>2026-05-02T16:37:33.999Z</time></trkpt><trkpt lat="44.23083557056318" lon="9.587162683807176"><ele>574.0</ele><time>2026-05-02T16:37:34.999Z</time></trkpt><trkpt lat="44.23073620658913" lon="9.587329989083404"><ele>571.3333333333334</ele><time>2026-05-02T16:37:35.999Z</time></trkpt><trkpt lat="44.23064550508625" lon="9.587495191185115"><ele>568.6666666666666</ele><time>2026-05-02T16:37:36.999Z</time></trkpt><trkpt lat="44.23055917398432" lon="9.587678942786964"><ele>566.0</ele><time>2026-05-02T16:37:37.999Z</time></trkpt><trkpt lat="44.230474289381704" lon="9.587863391032545"><ele>572.3333333333333</ele><time>2026-05-02T16:37:38.999Z</time></trkpt><trkpt lat="44.230385445694694" lon="9.588039234702366"><ele>578.6666666666666</ele><time>2026-05-02T16:37:39.999Z</time></trkpt><trkpt lat="44.230283065565985" lon="9.588209680866493"><ele>585.0</ele><time>2026-05-02T16:37:40.999Z</time></trkpt><trkpt lat="44.23017074657314" lon="9.588374465456795"><ele>585.0</ele><time>2026-05-02T16:37:41.999Z</time></trkpt><trkpt lat="44.230049207039905" lon="9.58853491676751"><ele>585.0</ele><time>2026-05-02T16:37:42.999Z</time></trkpt><trkpt lat="44.22992841235079" lon="9.588675915301165"><ele>585.0</ele><time>2026-05-02T16:37:43.999Z</time></trkpt><trkpt lat="44.22980710435348" lon="9.588775142599214"><ele>583.75</ele><time>2026-05-02T16:37:44.999Z</time></trkpt><trkpt lat="44.229701010585714" lon="9.58889476267792"><ele>582.5</ele><time>2026-05-02T16:37:45.999Z</time></trkpt><trkpt lat="44.229613471572286" lon="9.589050355013585"><ele>581.25</ele><time>2026-05-02T16:37:46.999Z</time></trkpt><trkpt lat="44.22951416595239" lon="9.589203738896938"><ele>580.0</ele><time>2026-05-02T16:37:47.999Z</time></trkpt><trkpt lat="44.229435702057074" lon="9.589375935626947"><ele>587.0</ele><time>2026-05-02T16:37:48.999Z</time></trkpt><trkpt lat="44.22936436503623" lon="9.589540598228943"><ele>594.0</ele><time>2026-05-02T16:37:49.999Z</time></trkpt><trkpt lat="44.22926989575155" lon="9.58966290552199"><ele>601.0</ele><time>2026-05-02T16:37:50.999Z</time></trkpt><trkpt lat="44.229175259499286" lon="9.589743475531929"><ele>608.0</ele><time>2026-05-02T16:37:51.999Z</time></trkpt><trkpt lat="44.22910018105643" lon="9.589796737434545"><ele>608.0</ele><time>2026-05-02T16:37:52.999Z</time></trkpt><trkpt lat="44.229010414054855" lon="9.589824071212382"><ele>608.0</ele><time>2026-05-02T16:37:53.999Z</time></trkpt><trkpt lat="44.22891158344344" lon="9.589823446910057"><ele>608.0</ele><time>2026-05-02T16:37:54.999Z</time></trkpt><trkpt lat="44.2288277994933" lon="9.589761323781385"><ele>608.0</ele><time>2026-05-02T16:37:55.999Z</time></trkpt><trkpt lat="44.228728112872176" lon="9.589709855106902"><ele>608.0</ele><time>2026-05-02T16:37:56.999Z</time></trkpt><trkpt lat="44.22862588016093" lon="9.58961269671948"><ele>603.5</ele><time>2026-05-02T16:37:57.999Z</time></trkpt><trkpt lat="44.22852084008203" lon="9.589508457720171"><ele>599.0</ele><time>2026-05-02T16:37:58.999Z</time></trkpt><trkpt lat="44.22841797545579" lon="9.589400737479004"><ele>594.5</ele><time>2026-05-02T16:37:59.999Z</time></trkpt><trkpt lat="44.22830480825101" lon="9.589299609494542"><ele>590.0</ele><time>2026-05-02T16:38:00.999Z</time></trkpt><trkpt lat="44.22820888243124" lon="9.589216165836623"><ele>590.8</ele><time>2026-05-02T16:38:01.999Z</time></trkpt><trkpt lat="44.22813001473421" lon="9.589141986611748"><ele>591.6</ele><time>2026-05-02T16:38:02.999Z</time></trkpt><trkpt lat="44.228064726531954" lon="9.589052749348353"><ele>592.4</ele><time>2026-05-02T16:38:03.999Z</time></trkpt><trkpt lat="44.228002561998984" lon="9.588907578237961"><ele>593.2</ele><time>2026-05-02T16:38:04.999Z</time></trkpt><trkpt lat="44.22795251317752" lon="9.588723921869505"><ele>594.0</ele><time>2026-05-02T16:38:05.999Z</time></trkpt><trkpt lat="44.22793509899619" lon="9.588551019674778"><ele>591.4</ele><time>2026-05-02T16:38:06.999Z</time></trkpt><trkpt lat="44.227876308385575" lon="9.588429553647924"><ele>588.8</ele><time>2026-05-02T16:38:07.999Z</time></trkpt><trkpt lat="44.22778861391216" lon="9.588368088941362"><ele>586.2</ele><time>2026-05-02T16:38:08.999Z</time></trkpt><trkpt lat="44.22768182520704" lon="9.588370275817551"><ele>583.6</ele><time>2026-05-02T16:38:09.999Z</time></trkpt><trkpt lat="44.227575476678446" lon="9.588461444382569"><ele>581.0</ele><time>2026-05-02T16:38:10.999Z</time></trkpt><trkpt lat="44.22751058396598" lon="9.588569186884484"><ele>583.6</ele><time>2026-05-02T16:38:11.999Z</time></trkpt><trkpt lat="44.22747489992572" lon="9.588708118718008"><ele>586.2</ele><time>2026-05-02T16:38:12.999Z</time></trkpt><trkpt lat="44.227485215620604" lon="9.5888630638865"><ele>588.8</ele><time>2026-05-02T16:38:13.999Z</time></trkpt><trkpt lat="44.22747027118929" lon="9.589018647942959"><ele>591.4</ele><time>2026-05-02T16:38:14.999Z</time></trkpt><trkpt lat="44.22742620611768" lon="9.58913739720134"><ele>594.0</ele><time>2026-05-02T16:38:15.999Z</time></trkpt><trkpt lat="44.227364012843445" lon="9.58926572340999"><ele>594.25</ele><time>2026-05-02T16:38:16.999Z</time></trkpt><trkpt lat="44.22730083256652" lon="9.589424577264147"><ele>594.5</ele><time>2026-05-02T16:38:17.999Z</time></trkpt><trkpt lat="44.22726526575219" lon="9.589603994849417"><ele>594.75</ele><time>2026-05-02T16:38:18.999Z</time></trkpt><trkpt lat="44.2272353348154" lon="9.589751597910185"><ele>595.0</ele><time>2026-05-02T16:38:19.999Z</time></trkpt><trkpt lat="44.22720889484465" lon="9.589852262629593"><ele>595.0</ele><time>2026-05-02T16:38:20.999Z</time></trkpt><trkpt lat="44.22715328582988" lon="9.589916462252903"><ele>595.0</ele><time>2026-05-02T16:38:21.999Z</time></trkpt><trkpt lat="44.2270611285186" lon="9.589958637585939"><ele>595.0</ele><time>2026-05-02T16:38:22.999Z</time></trkpt><trkpt lat="44.2269724190588" lon="9.589992796130883"><ele>595.0</ele><time>2026-05-02T16:38:23.999Z</time></trkpt><trkpt lat="44.22687461503159" lon="9.590020485025422"><ele>595.0</ele><time>2026-05-02T16:38:24.999Z</time></trkpt><trkpt lat="44.22676789252321" lon="9.59006408328024"><ele>595.0</ele><time>2026-05-02T16:38:25.999Z</time></trkpt><trkpt lat="44.226654266725724" lon="9.590114773851395"><ele>595.0</ele><time>2026-05-02T16:38:26.999Z</time></trkpt><trkpt lat="44.22654365351215" lon="9.590140951106692"><ele>595.0</ele><time>2026-05-02T16:38:27.999Z</time></trkpt><trkpt lat="44.22640985169206" lon="9.590127107769481"><ele>595.0</ele><time>2026-05-02T16:38:28.999Z</time></trkpt><trkpt lat="44.226273739319225" lon="9.590087284570366"><ele>594.25</ele><time>2026-05-02T16:38:29.999Z</time></trkpt><trkpt lat="44.226133530850674" lon="9.590030102312552"><ele>593.5</ele><time>2026-05-02T16:38:30.999Z</time></trkpt><trkpt lat="44.225991101183574" lon="9.590042096058733"><ele>592.75</ele><time>2026-05-02T16:38:31.999Z</time></trkpt><trkpt lat="44.22584341031473" lon="9.590090067457536"><ele>592.0</ele><time>2026-05-02T16:38:32.999Z</time></trkpt><trkpt lat="44.225692252860604" lon="9.590119677034236"><ele>591.6666666666667</ele><time>2026-05-02T16:38:33.999Z</time></trkpt><trkpt lat="44.225529261644056" lon="9.590139764537165"><ele>591.3333333333334</ele><time>2026-05-02T16:38:34.999Z</time></trkpt><trkpt lat="44.22536471842065" lon="9.5901167057378"><ele>591.0</ele><time>2026-05-02T16:38:35.999Z</time></trkpt><trkpt lat="44.225208851887395" lon="9.590135507118097"><ele>591.0</ele><time>2026-05-02T16:38:36.999Z</time></trkpt><trkpt lat="44.225079541923755" lon="9.590176823691134"><ele>591.0</ele><time>2026-05-02T16:38:37.999Z</time></trkpt><trkpt lat="44.224922442393726" lon="9.590272958862611"><ele>591.0</ele><time>2026-05-02T16:38:38.999Z</time></trkpt><trkpt lat="44.22480328304998" lon="9.590396674113599"><ele>591.75</ele><time>2026-05-02T16:38:39.999Z</time></trkpt><trkpt lat="44.22470196810256" lon="9.59054482450424"><ele>592.5</ele><time>2026-05-02T16:38:40.999Z</time></trkpt><trkpt lat="44.224610691860015" lon="9.590672023591837"><ele>593.25</ele><time>2026-05-02T16:38:41.999Z</time></trkpt><trkpt lat="44.22451067190251" lon="9.590779911323226"><ele>594.0</ele><time>2026-05-02T16:38:42.999Z</time></trkpt><trkpt lat="44.22437656325194" lon="9.590800298799367"><ele>594.0</ele><time>2026-05-02T16:38:43.998Z</time></trkpt><trkpt lat="44.22425128691297" lon="9.59086786139429"><ele>594.0</ele><time>2026-05-02T16:38:44.998Z</time></trkpt><trkpt lat="44.224120242841565" lon="9.590945891733513"><ele>594.0</ele><time>2026-05-02T16:38:45.998Z</time></trkpt><trkpt lat="44.223988536203485" lon="9.591034602766461"><ele>594.0</ele><time>2026-05-02T16:38:46.998Z</time></trkpt><trkpt lat="44.223854873278384" lon="9.5911190848503"><ele>594.25</ele><time>2026-05-02T16:38:47.998Z</time></trkpt><trkpt lat="44.223718882879815" lon="9.591201823547276"><ele>594.5</ele><time>2026-05-02T16:38:48.998Z</time></trkpt><trkpt lat="44.22358931953998" lon="9.591286226218488"><ele>594.75</ele><time>2026-05-02T16:38:49.998Z</time></trkpt><trkpt lat="44.22345841907452" lon="9.591345580586234"><ele>595.0</ele><time>2026-05-02T16:38:50.998Z</time></trkpt><trkpt lat="44.22332180167261" lon="9.591349541396356"><ele>595.0</ele><time>2026-05-02T16:38:51.998Z</time></trkpt><trkpt lat="44.223199016437974" lon="9.591343302963248"><ele>595.0</ele><time>2026-05-02T16:38:52.998Z</time></trkpt><trkpt lat="44.223087906618" lon="9.591331445903617"><ele>595.0</ele><time>2026-05-02T16:38:53.998Z</time></trkpt><trkpt lat="44.222977580251005" lon="9.591258214166519"><ele>595.0</ele><time>2026-05-02T16:38:54.998Z</time></trkpt><trkpt lat="44.222856316580106" lon="9.59120916535388"><ele>594.5</ele><time>2026-05-02T16:38:55.998Z</time></trkpt><trkpt lat="44.22273097197445" lon="9.591168348830083"><ele>594.0</ele><time>2026-05-02T16:38:56.998Z</time></trkpt><trkpt lat="44.222605174199025" lon="9.591188166347093"><ele>593.5</ele><time>2026-05-02T16:38:57.998Z</time></trkpt><trkpt lat="44.22249716060966" lon="9.591228684469757"><ele>593.0</ele><time>2026-05-02T16:38:58.998Z</time></trkpt><trkpt lat="44.22240408289881" lon="9.591214089074805"><ele>593.0</ele><time>2026-05-02T16:38:59.998Z</time></trkpt><trkpt lat="44.222333618259036" lon="9.59114178675827"><ele>593.0</ele><time>2026-05-02T16:39:00.998Z</time></trkpt><trkpt lat="44.222287545347086" lon="9.591010341641871"><ele>593.0</ele><time>2026-05-02T16:39:01.998Z</time></trkpt><trkpt lat="44.22226380610133" lon="9.590867819005892"><ele>593.0</ele><time>2026-05-02T16:39:02.998Z</time></trkpt><trkpt lat="44.22226720573779" lon="9.590719098575752"><ele>593.0</ele><time>2026-05-02T16:39:03.998Z</time></trkpt><trkpt lat="44.22225860501012" lon="9.590559683624493"><ele>596.5</ele><time>2026-05-02T16:39:04.998Z</time></trkpt><trkpt lat="44.22222024222666" lon="9.590400774692808"><ele>600.0</ele><time>2026-05-02T16:39:06Z</time></trkpt><trkpt lat="44.222144842575055" lon="9.590258936611072"><ele>603.5</ele><time>2026-05-02T16:39:07Z</time></trkpt><trkpt lat="44.22205785515942" lon="9.590135098800369"><ele>607.0</ele><time>2026-05-02T16:39:08Z</time></trkpt><trkpt lat="44.22196957607732" lon="9.589995475953861"><ele>607.0</ele><time>2026-05-02T16:39:09Z</time></trkpt><trkpt lat="44.22187544481602" lon="9.589854415193848"><ele>607.0</ele><time>2026-05-02T16:39:10Z</time></trkpt><trkpt lat="44.22177912501599" lon="9.58971145841816"><ele>607.0</ele><time>2026-05-02T16:39:11Z</time></trkpt><trkpt lat="44.221675680287156" lon="9.589575362106944"><ele>607.0</ele><time>2026-05-02T16:39:12Z</time></trkpt><trkpt lat="44.22156459815164" lon="9.589442365009178"><ele>611.0</ele><time>2026-05-02T16:39:13Z</time></trkpt><trkpt lat="44.221454953300835" lon="9.589298557837266"><ele>615.0</ele><time>2026-05-02T16:39:14Z</time></trkpt><trkpt lat="44.221363889638845" lon="9.589123118484602"><ele>619.0</ele><time>2026-05-02T16:39:15Z</time></trkpt><trkpt lat="44.22129882198285" lon="9.588928384459846"><ele>619.0</ele><time>2026-05-02T16:39:16Z</time></trkpt><trkpt lat="44.22123139457911" lon="9.58873344316318"><ele>619.0</ele><time>2026-05-02T16:39:17Z</time></trkpt><trkpt lat="44.22114980585468" lon="9.588559307277507"><ele>619.0</ele><time>2026-05-02T16:39:18Z</time></trkpt><trkpt lat="44.22105902063426" lon="9.588428979357563"><ele>619.0</ele><time>2026-05-02T16:39:19Z</time></trkpt><trkpt lat="44.220947656736996" lon="9.588355691521533"><ele>615.5</ele><time>2026-05-02T16:39:20Z</time></trkpt><trkpt lat="44.22082004853118" lon="9.588336916711501"><ele>612.0</ele><time>2026-05-02T16:39:21Z</time></trkpt><trkpt lat="44.22069084472514" lon="9.588324395031627"><ele>608.5</ele><time>2026-05-02T16:39:22Z</time></trkpt><trkpt lat="44.22055675501869" lon="9.58829657291496"><ele>605.0</ele><time>2026-05-02T16:39:23Z</time></trkpt><trkpt lat="44.22041881865834" lon="9.588278829876462"><ele>605.0</ele><time>2026-05-02T16:39:24Z</time></trkpt><trkpt lat="44.220280701044786" lon="9.588253709720574"><ele>605.0</ele><time>2026-05-02T16:39:25Z</time></trkpt><trkpt lat="44.22013525845289" lon="9.58822857611008"><ele>605.0</ele><time>2026-05-02T16:39:26Z</time></trkpt><trkpt lat="44.219987853533986" lon="9.588218661140376"><ele>605.0</ele><time>2026-05-02T16:39:27Z</time></trkpt><trkpt lat="44.219843903642605" lon="9.588219132511691"><ele>607.75</ele><time>2026-05-02T16:39:28Z</time></trkpt><trkpt lat="44.21971362942495" lon="9.58819304940781"><ele>610.5</ele><time>2026-05-02T16:39:29Z</time></trkpt><trkpt lat="44.21958782679051" lon="9.588133934625032"><ele>613.25</ele><time>2026-05-02T16:39:30Z</time></trkpt><trkpt lat="44.219487121383224" lon="9.588002020811128"><ele>616.0</ele><time>2026-05-02T16:39:31Z</time></trkpt><trkpt lat="44.2194005093451" lon="9.587859091943807"><ele>608.75</ele><time>2026-05-02T16:39:32Z</time></trkpt><trkpt lat="44.219295588567505" lon="9.587767082761381"><ele>601.5</ele><time>2026-05-02T16:39:33Z</time></trkpt><trkpt lat="44.219183476278694" lon="9.587694289774142"><ele>594.25</ele><time>2026-05-02T16:39:34Z</time></trkpt><trkpt lat="44.219043916595496" lon="9.587674547788247"><ele>587.0</ele><time>2026-05-02T16:39:35Z</time></trkpt><trkpt lat="44.218905298974896" lon="9.587672069246013"><ele>587.0</ele><time>2026-05-02T16:39:36Z</time></trkpt><trkpt lat="44.21876947457283" lon="9.587717161047133"><ele>587.0</ele><time>2026-05-02T16:39:37Z</time></trkpt><trkpt lat="44.21864141389278" lon="9.587819285447218"><ele>587.0</ele><time>2026-05-02T16:39:38Z</time></trkpt><trkpt lat="44.21851656268959" lon="9.58792240310362"><ele>587.0</ele><time>2026-05-02T16:39:39Z</time></trkpt><trkpt lat="44.21839785456514" lon="9.588026655068882"><ele>593.5</ele><time>2026-05-02T16:39:40Z</time></trkpt><trkpt lat="44.21825142388682" lon="9.588084471458577"><ele>600.0</ele><time>2026-05-02T16:39:41Z</time></trkpt><trkpt lat="44.21810787895922" lon="9.588118253846176"><ele>606.5</ele><time>2026-05-02T16:39:42Z</time></trkpt><trkpt lat="44.217976186473564" lon="9.588129357752463"><ele>613.0</ele><time>2026-05-02T16:39:43Z</time></trkpt><trkpt lat="44.21786849948967" lon="9.588142240581275"><ele>615.1666666666667</ele><time>2026-05-02T16:39:44Z</time></trkpt><trkpt lat="44.217790808529635" lon="9.588142557378807"><ele>617.3333333333334</ele><time>2026-05-02T16:39:45Z</time></trkpt><trkpt lat="44.21772949369283" lon="9.588091829036989"><ele>619.5</ele><time>2026-05-02T16:39:46Z</time></trkpt><trkpt lat="44.21769271650662" lon="9.58798958953858"><ele>621.6666666666666</ele><time>2026-05-02T16:39:47Z</time></trkpt><trkpt lat="44.217701449027416" lon="9.587868122293106"><ele>623.8333333333333</ele><time>2026-05-02T16:39:48Z</time></trkpt><trkpt lat="44.217734618124645" lon="9.587746822817273"><ele>626.0</ele><time>2026-05-02T16:39:49Z</time></trkpt><trkpt lat="44.21777543827973" lon="9.587625425125992"><ele>626.0</ele><time>2026-05-02T16:39:50Z</time></trkpt><trkpt lat="44.21780439718055" lon="9.587488900055574"><ele>626.0</ele><time>2026-05-02T16:39:51Z</time></trkpt><trkpt lat="44.217835723132474" lon="9.587343013285656"><ele>626.0</ele><time>2026-05-02T16:39:52Z</time></trkpt><trkpt lat="44.21786663982176" lon="9.587188904141176"><ele>626.0</ele><time>2026-05-02T16:39:53Z</time></trkpt><trkpt lat="44.21788559395819" lon="9.587023322265702"><ele>626.0</ele><time>2026-05-02T16:39:54Z</time></trkpt><trkpt lat="44.21788130029413" lon="9.586842100707576"><ele>624.25</ele><time>2026-05-02T16:39:55Z</time></trkpt><trkpt lat="44.21783836207106" lon="9.586662015652147"><ele>622.5</ele><time>2026-05-02T16:39:56Z</time></trkpt><trkpt lat="44.21776800342142" lon="9.586496178053396"><ele>620.75</ele><time>2026-05-02T16:39:57Z</time></trkpt><trkpt lat="44.21768892216966" lon="9.586328998442836"><ele>619.0</ele><time>2026-05-02T16:39:57.999Z</time></trkpt><trkpt lat="44.21762410708458" lon="9.586146852281228"><ele>614.75</ele><time>2026-05-02T16:39:58.999Z</time></trkpt><trkpt lat="44.21756847112503" lon="9.585952573010042"><ele>610.5</ele><time>2026-05-02T16:39:59.999Z</time></trkpt><trkpt lat="44.217526830283035" lon="9.585767581345577"><ele>606.25</ele><time>2026-05-02T16:40:00.999Z</time></trkpt><trkpt lat="44.21748750213199" lon="9.585607587378025"><ele>602.0</ele><time>2026-05-02T16:40:01.999Z</time></trkpt><trkpt lat="44.217406926351444" lon="9.585501639594554"><ele>607.75</ele><time>2026-05-02T16:40:02.999Z</time></trkpt><trkpt lat="44.2172943300129" lon="9.585451939506168"><ele>613.5</ele><time>2026-05-02T16:40:03.999Z</time></trkpt><trkpt lat="44.217174265868486" lon="9.58544164936582"><ele>619.25</ele><time>2026-05-02T16:40:04.999Z</time></trkpt><trkpt lat="44.21706381117391" lon="9.585430340068541"><ele>625.0</ele><time>2026-05-02T16:40:05.999Z</time></trkpt><trkpt lat="44.21694067415604" lon="9.585379937012167"><ele>619.5</ele><time>2026-05-02T16:40:06.999Z</time></trkpt><trkpt lat="44.21682326907637" lon="9.585299826778213"><ele>614.0</ele><time>2026-05-02T16:40:07.999Z</time></trkpt><trkpt lat="44.21669635837679" lon="9.585249398261086"><ele>608.5</ele><time>2026-05-02T16:40:08.999Z</time></trkpt><trkpt lat="44.21656764242197" lon="9.585248494054026"><ele>603.0</ele><time>2026-05-02T16:40:09.999Z</time></trkpt><trkpt lat="44.21642855171865" lon="9.585289636503841"><ele>603.0</ele><time>2026-05-02T16:40:10.999Z</time></trkpt><trkpt lat="44.21629424008566" lon="9.5853411154645"><ele>603.0</ele><time>2026-05-02T16:40:11.999Z</time></trkpt><trkpt lat="44.21616006754028" lon="9.58539160654743"><ele>603.0</ele><time>2026-05-02T16:40:12.999Z</time></trkpt><trkpt lat="44.216044801081836" lon="9.585448179505834"><ele>603.0</ele><time>2026-05-02T16:40:13.999Z</time></trkpt><trkpt lat="44.21595240384998" lon="9.585499608275072"><ele>603.0</ele><time>2026-05-02T16:40:14.999Z</time></trkpt><trkpt lat="44.21587532163714" lon="9.585517300009464"><ele>603.0</ele><time>2026-05-02T16:40:15.999Z</time></trkpt><trkpt lat="44.21580756245937" lon="9.585512968072324"><ele>603.0</ele><time>2026-05-02T16:40:16.999Z</time></trkpt><trkpt lat="44.215761103678815" lon="9.58541975787921"><ele>603.0</ele><time>2026-05-02T16:40:17.999Z</time></trkpt><trkpt lat="44.215708532467886" lon="9.585321758603815"><ele>603.0</ele><time>2026-05-02T16:40:18.999Z</time></trkpt><trkpt lat="44.21566239415367" lon="9.58520379339566"><ele>603.0</ele><time>2026-05-02T16:40:19.999Z</time></trkpt><trkpt lat="44.21560123775049" lon="9.585085583400138"><ele>604.75</ele><time>2026-05-02T16:40:20.999Z</time></trkpt><trkpt lat="44.21553383465038" lon="9.584961287885575"><ele>606.5</ele><time>2026-05-02T16:40:21.999Z</time></trkpt><trkpt lat="44.215476454590295" lon="9.584816484754715"><ele>608.25</ele><time>2026-05-02T16:40:22.999Z</time></trkpt><trkpt lat="44.215440048983154" lon="9.58465069809122"><ele>610.0</ele><time>2026-05-02T16:40:23.999Z</time></trkpt><trkpt lat="44.21541384319052" lon="9.584474723941577"><ele>610.0</ele><time>2026-05-02T16:40:24.999Z</time></trkpt><trkpt lat="44.21534272541766" lon="9.584333752974679"><ele>610.0</ele><time>2026-05-02T16:40:25.999Z</time></trkpt><trkpt lat="44.21523111926477" lon="9.584238562543812"><ele>610.0</ele><time>2026-05-02T16:40:26.999Z</time></trkpt><trkpt lat="44.21510281949728" lon="9.584190390060481"><ele>610.0</ele><time>2026-05-02T16:40:27.999Z</time></trkpt><trkpt lat="44.21497944090521" lon="9.584126519485137"><ele>610.0</ele><time>2026-05-02T16:40:28.999Z</time></trkpt><trkpt lat="44.21485242993468" lon="9.584056030104167"><ele>610.0</ele><time>2026-05-02T16:40:29.999Z</time></trkpt><trkpt lat="44.214722675031325" lon="9.583983261994316"><ele>610.0</ele><time>2026-05-02T16:40:30.999Z</time></trkpt><trkpt lat="44.21459279244806" lon="9.58390150990201"><ele>610.0</ele><time>2026-05-02T16:40:31.999Z</time></trkpt><trkpt lat="44.2144539400367" lon="9.583817481169982"><ele>607.75</ele><time>2026-05-02T16:40:32.999Z</time></trkpt><trkpt lat="44.21431389548531" lon="9.583737648147485"><ele>605.5</ele><time>2026-05-02T16:40:33.999Z</time></trkpt><trkpt lat="44.21417877750278" lon="9.583658057384726"><ele>603.25</ele><time>2026-05-02T16:40:34.999Z</time></trkpt><trkpt lat="44.21406379141807" lon="9.583600325146095"><ele>601.0</ele><time>2026-05-02T16:40:35.999Z</time></trkpt><trkpt lat="44.21395720782988" lon="9.583565737992428"><ele>600.75</ele><time>2026-05-02T16:40:36.999Z</time></trkpt><trkpt lat="44.2138551752619" lon="9.583582957687625"><ele>600.5</ele><time>2026-05-02T16:40:37.999Z</time></trkpt><trkpt lat="44.213752215688224" lon="9.583674329042116"><ele>600.25</ele><time>2026-05-02T16:40:38.999Z</time></trkpt><trkpt lat="44.21366435003092" lon="9.583767680054567"><ele>600.0</ele><time>2026-05-02T16:40:39.999Z</time></trkpt><trkpt lat="44.213562296092675" lon="9.583857730475719"><ele>604.0</ele><time>2026-05-02T16:40:40.999Z</time></trkpt><trkpt lat="44.213473208760945" lon="9.58397267670995"><ele>608.0</ele><time>2026-05-02T16:40:41.999Z</time></trkpt><trkpt lat="44.213395388926244" lon="9.584110395431248"><ele>612.0</ele><time>2026-05-02T16:40:42.999Z</time></trkpt><trkpt lat="44.21331421490529" lon="9.584251217674604"><ele>616.0</ele><time>2026-05-02T16:40:43.999Z</time></trkpt><trkpt lat="44.21323501957492" lon="9.58438160235676"><ele>616.0</ele><time>2026-05-02T16:40:44.999Z</time></trkpt><trkpt lat="44.21316189827925" lon="9.584476307633878"><ele>616.0</ele><time>2026-05-02T16:40:45.999Z</time></trkpt><trkpt lat="44.21308056799012" lon="9.584484612955702"><ele>616.0</ele><time>2026-05-02T16:40:46.999Z</time></trkpt><trkpt lat="44.21300954778413" lon="9.584449680229048"><ele>616.0</ele><time>2026-05-02T16:40:47.999Z</time></trkpt><trkpt lat="44.212984648630666" lon="9.584357732231632"><ele>616.0</ele><time>2026-05-02T16:40:48.999Z</time></trkpt><trkpt lat="44.21292958118904" lon="9.584286181827832"><ele>616.0</ele><time>2026-05-02T16:40:49.999Z</time></trkpt><trkpt lat="44.212864201082894" lon="9.584209502850387"><ele>617.6</ele><time>2026-05-02T16:40:50.999Z</time></trkpt><trkpt lat="44.21276855722617" lon="9.58422565301414"><ele>619.2</ele><time>2026-05-02T16:40:51.999Z</time></trkpt><trkpt lat="44.21267799498222" lon="9.584317286492556"><ele>620.8</ele><time>2026-05-02T16:40:52.999Z</time></trkpt><trkpt lat="44.21261122708119" lon="9.58442256915214"><ele>622.4</ele><time>2026-05-02T16:40:53.999Z</time></trkpt><trkpt lat="44.21253573347892" lon="9.584529414325154"><ele>624.0</ele><time>2026-05-02T16:40:54.999Z</time></trkpt><trkpt lat="44.21246719393218" lon="9.5846459596274"><ele>624.0</ele><time>2026-05-02T16:40:55.999Z</time></trkpt><trkpt lat="44.21239343820884" lon="9.584772421373126"><ele>624.0</ele><time>2026-05-02T16:40:56.999Z</time></trkpt><trkpt lat="44.21231656497871" lon="9.58490265475547"><ele>624.0</ele><time>2026-05-02T16:40:57.999Z</time></trkpt><trkpt lat="44.21225199354434" lon="9.585056550475544"><ele>624.0</ele><time>2026-05-02T16:40:58.999Z</time></trkpt><trkpt lat="44.21218767034352" lon="9.585216733259479"><ele>622.25</ele><time>2026-05-02T16:40:59.999Z</time></trkpt><trkpt lat="44.21211516403924" lon="9.585363362450567"><ele>620.5</ele><time>2026-05-02T16:41:00.999Z</time></trkpt><trkpt lat="44.21204323464316" lon="9.58553307501713"><ele>618.75</ele><time>2026-05-02T16:41:01.999Z</time></trkpt><trkpt lat="44.21195336993856" lon="9.585720888541381"><ele>617.0</ele><time>2026-05-02T16:41:02.999Z</time></trkpt><trkpt lat="44.21187965829974" lon="9.585902307910587"><ele>617.0</ele><time>2026-05-02T16:41:03.999Z</time></trkpt><trkpt lat="44.211819642056504" lon="9.586056344317718"><ele>617.0</ele><time>2026-05-02T16:41:04.999Z</time></trkpt><trkpt lat="44.21177028542315" lon="9.586168585920616"><ele>617.0</ele><time>2026-05-02T16:41:05.998Z</time></trkpt><trkpt lat="44.21175447590092" lon="9.58627956469857"><ele>617.0</ele><time>2026-05-02T16:41:06.998Z</time></trkpt><trkpt lat="44.21178927571384" lon="9.586416166103433"><ele>617.0</ele><time>2026-05-02T16:41:07.998Z</time></trkpt><trkpt lat="44.211846901474" lon="9.586558417582824"><ele>617.0</ele><time>2026-05-02T16:41:08.998Z</time></trkpt><trkpt lat="44.21190110127965" lon="9.586690835612034"><ele>617.0</ele><time>2026-05-02T16:41:09.998Z</time></trkpt><trkpt lat="44.2119556995452" lon="9.586828994239164"><ele>617.0</ele><time>2026-05-02T16:41:10.998Z</time></trkpt><trkpt lat="44.212014465738" lon="9.586976336881326"><ele>617.0</ele><time>2026-05-02T16:41:12Z</time></trkpt><trkpt lat="44.212073731526736" lon="9.58712268579391"><ele>617.0</ele><time>2026-05-02T16:41:13Z</time></trkpt><trkpt lat="44.21211651427489" lon="9.587233338619349"><ele>617.0</ele><time>2026-05-02T16:41:14Z</time></trkpt><trkpt lat="44.212136956431515" lon="9.587331698227747"><ele>617.0</ele><time>2026-05-02T16:41:15Z</time></trkpt><trkpt lat="44.21212625739732" lon="9.587425951312088"><ele>617.0</ele><time>2026-05-02T16:41:16Z</time></trkpt><trkpt lat="44.21205697997612" lon="9.5874983148138"><ele>617.0</ele><time>2026-05-02T16:41:17Z</time></trkpt><trkpt lat="44.2119565075912" lon="9.587475386613525"><ele>617.0</ele><time>2026-05-02T16:41:18Z</time></trkpt><trkpt lat="44.21186237222419" lon="9.587495775107927"><ele>617.0</ele><time>2026-05-02T16:41:19Z</time></trkpt><trkpt lat="44.21176006328728" lon="9.587555289654302"><ele>617.0</ele><time>2026-05-02T16:41:20Z</time></trkpt><trkpt lat="44.21168440802009" lon="9.587697285311144"><ele>617.0</ele><time>2026-05-02T16:41:21Z</time></trkpt><trkpt lat="44.21162393559064" lon="9.587844524128847"><ele>617.0</ele><time>2026-05-02T16:41:22Z</time></trkpt><trkpt lat="44.21149953310353" lon="9.587892660882652"><ele>618.0</ele><time>2026-05-02T16:41:23Z</time></trkpt><trkpt lat="44.21136688441848" lon="9.587917799433708"><ele>619.0</ele><time>2026-05-02T16:41:24Z</time></trkpt><trkpt lat="44.2112279689356" lon="9.587949077105762"><ele>620.0</ele><time>2026-05-02T16:41:25Z</time></trkpt><trkpt lat="44.21108348088426" lon="9.587954409508574"><ele>621.0</ele><time>2026-05-02T16:41:26Z</time></trkpt><trkpt lat="44.21095416873307" lon="9.587940240484713"><ele>621.0</ele><time>2026-05-02T16:41:27Z</time></trkpt><trkpt lat="44.210829614399174" lon="9.587877158382536"><ele>621.0</ele><time>2026-05-02T16:41:28Z</time></trkpt><trkpt lat="44.2107092141489" lon="9.587801241102744"><ele>621.0</ele><time>2026-05-02T16:41:29Z</time></trkpt><trkpt lat="44.21061952865921" lon="9.587691446545088"><ele>621.0</ele><time>2026-05-02T16:41:30Z</time></trkpt><trkpt lat="44.210565408862976" lon="9.587549208922141"><ele>619.0</ele><time>2026-05-02T16:41:31Z</time></trkpt><trkpt lat="44.210515788863056" lon="9.587417645367058"><ele>617.0</ele><time>2026-05-02T16:41:32Z</time></trkpt><trkpt lat="44.21043692302676" lon="9.587387682255688"><ele>615.0</ele><time>2026-05-02T16:41:33Z</time></trkpt><trkpt lat="44.210335672097706" lon="9.587418175885686"><ele>613.0</ele><time>2026-05-02T16:41:34Z</time></trkpt><trkpt lat="44.21024228202871" lon="9.587504465679359"><ele>611.0</ele><time>2026-05-02T16:41:35Z</time></trkpt><trkpt lat="44.21013724293449" lon="9.58758343748448"><ele>611.0</ele><time>2026-05-02T16:41:36Z</time></trkpt><trkpt lat="44.210019814873085" lon="9.587669475043757"><ele>611.0</ele><time>2026-05-02T16:41:37Z</time></trkpt><trkpt lat="44.2099092580062" lon="9.587792485000419"><ele>611.0</ele><time>2026-05-02T16:41:38Z</time></trkpt><trkpt lat="44.20982941882462" lon="9.587972773126852"><ele>611.0</ele><time>2026-05-02T16:41:39Z</time></trkpt><trkpt lat="44.209756394243016" lon="9.588172358580401"><ele>609.0</ele><time>2026-05-02T16:41:40Z</time></trkpt><trkpt lat="44.209711010624765" lon="9.588350023717874"><ele>607.0</ele><time>2026-05-02T16:41:41Z</time></trkpt><trkpt lat="44.209675851229534" lon="9.5884747754019"><ele>605.0</ele><time>2026-05-02T16:41:42Z</time></trkpt><trkpt lat="44.20963685631242" lon="9.588547188786464"><ele>603.0</ele><time>2026-05-02T16:41:43Z</time></trkpt><trkpt lat="44.20951585178251" lon="9.588564433999334"><ele>601.0</ele><time>2026-05-02T16:41:45Z</time></trkpt><trkpt lat="44.20943854159324" lon="9.588516203639282"><ele>601.0</ele><time>2026-05-02T16:41:46Z</time></trkpt><trkpt lat="44.20934033947129" lon="9.588452348555112"><ele>601.0</ele><time>2026-05-02T16:41:47Z</time></trkpt><trkpt lat="44.20924145002498" lon="9.588385268543226"><ele>601.0</ele><time>2026-05-02T16:41:48Z</time></trkpt><trkpt lat="44.20914276379797" lon="9.588376972138239"><ele>601.0</ele><time>2026-05-02T16:41:49Z</time></trkpt><trkpt lat="44.20906545080472" lon="9.588438916693516"><ele>601.0</ele><time>2026-05-02T16:41:50Z</time></trkpt><trkpt lat="44.20902382921966" lon="9.588556456218809"><ele>600.25</ele><time>2026-05-02T16:41:51Z</time></trkpt><trkpt lat="44.20899882100955" lon="9.588699690852716"><ele>599.5</ele><time>2026-05-02T16:41:52Z</time></trkpt><trkpt lat="44.20899595235036" lon="9.588852312957558"><ele>598.75</ele><time>2026-05-02T16:41:53Z</time></trkpt><trkpt lat="44.20902158692579" lon="9.589022733966962"><ele>598.0</ele><time>2026-05-02T16:41:54Z</time></trkpt><trkpt lat="44.20912510097674" lon="9.589169371259509"><ele>598.0</ele><time>2026-05-02T16:41:55Z</time></trkpt><trkpt lat="44.20923157133991" lon="9.58928480068414"><ele>598.0</ele><time>2026-05-02T16:41:56Z</time></trkpt><trkpt lat="44.20932162916514" lon="9.589399774204363"><ele>598.0</ele><time>2026-05-02T16:41:57Z</time></trkpt><trkpt lat="44.20937185926626" lon="9.58955962503328"><ele>598.0</ele><time>2026-05-02T16:41:58Z</time></trkpt><trkpt lat="44.20941317841562" lon="9.589756222496067"><ele>594.3333333333334</ele><time>2026-05-02T16:41:59Z</time></trkpt><trkpt lat="44.20946666474245" lon="9.589967762232087"><ele>590.6666666666666</ele><time>2026-05-02T16:42:00Z</time></trkpt><trkpt lat="44.20953743298461" lon="9.590175817131078"><ele>587.0</ele><time>2026-05-02T16:42:01Z</time></trkpt><trkpt lat="44.20966448205991" lon="9.59033729361605"><ele>586.6</ele><time>2026-05-02T16:42:01.999Z</time></trkpt><trkpt lat="44.20975681556496" lon="9.590501782518842"><ele>586.2</ele><time>2026-05-02T16:42:02.999Z</time></trkpt><trkpt lat="44.20982606437407" lon="9.590619751349962"><ele>585.8</ele><time>2026-05-02T16:42:03.999Z</time></trkpt><trkpt lat="44.20987858308146" lon="9.590718377680185"><ele>585.4</ele><time>2026-05-02T16:42:04.999Z</time></trkpt><trkpt lat="44.209913862234416" lon="9.590798073136012"><ele>585.0</ele><time>2026-05-02T16:42:05.999Z</time></trkpt><trkpt lat="44.20992067662598" lon="9.59088936916079"><ele>585.0</ele><time>2026-05-02T16:42:07.999Z</time></trkpt><trkpt lat="44.209860722460334" lon="9.59094780283923"><ele>585.0</ele><time>2026-05-02T16:42:09.999Z</time></trkpt><trkpt lat="44.20979093135757" lon="9.59090486603922"><ele>585.0</ele><time>2026-05-02T16:42:10.999Z</time></trkpt><trkpt lat="44.20971311364343" lon="9.590824370302881"><ele>585.0</ele><time>2026-05-02T16:42:11.999Z</time></trkpt><trkpt lat="44.20963229412853" lon="9.590733945952778"><ele>585.0</ele><time>2026-05-02T16:42:12.999Z</time></trkpt><trkpt lat="44.209549018294915" lon="9.590698508560292"><ele>585.0</ele><time>2026-05-02T16:42:13.999Z</time></trkpt><trkpt lat="44.20946845382022" lon="9.59071900621112"><ele>585.0</ele><time>2026-05-02T16:42:14.999Z</time></trkpt><trkpt lat="44.20939589676097" lon="9.590823402563236"><ele>585.0</ele><time>2026-05-02T16:42:15.999Z</time></trkpt><trkpt lat="44.20937133776529" lon="9.59097021839979"><ele>585.0</ele><time>2026-05-02T16:42:16.999Z</time></trkpt><trkpt lat="44.20935503436277" lon="9.59109572257975"><ele>585.0</ele><time>2026-05-02T16:42:17.999Z</time></trkpt><trkpt lat="44.20933684235634" lon="9.591196005824498"><ele>585.0</ele><time>2026-05-02T16:42:18.999Z</time></trkpt><trkpt lat="44.209251953185806" lon="9.5912712507061"><ele>585.8</ele><time>2026-05-02T16:42:19.999Z</time></trkpt><trkpt lat="44.20914459435882" lon="9.591274521634503"><ele>586.6</ele><time>2026-05-02T16:42:20.999Z</time></trkpt><trkpt lat="44.20904001567834" lon="9.591302088755366"><ele>587.4</ele><time>2026-05-02T16:42:21.999Z</time></trkpt><trkpt lat="44.2089565614786" lon="9.591421099861346"><ele>588.2</ele><time>2026-05-02T16:42:22.999Z</time></trkpt><trkpt lat="44.20893989297213" lon="9.591572803038696"><ele>589.0</ele><time>2026-05-02T16:42:23.999Z</time></trkpt><trkpt lat="44.20896367340426" lon="9.59174581192574"><ele>589.0</ele><time>2026-05-02T16:42:24.999Z</time></trkpt><trkpt lat="44.209011134913894" lon="9.591846996008915"><ele>589.0</ele><time>2026-05-02T16:42:25.999Z</time></trkpt><trkpt lat="44.208997391482434" lon="9.591980896054384"><ele>589.0</ele><time>2026-05-02T16:42:27.999Z</time></trkpt><trkpt lat="44.20892870336743" lon="9.592023313650467"><ele>589.0</ele><time>2026-05-02T16:42:28.999Z</time></trkpt><trkpt lat="44.20882680703553" lon="9.592032447999497"><ele>589.0</ele><time>2026-05-02T16:42:29.999Z</time></trkpt><trkpt lat="44.20873328648651" lon="9.592000638456131"><ele>589.0</ele><time>2026-05-02T16:42:30.999Z</time></trkpt><trkpt lat="44.208636490764995" lon="9.59193093592582"><ele>589.0</ele><time>2026-05-02T16:42:31.999Z</time></trkpt><trkpt lat="44.20855929823235" lon="9.591834135023978"><ele>589.0</ele><time>2026-05-02T16:42:32.999Z</time></trkpt><trkpt lat="44.208507819348924" lon="9.591683078037072"><ele>589.0</ele><time>2026-05-02T16:42:33.999Z</time></trkpt><trkpt lat="44.20848412342602" lon="9.591520825786557"><ele>589.0</ele><time>2026-05-02T16:42:34.999Z</time></trkpt><trkpt lat="44.208422504018614" lon="9.591371869926844"><ele>589.0</ele><time>2026-05-02T16:42:35.999Z</time></trkpt><trkpt lat="44.20831413483471" lon="9.59124747946589"><ele>589.0</ele><time>2026-05-02T16:42:36.999Z</time></trkpt><trkpt lat="44.20818647672123" lon="9.591164641573496"><ele>589.0</ele><time>2026-05-02T16:42:37.999Z</time></trkpt><trkpt lat="44.208047590781305" lon="9.5911106942575"><ele>586.5</ele><time>2026-05-02T16:42:38.999Z</time></trkpt><trkpt lat="44.20791231620873" lon="9.59103444245137"><ele>584.0</ele><time>2026-05-02T16:42:39.999Z</time></trkpt><trkpt lat="44.20779187651283" lon="9.59095649434798"><ele>581.5</ele><time>2026-05-02T16:42:40.999Z</time></trkpt><trkpt lat="44.20764300089584" lon="9.59095392908987"><ele>579.0</ele><time>2026-05-02T16:42:41.999Z</time></trkpt><trkpt lat="44.207487196522884" lon="9.590996316663768"><ele>577.0</ele><time>2026-05-02T16:42:42.999Z</time></trkpt><trkpt lat="44.20732301359284" lon="9.591040636850432"><ele>575.0</ele><time>2026-05-02T16:42:43.999Z</time></trkpt><trkpt lat="44.207165923625666" lon="9.5910650051021"><ele>573.0</ele><time>2026-05-02T16:42:44.999Z</time></trkpt><trkpt lat="44.207006364622394" lon="9.591055789032154"><ele>573.0</ele><time>2026-05-02T16:42:45.999Z</time></trkpt><trkpt lat="44.206846793156046" lon="9.591006274524133"><ele>573.0</ele><time>2026-05-02T16:42:46.999Z</time></trkpt><trkpt lat="44.206686847951865" lon="9.59093132857097"><ele>573.0</ele><time>2026-05-02T16:42:47.999Z</time></trkpt><trkpt lat="44.2065341785875" lon="9.590874992461297"><ele>570.0</ele><time>2026-05-02T16:42:48.999Z</time></trkpt><trkpt lat="44.20639030968912" lon="9.590849931588512"><ele>567.0</ele><time>2026-05-02T16:42:49.999Z</time></trkpt><trkpt lat="44.20625452305842" lon="9.590866876610647"><ele>564.0</ele><time>2026-05-02T16:42:50.999Z</time></trkpt><trkpt lat="44.20612711449923" lon="9.590909502561862"><ele>561.0</ele><time>2026-05-02T16:42:51.999Z</time></trkpt><trkpt lat="44.20600695872469" lon="9.590992253974106"><ele>561.0</ele><time>2026-05-02T16:42:52.999Z</time></trkpt><trkpt lat="44.2058942008466" lon="9.59110673078529"><ele>561.0</ele><time>2026-05-02T16:42:53.999Z</time></trkpt><trkpt lat="44.20579413572707" lon="9.591253918811288"><ele>561.0</ele><time>2026-05-02T16:42:54.999Z</time></trkpt><trkpt lat="44.20570219272126" lon="9.591426868699509"><ele>561.0</ele><time>2026-05-02T16:42:55.999Z</time></trkpt><trkpt lat="44.205634916480506" lon="9.5916133838638"><ele>559.8</ele><time>2026-05-02T16:42:56.999Z</time></trkpt><trkpt lat="44.205592025379346" lon="9.591782306959622"><ele>558.6</ele><time>2026-05-02T16:42:57.999Z</time></trkpt><trkpt lat="44.20558924923276" lon="9.59192129660051"><ele>557.4</ele><time>2026-05-02T16:42:58.999Z</time></trkpt><trkpt lat="44.20558702675028" lon="9.592040035515865"><ele>556.2</ele><time>2026-05-02T16:42:59.999Z</time></trkpt><trkpt lat="44.20557585492539" lon="9.59215570768106"><ele>555.0</ele><time>2026-05-02T16:43:01.999Z</time></trkpt><trkpt lat="44.205468510164984" lon="9.592099565697161"><ele>554.4</ele><time>2026-05-02T16:43:03.999Z</time></trkpt><trkpt lat="44.205455978166256" lon="9.591962814612781"><ele>553.8</ele><time>2026-05-02T16:43:04.999Z</time></trkpt><trkpt lat="44.20547289861364" lon="9.59182325882206"><ele>553.2</ele><time>2026-05-02T16:43:05.999Z</time></trkpt><trkpt lat="44.2054520489413" lon="9.59167057510922"><ele>552.6</ele><time>2026-05-02T16:43:06.998Z</time></trkpt><trkpt lat="44.20542940219264" lon="9.591510371253225"><ele>552.0</ele><time>2026-05-02T16:43:07.998Z</time></trkpt><trkpt lat="44.20543978931369" lon="9.591349079936203"><ele>552.0</ele><time>2026-05-02T16:43:08.998Z</time></trkpt><trkpt lat="44.205492672903596" lon="9.591200751642244"><ele>552.0</ele><time>2026-05-02T16:43:09.998Z</time></trkpt><trkpt lat="44.20553254061111" lon="9.591093027236193"><ele>552.0</ele><time>2026-05-02T16:43:10.998Z</time></trkpt><trkpt lat="44.20553135460151" lon="9.590996014460293"><ele>552.0</ele><time>2026-05-02T16:43:11.998Z</time></trkpt><trkpt lat="44.20546067260335" lon="9.59087118570079"><ele>552.0</ele><time>2026-05-02T16:43:13.998Z</time></trkpt><trkpt lat="44.20536488114226" lon="9.590903807349578"><ele>552.0</ele><time>2026-05-02T16:43:14.998Z</time></trkpt><trkpt lat="44.20529536837884" lon="9.591056222031588"><ele>552.0</ele><time>2026-05-02T16:43:15.998Z</time></trkpt><trkpt lat="44.20520415903041" lon="9.59114983531669"><ele>552.0</ele><time>2026-05-02T16:43:16.998Z</time></trkpt><trkpt lat="44.205101371086435" lon="9.591200525353493"><ele>552.0</ele><time>2026-05-02T16:43:18Z</time></trkpt><trkpt lat="44.204978156932626" lon="9.59120959805165"><ele>552.0</ele><time>2026-05-02T16:43:19Z</time></trkpt><trkpt lat="44.20487279563811" lon="9.5912386905658"><ele>552.0</ele><time>2026-05-02T16:43:20Z</time></trkpt><trkpt lat="44.20475055545842" lon="9.591276132011599"><ele>552.0</ele><time>2026-05-02T16:43:21Z</time></trkpt><trkpt lat="44.204661360599125" lon="9.591433440716687"><ele>552.0</ele><time>2026-05-02T16:43:22Z</time></trkpt><trkpt lat="44.20458562010493" lon="9.591561234569676"><ele>550.8333333333334</ele><time>2026-05-02T16:43:23Z</time></trkpt><trkpt lat="44.20454386079509" lon="9.591672359005326"><ele>549.6666666666666</ele><time>2026-05-02T16:43:24Z</time></trkpt><trkpt lat="44.20454934080577" lon="9.591816317165435"><ele>548.5</ele><time>2026-05-02T16:43:25Z</time></trkpt><trkpt lat="44.204600142653355" lon="9.591954833877784"><ele>547.3333333333333</ele><time>2026-05-02T16:43:26Z</time></trkpt><trkpt lat="44.204627529443016" lon="9.592059829061002"><ele>546.1666666666666</ele><time>2026-05-02T16:43:27Z</time></trkpt><trkpt lat="44.20464859296306" lon="9.592144397202869"><ele>545.0</ele><time>2026-05-02T16:43:28Z</time></trkpt><trkpt lat="44.20461502486451" lon="9.59223049817874"><ele>545.0</ele><time>2026-05-02T16:43:29Z</time></trkpt><trkpt lat="44.204541781498804" lon="9.59228249352751"><ele>545.0</ele><time>2026-05-02T16:43:30Z</time></trkpt><trkpt lat="44.20445564599283" lon="9.592229670499723"><ele>545.0</ele><time>2026-05-02T16:43:31Z</time></trkpt><trkpt lat="44.204359562303765" lon="9.59216815590754"><ele>545.0</ele><time>2026-05-02T16:43:32Z</time></trkpt><trkpt lat="44.20425954196508" lon="9.592117615091576"><ele>545.0</ele><time>2026-05-02T16:43:33Z</time></trkpt><trkpt lat="44.20412968517713" lon="9.592136643810143"><ele>539.5</ele><time>2026-05-02T16:43:34Z</time></trkpt><trkpt lat="44.203994374415004" lon="9.59224410195394"><ele>534.0</ele><time>2026-05-02T16:43:35Z</time></trkpt><trkpt lat="44.20388385704709" lon="9.592376331711721"><ele>528.5</ele><time>2026-05-02T16:43:36Z</time></trkpt><trkpt lat="44.203781813808746" lon="9.592511054210396"><ele>523.0</ele><time>2026-05-02T16:43:37Z</time></trkpt><trkpt lat="44.20369806656684" lon="9.592593622915285"><ele>523.0</ele><time>2026-05-02T16:43:38Z</time></trkpt><trkpt lat="44.20363436757494" lon="9.592701254009954"><ele>523.0</ele><time>2026-05-02T16:43:39Z</time></trkpt><trkpt lat="44.20362715683739" lon="9.592858410650114"><ele>523.0</ele><time>2026-05-02T16:43:40Z</time></trkpt><trkpt lat="44.203655571827476" lon="9.59298606255347"><ele>523.0</ele><time>2026-05-02T16:43:41Z</time></trkpt><trkpt lat="44.203719459738075" lon="9.59308274368671"><ele>523.0</ele><time>2026-05-02T16:43:42Z</time></trkpt><trkpt lat="44.20379938330764" lon="9.593149313457449"><ele>522.6</ele><time>2026-05-02T16:43:43Z</time></trkpt><trkpt lat="44.20387975099811" lon="9.593210357429246"><ele>522.1999999999999</ele><time>2026-05-02T16:43:44Z</time></trkpt><trkpt lat="44.203953941885516" lon="9.593285382586153"><ele>521.8</ele><time>2026-05-02T16:43:45Z</time></trkpt><trkpt lat="44.20400569423406" lon="9.59334893368587"><ele>521.4</ele><time>2026-05-02T16:43:46Z</time></trkpt><trkpt lat="44.20406083760892" lon="9.593468301942417"><ele>521.0</ele><time>2026-05-02T16:43:48Z</time></trkpt><trkpt lat="44.20397366542203" lon="9.593573074275932"><ele>521.0</ele><time>2026-05-02T16:43:50Z</time></trkpt><trkpt lat="44.20390727562133" lon="9.59357244175626"><ele>521.0</ele><time>2026-05-02T16:43:51Z</time></trkpt><trkpt lat="44.20382501752282" lon="9.593595939596801"><ele>521.0</ele><time>2026-05-02T16:43:52Z</time></trkpt><trkpt lat="44.20372299416254" lon="9.593655548196967"><ele>521.0</ele><time>2026-05-02T16:43:53Z</time></trkpt><trkpt lat="44.203596368173116" lon="9.59372474834109"><ele>521.0</ele><time>2026-05-02T16:43:54Z</time></trkpt><trkpt lat="44.203490386582295" lon="9.593773346582369"><ele>520.6666666666666</ele><time>2026-05-02T16:43:55Z</time></trkpt><trkpt lat="44.20339417789748" lon="9.593817800885502"><ele>520.3333333333333</ele><time>2026-05-02T16:43:56Z</time></trkpt><trkpt lat="44.20331791659723" lon="9.593850008841939"><ele>520.0</ele><time>2026-05-02T16:43:57Z</time></trkpt><trkpt lat="44.20326273607642" lon="9.593916897067881"><ele>519.6666666666666</ele><time>2026-05-02T16:43:58Z</time></trkpt><trkpt lat="44.2032573426328" lon="9.594026590080103"><ele>519.3333333333334</ele><time>2026-05-02T16:43:59Z</time></trkpt><trkpt lat="44.20330514422226" lon="9.594125533746903"><ele>519.0</ele><time>2026-05-02T16:44:00Z</time></trkpt><trkpt lat="44.20337920922614" lon="9.594239535553196"><ele>519.0</ele><time>2026-05-02T16:44:01Z</time></trkpt><trkpt lat="44.20345066644127" lon="9.594354359073812"><ele>519.0</ele><time>2026-05-02T16:44:02Z</time></trkpt><trkpt lat="44.203527331930886" lon="9.594482842472841"><ele>519.0</ele><time>2026-05-02T16:44:03Z</time></trkpt><trkpt lat="44.20358771163396" lon="9.59459316528971"><ele>519.0</ele><time>2026-05-02T16:44:04Z</time></trkpt><trkpt lat="44.20363192250845" lon="9.59466732201675"><ele>519.0</ele><time>2026-05-02T16:44:05Z</time></trkpt><trkpt lat="44.20364068341128" lon="9.594811875114006"><ele>520.5</ele><time>2026-05-02T16:44:07Z</time></trkpt><trkpt lat="44.20358614498615" lon="9.594858851585775"><ele>522.0</ele><time>2026-05-02T16:44:08Z</time></trkpt><trkpt lat="44.203524389449264" lon="9.594795630494414"><ele>523.5</ele><time>2026-05-02T16:44:08.999Z</time></trkpt><trkpt lat="44.203463586748924" lon="9.594732439218403"><ele>525.0</ele><time>2026-05-02T16:44:09.999Z</time></trkpt><trkpt lat="44.20337651310488" lon="9.594667023752475"><ele>526.5</ele><time>2026-05-02T16:44:10.999Z</time></trkpt><trkpt lat="44.20326362009532" lon="9.594594191243916"><ele>528.0</ele><time>2026-05-02T16:44:11.999Z</time></trkpt><trkpt lat="44.203133202711676" lon="9.594557456986367"><ele>528.0</ele><time>2026-05-02T16:44:12.999Z</time></trkpt><trkpt lat="44.202999309263845" lon="9.594544903779678"><ele>528.0</ele><time>2026-05-02T16:44:13.999Z</time></trkpt><trkpt lat="44.20286181884101" lon="9.59453636126119"><ele>528.0</ele><time>2026-05-02T16:44:14.999Z</time></trkpt><trkpt lat="44.202742113308325" lon="9.594509040390447"><ele>528.0</ele><time>2026-05-02T16:44:15.999Z</time></trkpt><trkpt lat="44.20266616986399" lon="9.594493149959929"><ele>528.0</ele><time>2026-05-02T16:44:16.999Z</time></trkpt><trkpt lat="44.20258764623428" lon="9.594579284903535"><ele>528.0</ele><time>2026-05-02T16:44:17.999Z</time></trkpt><trkpt lat="44.20255452799447" lon="9.594716587984319"><ele>528.0</ele><time>2026-05-02T16:44:18.999Z</time></trkpt><trkpt lat="44.202543720734795" lon="9.59482334993028"><ele>528.0</ele><time>2026-05-02T16:44:19.999Z</time></trkpt><trkpt lat="44.20246638937924" lon="9.594885856274418"><ele>528.0</ele><time>2026-05-02T16:44:21.999Z</time></trkpt><trkpt lat="44.20241369106592" lon="9.594707797553243"><ele>528.0</ele><time>2026-05-02T16:44:23.999Z</time></trkpt><trkpt lat="44.20237828970068" lon="9.594578262393995"><ele>528.0</ele><time>2026-05-02T16:44:24.999Z</time></trkpt><trkpt lat="44.20232334584324" lon="9.59443252752767"><ele>528.0</ele><time>2026-05-02T16:44:25.999Z</time></trkpt><trkpt lat="44.202280140378626" lon="9.594277429962922"><ele>528.0</ele><time>2026-05-02T16:44:26.999Z</time></trkpt><trkpt lat="44.202238862287906" lon="9.594112520031407"><ele>526.3333333333334</ele><time>2026-05-02T16:44:27.999Z</time></trkpt><trkpt lat="44.20220916943211" lon="9.59395435240885"><ele>524.6666666666666</ele><time>2026-05-02T16:44:28.999Z</time></trkpt><trkpt lat="44.202195845383315" lon="9.593844600693213"><ele>523.0</ele><time>2026-05-02T16:44:29.999Z</time></trkpt><trkpt lat="44.20213335180745" lon="9.593777815734859"><ele>521.3333333333333</ele><time>2026-05-02T16:44:30.999Z</time></trkpt><trkpt lat="44.20205672492662" lon="9.593794542238955"><ele>519.6666666666666</ele><time>2026-05-02T16:44:31.999Z</time></trkpt><trkpt lat="44.201994359336915" lon="9.59384461231054"><ele>518.0</ele><time>2026-05-02T16:44:32.999Z</time></trkpt><trkpt lat="44.20192856088207" lon="9.593839581857077"><ele>518.0</ele><time>2026-05-02T16:44:33.999Z</time></trkpt><trkpt lat="44.20187046309208" lon="9.593750508609613"><ele>518.0</ele><time>2026-05-02T16:44:34.999Z</time></trkpt><trkpt lat="44.20187665634787" lon="9.593613603115548"><ele>518.0</ele><time>2026-05-02T16:44:35.999Z</time></trkpt><trkpt lat="44.2018718560292" lon="9.593468288873224"><ele>518.0</ele><time>2026-05-02T16:44:36.999Z</time></trkpt><trkpt lat="44.20186454090416" lon="9.593309375236197"><ele>518.0</ele><time>2026-05-02T16:44:37.999Z</time></trkpt><trkpt lat="44.20185312075502" lon="9.593144828280106"><ele>514.75</ele><time>2026-05-02T16:44:38.999Z</time></trkpt><trkpt lat="44.20183080740432" lon="9.5930022442137"><ele>511.5</ele><time>2026-05-02T16:44:39.999Z</time></trkpt><trkpt lat="44.20174919047804" lon="9.59288459350747"><ele>508.25</ele><time>2026-05-02T16:44:40.999Z</time></trkpt><trkpt lat="44.20167919851241" lon="9.592752123694362"><ele>505.0</ele><time>2026-05-02T16:44:41.999Z</time></trkpt><trkpt lat="44.20162103314844" lon="9.592598599747753"><ele>503.0</ele><time>2026-05-02T16:44:42.999Z</time></trkpt><trkpt lat="44.201553147450284" lon="9.592436314769456"><ele>501.0</ele><time>2026-05-02T16:44:43.999Z</time></trkpt><trkpt lat="44.201477553836334" lon="9.592258819516045"><ele>499.0</ele><time>2026-05-02T16:44:44.999Z</time></trkpt><trkpt lat="44.20139805416422" lon="9.59208702465817"><ele>497.0</ele><time>2026-05-02T16:44:45.999Z</time></trkpt><trkpt lat="44.201342676726384" lon="9.59197862220878"><ele>497.0</ele><time>2026-05-02T16:44:46.999Z</time></trkpt><trkpt lat="44.201283963544284" lon="9.591900101805903"><ele>497.00000000000006</ele><time>2026-05-02T16:44:47.999Z</time></trkpt><trkpt lat="44.20120123459394" lon="9.591863076739436"><ele>497.00000000000006</ele><time>2026-05-02T16:44:48.999Z</time></trkpt><trkpt lat="44.201094469716416" lon="9.591907432845627"><ele>497.0</ele><time>2026-05-02T16:44:49.999Z</time></trkpt><trkpt lat="44.20097774004872" lon="9.591985806054891"><ele>497.0</ele><time>2026-05-02T16:44:50.999Z</time></trkpt><trkpt lat="44.200856261663496" lon="9.59205321718286"><ele>497.0</ele><time>2026-05-02T16:44:51.999Z</time></trkpt><trkpt lat="44.200729972510054" lon="9.592075446034489"><ele>497.0</ele><time>2026-05-02T16:44:52.999Z</time></trkpt><trkpt lat="44.20061275844598" lon="9.592054042788392"><ele>497.0</ele><time>2026-05-02T16:44:53.999Z</time></trkpt><trkpt lat="44.2005046400466" lon="9.592006057395555"><ele>497.0</ele><time>2026-05-02T16:44:54.999Z</time></trkpt><trkpt lat="44.200398248552005" lon="9.591896908549677"><ele>493.0</ele><time>2026-05-02T16:44:55.999Z</time></trkpt><trkpt lat="44.2002851148663" lon="9.591780431982365"><ele>489.0</ele><time>2026-05-02T16:44:56.999Z</time></trkpt><trkpt lat="44.20016749701963" lon="9.59172338583922"><ele>485.0</ele><time>2026-05-02T16:44:57.999Z</time></trkpt><trkpt lat="44.20006775769437" lon="9.591572198878561"><ele>481.0</ele><time>2026-05-02T16:44:58.999Z</time></trkpt><trkpt lat="44.19999174427702" lon="9.591380995263016"><ele>481.0</ele><time>2026-05-02T16:44:59.999Z</time></trkpt><trkpt lat="44.19992183786738" lon="9.591184982466087"><ele>481.0</ele><time>2026-05-02T16:45:00.999Z</time></trkpt><trkpt lat="44.19980893449708" lon="9.591030666585786"><ele>481.0</ele><time>2026-05-02T16:45:01.999Z</time></trkpt><trkpt lat="44.199683880449186" lon="9.590850349619462"><ele>479.33333333333337</ele><time>2026-05-02T16:45:02.999Z</time></trkpt><trkpt lat="44.1995772005303" lon="9.59063765154167"><ele>477.66666666666663</ele><time>2026-05-02T16:45:03.999Z</time></trkpt><trkpt lat="44.19948140336597" lon="9.590441836930781"><ele>476.0</ele><time>2026-05-02T16:45:04.999Z</time></trkpt><trkpt lat="44.19939630323633" lon="9.590255087930013"><ele>470.8</ele><time>2026-05-02T16:45:05.999Z</time></trkpt><trkpt lat="44.19933370739215" lon="9.590093696895922"><ele>465.6</ele><time>2026-05-02T16:45:06.999Z</time></trkpt><trkpt lat="44.1992730411348" lon="9.58995667986186"><ele>460.4</ele><time>2026-05-02T16:45:07.999Z</time></trkpt><trkpt lat="44.1992143335004" lon="9.58983680859147"><ele>455.2</ele><time>2026-05-02T16:45:08.999Z</time></trkpt><trkpt lat="44.19915741223527" lon="9.58975166493416"><ele>450.0</ele><time>2026-05-02T16:45:09.999Z</time></trkpt><trkpt lat="44.19907301386813" lon="9.589716365900378"><ele>447.6</ele><time>2026-05-02T16:45:10.999Z</time></trkpt><trkpt lat="44.198978043873275" lon="9.58973424012417"><ele>445.2</ele><time>2026-05-02T16:45:11.998Z</time></trkpt><trkpt lat="44.19890987060088" lon="9.589790673569732"><ele>442.79999999999995</ele><time>2026-05-02T16:45:12.998Z</time></trkpt><trkpt lat="44.19883635807944" lon="9.589870035118368"><ele>440.4</ele><time>2026-05-02T16:45:13.998Z</time></trkpt><trkpt lat="44.19875668002947" lon="9.589948112994334"><ele>438.0</ele><time>2026-05-02T16:45:14.998Z</time></trkpt><trkpt lat="44.19867295648471" lon="9.590032303325316"><ele>438.0</ele><time>2026-05-02T16:45:15.998Z</time></trkpt><trkpt lat="44.198577340849624" lon="9.590143157632722"><ele>438.0</ele><time>2026-05-02T16:45:16.998Z</time></trkpt><trkpt lat="44.198491541586016" lon="9.590278453772939"><ele>438.0</ele><time>2026-05-02T16:45:17.998Z</time></trkpt><trkpt lat="44.19839760485837" lon="9.59043725937016"><ele>438.0</ele><time>2026-05-02T16:45:18.998Z</time></trkpt><trkpt lat="44.19831492560822" lon="9.590593761267336"><ele>437.3333333333333</ele><time>2026-05-02T16:45:19.998Z</time></trkpt><trkpt lat="44.198248355568566" lon="9.590723369851323"><ele>436.66666666666663</ele><time>2026-05-02T16:45:20.998Z</time></trkpt><trkpt lat="44.19819731703504" lon="9.590821106822629"><ele>436.0</ele><time>2026-05-02T16:45:21.998Z</time></trkpt><trkpt lat="44.19815141468578" lon="9.590884273909227"><ele>435.3333333333333</ele><time>2026-05-02T16:45:22.998Z</time></trkpt><trkpt lat="44.19807848124475" lon="9.59092347036194"><ele>434.66666666666663</ele><time>2026-05-02T16:45:24Z</time></trkpt><trkpt lat="44.19797373769824" lon="9.590924555482488"><ele>434.0</ele><time>2026-05-02T16:45:25Z</time></trkpt><trkpt lat="44.19786560597586" lon="9.590952879702966"><ele>434.0</ele><time>2026-05-02T16:45:26Z</time></trkpt><trkpt lat="44.197731771198775" lon="9.590848359053563"><ele>434.0</ele><time>2026-05-02T16:45:27Z</time></trkpt><trkpt lat="44.19759938670073" lon="9.590896566522954"><ele>434.0</ele><time>2026-05-02T16:45:28Z</time></trkpt><trkpt lat="44.197479960133926" lon="9.59097299493224"><ele>434.0</ele><time>2026-05-02T16:45:29Z</time></trkpt><trkpt lat="44.19737133270855" lon="9.591048788757798"><ele>434.25</ele><time>2026-05-02T16:45:30Z</time></trkpt><trkpt lat="44.19728540521651" lon="9.591147792082618"><ele>434.5</ele><time>2026-05-02T16:45:31Z</time></trkpt><trkpt lat="44.19721901733964" lon="9.591300725876101"><ele>434.75</ele><time>2026-05-02T16:45:32Z</time></trkpt><trkpt lat="44.1971619795031" lon="9.591444611318169"><ele>435.0</ele><time>2026-05-02T16:45:33Z</time></trkpt><trkpt lat="44.197074346798466" lon="9.591528644637473"><ele>435.0</ele><time>2026-05-02T16:45:34Z</time></trkpt><trkpt lat="44.196959542167974" lon="9.591573157062944"><ele>435.0</ele><time>2026-05-02T16:45:35Z</time></trkpt><trkpt lat="44.19682096667552" lon="9.591596002266513"><ele>435.0</ele><time>2026-05-02T16:45:36Z</time></trkpt><trkpt lat="44.196676080246974" lon="9.591587777072073"><ele>435.0</ele><time>2026-05-02T16:45:37Z</time></trkpt><trkpt lat="44.196534484061154" lon="9.591557845926976"><ele>430.75</ele><time>2026-05-02T16:45:38Z</time></trkpt><trkpt lat="44.19638689561763" lon="9.591548029861732"><ele>426.5</ele><time>2026-05-02T16:45:39Z</time></trkpt><trkpt lat="44.19624586698087" lon="9.591612207937382"><ele>422.25</ele><time>2026-05-02T16:45:40Z</time></trkpt><trkpt lat="44.196132341140164" lon="9.591696998206547"><ele>418.0</ele><time>2026-05-02T16:45:41Z</time></trkpt><trkpt lat="44.19603126034681" lon="9.591815992759638"><ele>418.0</ele><time>2026-05-02T16:45:42Z</time></trkpt><trkpt lat="44.19594310196365" lon="9.591957820667444"><ele>418.0</ele><time>2026-05-02T16:45:43Z</time></trkpt><trkpt lat="44.19587887570291" lon="9.592092199710518"><ele>418.0</ele><time>2026-05-02T16:45:44Z</time></trkpt><trkpt lat="44.195806346507624" lon="9.592195828300325"><ele>418.0</ele><time>2026-05-02T16:45:45Z</time></trkpt><trkpt lat="44.19572443333246" lon="9.59228876276756"><ele>417.33333333333337</ele><time>2026-05-02T16:45:46Z</time></trkpt><trkpt lat="44.19565087636724" lon="9.592338145975154"><ele>416.6666666666667</ele><time>2026-05-02T16:45:47Z</time></trkpt><trkpt lat="44.19558979122568" lon="9.592365873014405"><ele>416.0</ele><time>2026-05-02T16:45:48Z</time></trkpt><trkpt lat="44.19552623959542" lon="9.592339235775803"><ele>415.33333333333337</ele><time>2026-05-02T16:45:49Z</time></trkpt><trkpt lat="44.19547862764368" lon="9.592247471278757"><ele>414.6666666666667</ele><time>2026-05-02T16:45:50Z</time></trkpt><trkpt lat="44.195451110976556" lon="9.592121565694027"><ele>414.0</ele><time>2026-05-02T16:45:51Z</time></trkpt><trkpt lat="44.195442397641756" lon="9.591976855329628"><ele>414.0</ele><time>2026-05-02T16:45:52Z</time></trkpt><trkpt lat="44.19539752899269" lon="9.591858502794876"><ele>414.0</ele><time>2026-05-02T16:45:53Z</time></trkpt><trkpt lat="44.195313083522734" lon="9.591790531841607"><ele>414.0</ele><time>2026-05-02T16:45:54Z</time></trkpt><trkpt lat="44.195192544772176" lon="9.591785506335816"><ele>414.0</ele><time>2026-05-02T16:45:55Z</time></trkpt><trkpt lat="44.19505732088001" lon="9.591779647283774"><ele>414.0</ele><time>2026-05-02T16:45:56Z</time></trkpt><trkpt lat="44.1949253832109" lon="9.59172095374854"><ele>416.33333333333337</ele><time>2026-05-02T16:45:57Z</time></trkpt><trkpt lat="44.19479815177186" lon="9.591622298551167"><ele>418.6666666666667</ele><time>2026-05-02T16:45:58Z</time></trkpt><trkpt lat="44.194646874472184" lon="9.591566916071374"><ele>421.0</ele><time>2026-05-02T16:45:59Z</time></trkpt><trkpt lat="44.19447108805596" lon="9.591546899442708"><ele>421.0</ele><time>2026-05-02T16:46:00Z</time></trkpt><trkpt lat="44.19430500779705" lon="9.591489307383917"><ele>421.0</ele><time>2026-05-02T16:46:01Z</time></trkpt><trkpt lat="44.19413059509972" lon="9.591404888766334"><ele>421.0</ele><time>2026-05-02T16:46:02Z</time></trkpt><trkpt lat="44.19394371279136" lon="9.591377488245334"><ele>418.75</ele><time>2026-05-02T16:46:03Z</time></trkpt><trkpt lat="44.19378297875529" lon="9.591377370102771"><ele>416.5</ele><time>2026-05-02T16:46:04Z</time></trkpt><trkpt lat="44.193639764445805" lon="9.591353620685695"><ele>414.25</ele><time>2026-05-02T16:46:05Z</time></trkpt><trkpt lat="44.19353117293774" lon="9.591277766830295"><ele>412.0</ele><time>2026-05-02T16:46:06Z</time></trkpt><trkpt lat="44.19343638696591" lon="9.591189954050424"><ele>406.0</ele><time>2026-05-02T16:46:07Z</time></trkpt><trkpt lat="44.19335293971274" lon="9.591117836882413"><ele>400.0</ele><time>2026-05-02T16:46:08Z</time></trkpt><trkpt lat="44.193241705677714" lon="9.591108062578828"><ele>394.0</ele><time>2026-05-02T16:46:09Z</time></trkpt><trkpt lat="44.19313244916131" lon="9.591183490484276"><ele>388.0</ele><time>2026-05-02T16:46:10Z</time></trkpt><trkpt lat="44.19304039884569" lon="9.591304118605919"><ele>386.75</ele><time>2026-05-02T16:46:11Z</time></trkpt><trkpt lat="44.19292573551815" lon="9.591427977441207"><ele>385.5</ele><time>2026-05-02T16:46:12Z</time></trkpt><trkpt lat="44.19277515570359" lon="9.591503322905202"><ele>384.25</ele><time>2026-05-02T16:46:12.999Z</time></trkpt><trkpt lat="44.19263719753012" lon="9.591537330292102"><ele>383.0</ele><time>2026-05-02T16:46:13.999Z</time></trkpt><trkpt lat="44.19254740450808" lon="9.591616404338899"><ele>383.0</ele><time>2026-05-02T16:46:14.999Z</time></trkpt><trkpt lat="44.192455143712806" lon="9.591774018710092"><ele>383.0</ele><time>2026-05-02T16:46:15.999Z</time></trkpt><trkpt lat="44.19236474745477" lon="9.59194081453571"><ele>383.0</ele><time>2026-05-02T16:46:16.999Z</time></trkpt><trkpt lat="44.19225713038714" lon="9.592108293178867"><ele>379.0</ele><time>2026-05-02T16:46:17.999Z</time></trkpt><trkpt lat="44.19214710242034" lon="9.592275624860013"><ele>375.0</ele><time>2026-05-02T16:46:18.999Z</time></trkpt><trkpt lat="44.19203077671475" lon="9.592426739062429"><ele>371.0</ele><time>2026-05-02T16:46:19.999Z</time></trkpt><trkpt lat="44.19191499498274" lon="9.592524447562612"><ele>371.0</ele><time>2026-05-02T16:46:20.999Z</time></trkpt><trkpt lat="44.19180395865688" lon="9.592582805232025"><ele>371.0</ele><time>2026-05-02T16:46:21.999Z</time></trkpt><trkpt lat="44.19171658255881" lon="9.592636172342287"><ele>371.0</ele><time>2026-05-02T16:46:22.999Z</time></trkpt><trkpt lat="44.19163422988629" lon="9.592709912235193"><ele>371.0</ele><time>2026-05-02T16:46:23.999Z</time></trkpt><trkpt lat="44.19160772807006" lon="9.592821400038337"><ele>371.0</ele><time>2026-05-02T16:46:24.999Z</time></trkpt><trkpt lat="44.191626604450626" lon="9.592971260958139"><ele>371.75</ele><time>2026-05-02T16:46:25.999Z</time></trkpt><trkpt lat="44.19168155485063" lon="9.593124256695145"><ele>372.5</ele><time>2026-05-02T16:46:26.999Z</time></trkpt><trkpt lat="44.19173844538154" lon="9.593292441221843"><ele>373.25</ele><time>2026-05-02T16:46:27.999Z</time></trkpt><trkpt lat="44.19178567046208" lon="9.593478722590323"><ele>374.0</ele><time>2026-05-02T16:46:28.999Z</time></trkpt><trkpt lat="44.19181225468412" lon="9.593673078597227"><ele>371.2</ele><time>2026-05-02T16:46:29.999Z</time></trkpt><trkpt lat="44.19182257100618" lon="9.593837748708497"><ele>368.4</ele><time>2026-05-02T16:46:30.999Z</time></trkpt><trkpt lat="44.19181948783609" lon="9.593976478395648"><ele>365.6</ele><time>2026-05-02T16:46:31.999Z</time></trkpt><trkpt lat="44.191842536958326" lon="9.594109388824679"><ele>362.8</ele><time>2026-05-02T16:46:32.999Z</time></trkpt><trkpt lat="44.19183490895317" lon="9.59429019076375"><ele>360.0</ele><time>2026-05-02T16:46:33.999Z</time></trkpt><trkpt lat="44.19193661589763" lon="9.594416781699001"><ele>358.0</ele><time>2026-05-02T16:46:34.999Z</time></trkpt><trkpt lat="44.192065949078" lon="9.594521470411202"><ele>356.0</ele><time>2026-05-02T16:46:35.999Z</time></trkpt><trkpt lat="44.192202954001786" lon="9.594622518805306"><ele>354.0</ele><time>2026-05-02T16:46:36.999Z</time></trkpt><trkpt lat="44.192367288788525" lon="9.594663325877592"><ele>354.0</ele><time>2026-05-02T16:46:37.999Z</time></trkpt><trkpt lat="44.192533541346194" lon="9.594698293251371"><ele>354.0</ele><time>2026-05-02T16:46:38.999Z</time></trkpt><trkpt lat="44.19269765415295" lon="9.594792511198149"><ele>354.0</ele><time>2026-05-02T16:46:39.999Z</time></trkpt><trkpt lat="44.19283591570563" lon="9.594866590787595"><ele>354.0</ele><time>2026-05-02T16:46:40.999Z</time></trkpt><trkpt lat="44.192946411074786" lon="9.594973413976469"><ele>354.0</ele><time>2026-05-02T16:46:41.999Z</time></trkpt><trkpt lat="44.193053275776506" lon="9.595085423209369"><ele>354.0</ele><time>2026-05-02T16:46:42.999Z</time></trkpt><trkpt lat="44.19317978786853" lon="9.595131358682599"><ele>354.0</ele><time>2026-05-02T16:46:43.999Z</time></trkpt><trkpt lat="44.193317872343535" lon="9.595121816525552"><ele>357.0</ele><time>2026-05-02T16:46:44.999Z</time></trkpt><trkpt lat="44.1934187559555" lon="9.595123699493781"><ele>360.0</ele><time>2026-05-02T16:46:45.999Z</time></trkpt><trkpt lat="44.19348812832211" lon="9.595133097522373"><ele>363.0</ele><time>2026-05-02T16:46:46.999Z</time></trkpt><trkpt lat="44.19356599526708" lon="9.59523113160307"><ele>366.0</ele><time>2026-05-02T16:46:48.999Z</time></trkpt><trkpt lat="44.19353952234273" lon="9.59533826937214"><ele>369.0</ele><time>2026-05-02T16:46:49.999Z</time></trkpt><trkpt lat="44.19346378203523" lon="9.595426419095908"><ele>369.0</ele><time>2026-05-02T16:46:50.999Z</time></trkpt><trkpt lat="44.193355563336944" lon="9.59550678859061"><ele>369.0</ele><time>2026-05-02T16:46:51.999Z</time></trkpt><trkpt lat="44.19326107112862" lon="9.595612361480256"><ele>369.0</ele><time>2026-05-02T16:46:52.999Z</time></trkpt><trkpt lat="44.19316870737227" lon="9.595748683042485"><ele>369.0</ele><time>2026-05-02T16:46:53.999Z</time></trkpt><trkpt lat="44.19310229026166" lon="9.595908119957551"><ele>362.75</ele><time>2026-05-02T16:46:54.999Z</time></trkpt><trkpt lat="44.19300930773768" lon="9.596020815449457"><ele>356.5</ele><time>2026-05-02T16:46:55.999Z</time></trkpt><trkpt lat="44.19286559151027" lon="9.59604629252281"><ele>350.25</ele><time>2026-05-02T16:46:56.999Z</time></trkpt><trkpt lat="44.19273959702818" lon="9.59603676478032"><ele>344.0</ele><time>2026-05-02T16:46:57.999Z</time></trkpt><trkpt lat="44.19261742799476" lon="9.596116941664638"><ele>342.0</ele><time>2026-05-02T16:46:58.999Z</time></trkpt><trkpt lat="44.19251381141464" lon="9.596259635821482"><ele>340.0</ele><time>2026-05-02T16:46:59.999Z</time></trkpt><trkpt lat="44.19240048162495" lon="9.596400608507217"><ele>338.0</ele><time>2026-05-02T16:47:00.999Z</time></trkpt><trkpt lat="44.19230483309833" lon="9.596512230324363"><ele>336.0</ele><time>2026-05-02T16:47:01.999Z</time></trkpt><trkpt lat="44.192234995943785" lon="9.596601904002725"><ele>336.0</ele><time>2026-05-02T16:47:02.999Z</time></trkpt><trkpt lat="44.192190911163344" lon="9.596683741124187"><ele>336.0</ele><time>2026-05-02T16:47:04.999Z</time></trkpt><trkpt lat="44.19213022409416" lon="9.5965709640623"><ele>336.0</ele><time>2026-05-02T16:47:06.999Z</time></trkpt><trkpt lat="44.19222417782145" lon="9.596417018480324"><ele>336.0</ele><time>2026-05-02T16:47:08.999Z</time></trkpt><trkpt lat="44.192313669969266" lon="9.596317733442419"><ele>336.0</ele><time>2026-05-02T16:47:09.999Z</time></trkpt><trkpt lat="44.192407491046886" lon="9.596201375311594"><ele>337.6</ele><time>2026-05-02T16:47:10.999Z</time></trkpt><trkpt lat="44.192493068387655" lon="9.596088749460241"><ele>339.20000000000005</ele><time>2026-05-02T16:47:11.999Z</time></trkpt><trkpt lat="44.19254727038442" lon="9.596012771430265"><ele>340.79999999999995</ele><time>2026-05-02T16:47:12.999Z</time></trkpt><trkpt lat="44.1925324907119" lon="9.59588134785934"><ele>342.4</ele><time>2026-05-02T16:47:14.998Z</time></trkpt><trkpt lat="44.19242072572185" lon="9.595872724112187"><ele>344.0</ele><time>2026-05-02T16:47:15.998Z</time></trkpt><trkpt lat="44.19232918170101" lon="9.595954200698577"><ele>342.0</ele><time>2026-05-02T16:47:16.998Z</time></trkpt><trkpt lat="44.19225627051967" lon="9.596079939089392"><ele>340.0</ele><time>2026-05-02T16:47:17.998Z</time></trkpt><trkpt lat="44.19215178563346" lon="9.596162545207658"><ele>338.0</ele><time>2026-05-02T16:47:18.998Z</time></trkpt><trkpt lat="44.192014656852415" lon="9.596205078323502"><ele>336.0</ele><time>2026-05-02T16:47:19.998Z</time></trkpt><trkpt lat="44.19186820719362" lon="9.596232638973728"><ele>336.0</ele><time>2026-05-02T16:47:20.998Z</time></trkpt><trkpt lat="44.19173313148095" lon="9.59628245145741"><ele>336.0</ele><time>2026-05-02T16:47:21.998Z</time></trkpt><trkpt lat="44.191614358743955" lon="9.596328803449845"><ele>336.0</ele><time>2026-05-02T16:47:22.998Z</time></trkpt><trkpt lat="44.191513457924835" lon="9.596366813630784"><ele>336.0</ele><time>2026-05-02T16:47:23.998Z</time></trkpt><trkpt lat="44.19143917733061" lon="9.596436312643325"><ele>336.0</ele><time>2026-05-02T16:47:24.998Z</time></trkpt><trkpt lat="44.19139500259377" lon="9.596544590270158"><ele>336.0</ele><time>2026-05-02T16:47:25.998Z</time></trkpt><trkpt lat="44.19142742515478" lon="9.596705265222235"><ele>336.0</ele><time>2026-05-02T16:47:26.998Z</time></trkpt><trkpt lat="44.191504577946645" lon="9.596840815248969"><ele>336.0</ele><time>2026-05-02T16:47:27.998Z</time></trkpt><trkpt lat="44.19161614861135" lon="9.596948080004912"><ele>336.8</ele><time>2026-05-02T16:47:28.998Z</time></trkpt><trkpt lat="44.191714744692874" lon="9.597076212985778"><ele>337.6</ele><time>2026-05-02T16:47:30Z</time></trkpt><trkpt lat="44.191780843984986" lon="9.597182540598382"><ele>338.4</ele><time>2026-05-02T16:47:31Z</time></trkpt><trkpt lat="44.19182598705432" lon="9.597326358764583"><ele>339.2</ele><time>2026-05-02T16:47:33Z</time></trkpt><trkpt lat="44.19178472084845" lon="9.597419315402323"><ele>340.0</ele><time>2026-05-02T16:47:34Z</time></trkpt><trkpt lat="44.191712083075394" lon="9.597485185619824"><ele>340.0</ele><time>2026-05-02T16:47:35Z</time></trkpt><trkpt lat="44.191602333254465" lon="9.597466582191581"><ele>340.0</ele><time>2026-05-02T16:47:36Z</time></trkpt><trkpt lat="44.19146271210652" lon="9.597388265450759"><ele>340.0</ele><time>2026-05-02T16:47:37Z</time></trkpt><trkpt lat="44.19134302436121" lon="9.59730640398607"><ele>340.0</ele><time>2026-05-02T16:47:38Z</time></trkpt><trkpt lat="44.191219810242025" lon="9.59723765285622"><ele>341.25</ele><time>2026-05-02T16:47:39Z</time></trkpt><trkpt lat="44.19106748628287" lon="9.59718033295791"><ele>342.5</ele><time>2026-05-02T16:47:40Z</time></trkpt><trkpt lat="44.190939633566984" lon="9.597146130455744"><ele>343.75</ele><time>2026-05-02T16:47:41Z</time></trkpt><trkpt lat="44.190820291363" lon="9.597147175515593"><ele>345.0</ele><time>2026-05-02T16:47:42Z</time></trkpt><trkpt lat="44.190704593496804" lon="9.597066642877383"><ele>340.0</ele><time>2026-05-02T16:47:43Z</time></trkpt><trkpt lat="44.19060654193651" lon="9.596911019615149"><ele>335.0</ele><time>2026-05-02T16:47:44Z</time></trkpt><trkpt lat="44.19052549833933" lon="9.596737345012267"><ele>330.0</ele><time>2026-05-02T16:47:45Z</time></trkpt><trkpt lat="44.190470049197174" lon="9.596538550053527"><ele>330.0</ele><time>2026-05-02T16:47:46Z</time></trkpt><trkpt lat="44.190404901580365" lon="9.596356841369303"><ele>330.0</ele><time>2026-05-02T16:47:47Z</time></trkpt><trkpt lat="44.19035182840712" lon="9.596204837676503"><ele>330.0</ele><time>2026-05-02T16:47:48Z</time></trkpt><trkpt lat="44.19027745270874" lon="9.596081924408491"><ele>330.0</ele><time>2026-05-02T16:47:49Z</time></trkpt><trkpt lat="44.19019537085192" lon="9.596002490575936"><ele>324.25</ele><time>2026-05-02T16:47:50Z</time></trkpt><trkpt lat="44.190079583987846" lon="9.595965198305207"><ele>318.5</ele><time>2026-05-02T16:47:51Z</time></trkpt><trkpt lat="44.189946582265854" lon="9.595985166358231"><ele>312.75</ele><time>2026-05-02T16:47:52Z</time></trkpt><trkpt lat="44.18980370954485" lon="9.596032985909796"><ele>307.0</ele><time>2026-05-02T16:47:53Z</time></trkpt><trkpt lat="44.189664900672746" lon="9.596112643626906"><ele>308.75</ele><time>2026-05-02T16:47:54Z</time></trkpt><trkpt lat="44.18951926298553" lon="9.596182849224178"><ele>310.5</ele><time>2026-05-02T16:47:55Z</time></trkpt><trkpt lat="44.18936858354287" lon="9.596234327784567"><ele>312.25</ele><time>2026-05-02T16:47:56Z</time></trkpt><trkpt lat="44.18923439016112" lon="9.596259876454404"><ele>314.0</ele><time>2026-05-02T16:47:57Z</time></trkpt><trkpt lat="44.18910370086388" lon="9.596315426244198"><ele>314.0</ele><time>2026-05-02T16:47:58Z</time></trkpt><trkpt lat="44.18897891056605" lon="9.596445070129182"><ele>314.0</ele><time>2026-05-02T16:47:59Z</time></trkpt><trkpt lat="44.188889116681814" lon="9.596624789229844"><ele>314.0</ele><time>2026-05-02T16:48:00Z</time></trkpt><trkpt lat="44.188829024235126" lon="9.596774453627798"><ele>314.0</ele><time>2026-05-02T16:48:01Z</time></trkpt><trkpt lat="44.18877280937867" lon="9.59688233056524"><ele>314.0</ele><time>2026-05-02T16:48:02Z</time></trkpt><trkpt lat="44.18866475321417" lon="9.596966373680692"><ele>314.0</ele><time>2026-05-02T16:48:04Z</time></trkpt><trkpt lat="44.18859821755275" lon="9.59692123970088"><ele>314.0</ele><time>2026-05-02T16:48:05Z</time></trkpt><trkpt lat="44.18855692451551" lon="9.596814227848368"><ele>314.0</ele><time>2026-05-02T16:48:06Z</time></trkpt><trkpt lat="44.18854216915753" lon="9.596659604289655"><ele>314.0</ele><time>2026-05-02T16:48:07Z</time></trkpt><trkpt lat="44.18852150543723" lon="9.596497823178536"><ele>314.0</ele><time>2026-05-02T16:48:08Z</time></trkpt><trkpt lat="44.188484450110714" lon="9.596320044596293"><ele>314.0</ele><time>2026-05-02T16:48:09Z</time></trkpt><trkpt lat="44.18844497437874" lon="9.596126075702662"><ele>314.0</ele><time>2026-05-02T16:48:10Z</time></trkpt><trkpt lat="44.188418278231225" lon="9.595938633596132"><ele>314.0</ele><time>2026-05-02T16:48:11Z</time></trkpt><trkpt lat="44.18837169762489" lon="9.595760226187677"><ele>315.0</ele><time>2026-05-02T16:48:12Z</time></trkpt><trkpt lat="44.188287637168806" lon="9.595623661404717"><ele>316.0</ele><time>2026-05-02T16:48:13Z</time></trkpt><trkpt lat="44.18819245783396" lon="9.595548735131128"><ele>317.0</ele><time>2026-05-02T16:48:14Z</time></trkpt><trkpt lat="44.188088020616014" lon="9.59549941826168"><ele>318.0</ele><time>2026-05-02T16:48:14.999Z</time></trkpt><trkpt lat="44.18799677658306" lon="9.595494613117651"><ele>319.0</ele><time>2026-05-02T16:48:15.999Z</time></trkpt><trkpt lat="44.187925793329896" lon="9.595476882546084"><ele>319.0</ele><time>2026-05-02T16:48:16.999Z</time></trkpt><trkpt lat="44.18788873357549" lon="9.595395805612378"><ele>319.0</ele><time>2026-05-02T16:48:17.999Z</time></trkpt><trkpt lat="44.18789235971448" lon="9.595267880649939"><ele>319.0</ele><time>2026-05-02T16:48:18.999Z</time></trkpt><trkpt lat="44.18791222970932" lon="9.595127585762977"><ele>319.0</ele><time>2026-05-02T16:48:19.999Z</time></trkpt><trkpt lat="44.18790891067488" lon="9.59495477620341"><ele>319.0</ele><time>2026-05-02T16:48:20.999Z</time></trkpt><trkpt lat="44.18786821945779" lon="9.594785998491727"><ele>315.0</ele><time>2026-05-02T16:48:21.999Z</time></trkpt><trkpt lat="44.187806603942626" lon="9.594616390027776"><ele>311.0</ele><time>2026-05-02T16:48:22.999Z</time></trkpt><trkpt lat="44.187713936564855" lon="9.594449077599736"><ele>307.0</ele><time>2026-05-02T16:48:23.999Z</time></trkpt><trkpt lat="44.18760541352898" lon="9.59429288870585"><ele>303.0</ele><time>2026-05-02T16:48:24.999Z</time></trkpt><trkpt lat="44.18745334545442" lon="9.594177050945614"><ele>300.75</ele><time>2026-05-02T16:48:25.999Z</time></trkpt><trkpt lat="44.18732216036836" lon="9.594054422231455"><ele>298.5</ele><time>2026-05-02T16:48:26.999Z</time></trkpt><trkpt lat="44.187213577037355" lon="9.593924108258225"><ele>296.25</ele><time>2026-05-02T16:48:27.999Z</time></trkpt><trkpt lat="44.18709747508973" lon="9.593802416784671"><ele>294.0</ele><time>2026-05-02T16:48:28.999Z</time></trkpt><trkpt lat="44.18701555385612" lon="9.593635826666405"><ele>288.59999999999997</ele><time>2026-05-02T16:48:29.999Z</time></trkpt><trkpt lat="44.18695566977819" lon="9.593484212932541"><ele>283.2</ele><time>2026-05-02T16:48:30.999Z</time></trkpt><trkpt lat="44.18687614252031" lon="9.593387319408565"><ele>277.79999999999995</ele><time>2026-05-02T16:48:31.999Z</time></trkpt><trkpt lat="44.186802934212615" lon="9.593322037459277"><ele>272.4</ele><time>2026-05-02T16:48:32.999Z</time></trkpt><trkpt lat="44.186707659309235" lon="9.593298110673686"><ele>267.0</ele><time>2026-05-02T16:48:33.999Z</time></trkpt><trkpt lat="44.18662422934127" lon="9.593311266755595"><ele>267.0</ele><time>2026-05-02T16:48:34.999Z</time></trkpt><trkpt lat="44.18653220093181" lon="9.593372835092238"><ele>267.0</ele><time>2026-05-02T16:48:35.999Z</time></trkpt><trkpt lat="44.18642645013581" lon="9.593461917902951"><ele>267.0</ele><time>2026-05-02T16:48:36.999Z</time></trkpt><trkpt lat="44.18631916791197" lon="9.59359385164366"><ele>267.0</ele><time>2026-05-02T16:48:37.999Z</time></trkpt><trkpt lat="44.186221538093" lon="9.593716672912187"><ele>266.5</ele><time>2026-05-02T16:48:38.999Z</time></trkpt><trkpt lat="44.18614522722284" lon="9.593784149006774"><ele>266.0</ele><time>2026-05-02T16:48:39.999Z</time></trkpt><trkpt lat="44.18607457207027" lon="9.593832130620592"><ele>265.5</ele><time>2026-05-02T16:48:40.999Z</time></trkpt><trkpt lat="44.186000492112115" lon="9.593819231507387"><ele>265.0</ele><time>2026-05-02T16:48:41.999Z</time></trkpt><trkpt lat="44.185928511330765" lon="9.593747381976112"><ele>264.5</ele><time>2026-05-02T16:48:42.999Z</time></trkpt><trkpt lat="44.185874913919186" lon="9.593642773985014"><ele>264.0</ele><time>2026-05-02T16:48:43.999Z</time></trkpt><trkpt lat="44.18577017591335" lon="9.593507145781315"><ele>266.4</ele><time>2026-05-02T16:48:44.999Z</time></trkpt><trkpt lat="44.18567439363516" lon="9.59340951897519"><ele>268.79999999999995</ele><time>2026-05-02T16:48:45.999Z</time></trkpt><trkpt lat="44.18562565868311" lon="9.593291233399144"><ele>271.20000000000005</ele><time>2026-05-02T16:48:46.999Z</time></trkpt><trkpt lat="44.185597447572654" lon="9.59316960034225"><ele>273.6</ele><time>2026-05-02T16:48:47.999Z</time></trkpt><trkpt lat="44.18553412105753" lon="9.59308111556023"><ele>276.0</ele><time>2026-05-02T16:48:48.999Z</time></trkpt><trkpt lat="44.18540931938515" lon="9.593106060267734"><ele>276.0</ele><time>2026-05-02T16:48:49.999Z</time></trkpt><trkpt lat="44.185287562381895" lon="9.59323570781692"><ele>276.0</ele><time>2026-05-02T16:48:50.999Z</time></trkpt><trkpt lat="44.18518598736731" lon="9.593298714994294"><ele>276.0</ele><time>2026-05-02T16:48:51.999Z</time></trkpt><trkpt lat="44.18508671138031" lon="9.593258814960727"><ele>276.0</ele><time>2026-05-02T16:48:52.999Z</time></trkpt><trkpt lat="44.18501316116686" lon="9.593141401288246"><ele>276.0</ele><time>2026-05-02T16:48:53.999Z</time></trkpt><trkpt lat="44.18493297345094" lon="9.59297925642371"><ele>276.0</ele><time>2026-05-02T16:48:54.999Z</time></trkpt><trkpt lat="44.18485655807224" lon="9.592814333575461"><ele>276.0</ele><time>2026-05-02T16:48:55.999Z</time></trkpt><trkpt lat="44.184762451652716" lon="9.592651067683528"><ele>276.0</ele><time>2026-05-02T16:48:56.999Z</time></trkpt><trkpt lat="44.184662887045754" lon="9.592478332457404"><ele>279.3333333333333</ele><time>2026-05-02T16:48:57.999Z</time></trkpt><trkpt lat="44.18455350703057" lon="9.592304857026182"><ele>282.66666666666663</ele><time>2026-05-02T16:48:58.999Z</time></trkpt><trkpt lat="44.18444277266007" lon="9.592130404092144"><ele>286.0</ele><time>2026-05-02T16:48:59.999Z</time></trkpt><trkpt lat="44.18433836588292" lon="9.59197066260066"><ele>278.3333333333333</ele><time>2026-05-02T16:49:00.999Z</time></trkpt><trkpt lat="44.1842646744098" lon="9.591794419946654"><ele>270.6666666666667</ele><time>2026-05-02T16:49:01.999Z</time></trkpt><trkpt lat="44.18419098760576" lon="9.591600653385735"><ele>263.0</ele><time>2026-05-02T16:49:02.999Z</time></trkpt><trkpt lat="44.18414007670389" lon="9.591379668512943"><ele>253.33333333333334</ele><time>2026-05-02T16:49:03.999Z</time></trkpt><trkpt lat="44.184085341717086" lon="9.59115215863818"><ele>243.66666666666669</ele><time>2026-05-02T16:49:04.999Z</time></trkpt><trkpt lat="44.18398132691387" lon="9.590963947765088"><ele>234.0</ele><time>2026-05-02T16:49:05.999Z</time></trkpt><trkpt lat="44.183884411231574" lon="9.590834579610808"><ele>233.25</ele><time>2026-05-02T16:49:06.999Z</time></trkpt><trkpt lat="44.183797357223774" lon="9.590736064531443"><ele>232.5</ele><time>2026-05-02T16:49:07.999Z</time></trkpt><trkpt lat="44.183699888458314" lon="9.590654037872321"><ele>231.75</ele><time>2026-05-02T16:49:08.999Z</time></trkpt><trkpt lat="44.18359714615933" lon="9.590623994612615"><ele>231.0</ele><time>2026-05-02T16:49:09.999Z</time></trkpt><trkpt lat="44.18347731070455" lon="9.59067698234539"><ele>231.0</ele><time>2026-05-02T16:49:10.999Z</time></trkpt><trkpt lat="44.1833800456512" lon="9.590758145843179"><ele>231.0</ele><time>2026-05-02T16:49:11.999Z</time></trkpt><trkpt lat="44.1833101151876" lon="9.590907723758704"><ele>231.0</ele><time>2026-05-02T16:49:12.999Z</time></trkpt><trkpt lat="44.18326009222833" lon="9.591083545053758"><ele>231.0</ele><time>2026-05-02T16:49:13.999Z</time></trkpt><trkpt lat="44.1831976704856" lon="9.591272231718111"><ele>229.0</ele><time>2026-05-02T16:49:14.999Z</time></trkpt><trkpt lat="44.183116858553284" lon="9.591457915595893"><ele>227.0</ele><time>2026-05-02T16:49:15.998Z</time></trkpt><trkpt lat="44.18302804050559" lon="9.591616082634069"><ele>225.0</ele><time>2026-05-02T16:49:16.998Z</time></trkpt><trkpt lat="44.18293856279713" lon="9.591739030566137"><ele>223.0</ele><time>2026-05-02T16:49:17.998Z</time></trkpt><trkpt lat="44.18281665889505" lon="9.591809758193364"><ele>223.0</ele><time>2026-05-02T16:49:18.998Z</time></trkpt><trkpt lat="44.182675265665104" lon="9.591829594112596"><ele>223.0</ele><time>2026-05-02T16:49:19.998Z</time></trkpt><trkpt lat="44.18253615444067" lon="9.59183663939369"><ele>223.0</ele><time>2026-05-02T16:49:20.998Z</time></trkpt><trkpt lat="44.18241216348424" lon="9.5918727799149"><ele>223.0</ele><time>2026-05-02T16:49:21.998Z</time></trkpt><trkpt lat="44.18229153014069" lon="9.591936556675241"><ele>222.5</ele><time>2026-05-02T16:49:22.998Z</time></trkpt><trkpt lat="44.182193518822615" lon="9.592053946254651"><ele>222.0</ele><time>2026-05-02T16:49:23.998Z</time></trkpt><trkpt lat="44.18210542455999" lon="9.59223665697447"><ele>221.5</ele><time>2026-05-02T16:49:24.998Z</time></trkpt><trkpt lat="44.18204616971015" lon="9.592428147331052"><ele>221.0</ele><time>2026-05-02T16:49:25.998Z</time></trkpt><trkpt lat="44.181994870015785" lon="9.592567386139251"><ele>221.0</ele><time>2026-05-02T16:49:26.998Z</time></trkpt><trkpt lat="44.18194690476236" lon="9.592669072995452"><ele>221.00000000000003</ele><time>2026-05-02T16:49:27.998Z</time></trkpt><trkpt lat="44.18189769056085" lon="9.592730796273331"><ele>221.00000000000003</ele><time>2026-05-02T16:49:28.998Z</time></trkpt><trkpt lat="44.18181010129104" lon="9.592733085812426"><ele>221.0</ele><time>2026-05-02T16:49:29.998Z</time></trkpt><trkpt lat="44.18170789146722" lon="9.592698874876858"><ele>221.0</ele><time>2026-05-02T16:49:30.998Z</time></trkpt><trkpt lat="44.18160158117343" lon="9.592663355348899"><ele>215.0</ele><time>2026-05-02T16:49:31.998Z</time></trkpt><trkpt lat="44.1814820262469" lon="9.59263728397484"><ele>209.0</ele><time>2026-05-02T16:49:32.998Z</time></trkpt><trkpt lat="44.181358376807104" lon="9.592627040676565"><ele>203.0</ele><time>2026-05-02T16:49:33.998Z</time></trkpt><trkpt lat="44.181237684309956" lon="9.59264177337036"><ele>197.0</ele><time>2026-05-02T16:49:34.998Z</time></trkpt><trkpt lat="44.18114205794463" lon="9.592698590365526"><ele>197.0</ele><time>2026-05-02T16:49:36Z</time></trkpt><trkpt lat="44.1810643353294" lon="9.59282250246201"><ele>197.0</ele><time>2026-05-02T16:49:37Z</time></trkpt><trkpt lat="44.18099560820544" lon="9.592969547060349"><ele>197.0</ele><time>2026-05-02T16:49:38Z</time></trkpt><trkpt lat="44.18092142781302" lon="9.593121710253461"><ele>197.0</ele><time>2026-05-02T16:49:39Z</time></trkpt><trkpt lat="44.18083656641037" lon="9.593284170185148"><ele>198.0</ele><time>2026-05-02T16:49:40Z</time></trkpt><trkpt lat="44.18074607975761" lon="9.593453858404226"><ele>199.0</ele><time>2026-05-02T16:49:41Z</time></trkpt><trkpt lat="44.18066210263495" lon="9.593637369757108"><ele>200.0</ele><time>2026-05-02T16:49:42Z</time></trkpt><trkpt lat="44.180570303136285" lon="9.593792380394076"><ele>202.0</ele><time>2026-05-02T16:49:43Z</time></trkpt><trkpt lat="44.180468770798875" lon="9.593950344685366"><ele>204.0</ele><time>2026-05-02T16:49:44Z</time></trkpt><trkpt lat="44.18033570442523" lon="9.594078264295536"><ele>206.0</ele><time>2026-05-02T16:49:45Z</time></trkpt><trkpt lat="44.180201732607564" lon="9.594202359230168"><ele>206.0</ele><time>2026-05-02T16:49:46Z</time></trkpt><trkpt lat="44.18008231666869" lon="9.594316336853495"><ele>206.0</ele><time>2026-05-02T16:49:47Z</time></trkpt><trkpt lat="44.17996997684809" lon="9.594393136333233"><ele>206.0</ele><time>2026-05-02T16:49:48Z</time></trkpt><trkpt lat="44.179870139236115" lon="9.594452887463211"><ele>206.0</ele><time>2026-05-02T16:49:49Z</time></trkpt><trkpt lat="44.17979509764329" lon="9.594497947913052"><ele>200.75</ele><time>2026-05-02T16:49:50Z</time></trkpt><trkpt lat="44.17974566193359" lon="9.594569900280026"><ele>195.5</ele><time>2026-05-02T16:49:51Z</time></trkpt><trkpt lat="44.17970954752543" lon="9.594723460530341"><ele>190.25</ele><time>2026-05-02T16:49:52Z</time></trkpt><trkpt lat="44.17970905822439" lon="9.59490533888183"><ele>185.0</ele><time>2026-05-02T16:49:53Z</time></trkpt><trkpt lat="44.17969501966242" lon="9.59509677094429"><ele>185.0</ele><time>2026-05-02T16:49:54Z</time></trkpt><trkpt lat="44.1796863727182" lon="9.595291290984715"><ele>185.0</ele><time>2026-05-02T16:49:55Z</time></trkpt><trkpt lat="44.17967571871569" lon="9.59548733969297"><ele>185.0</ele><time>2026-05-02T16:49:56Z</time></trkpt><trkpt lat="44.179675349235964" lon="9.595653886260571"><ele>185.0</ele><time>2026-05-02T16:49:57Z</time></trkpt><trkpt lat="44.17969079409363" lon="9.595796264261491"><ele>185.0</ele><time>2026-05-02T16:49:58Z</time></trkpt><trkpt lat="44.17970194473623" lon="9.595921675142069"><ele>185.0</ele><time>2026-05-02T16:49:59Z</time></trkpt><trkpt lat="44.17967657943036" lon="9.596058735693871"><ele>185.0</ele><time>2026-05-02T16:50:00Z</time></trkpt><trkpt lat="44.17961844502718" lon="9.596175731009122"><ele>185.0</ele><time>2026-05-02T16:50:01Z</time></trkpt><trkpt lat="44.179541892628244" lon="9.5962859735728"><ele>185.0</ele><time>2026-05-02T16:50:02Z</time></trkpt><trkpt lat="44.179444624771875" lon="9.59637731413489"><ele>186.0</ele><time>2026-05-02T16:50:03Z</time></trkpt><trkpt lat="44.179317857332286" lon="9.596426197298252"><ele>187.0</ele><time>2026-05-02T16:50:04Z</time></trkpt><trkpt lat="44.17918340402588" lon="9.59651190418458"><ele>188.0</ele><time>2026-05-02T16:50:05Z</time></trkpt><trkpt lat="44.179060078573436" lon="9.596647240714768"><ele>189.0</ele><time>2026-05-02T16:50:06Z</time></trkpt><trkpt lat="44.17895400485195" lon="9.596783485546394"><ele>185.5</ele><time>2026-05-02T16:50:07Z</time></trkpt><trkpt lat="44.17887176505256" lon="9.59690515021567"><ele>182.0</ele><time>2026-05-02T16:50:08Z</time></trkpt><trkpt lat="44.17881555280814" lon="9.59706276498887"><ele>178.5</ele><time>2026-05-02T16:50:09Z</time></trkpt><trkpt lat="44.17878340667233" lon="9.597255111711029"><ele>175.0</ele><time>2026-05-02T16:50:10Z</time></trkpt><trkpt lat="44.178727085798315" lon="9.59741308914474"><ele>175.0</ele><time>2026-05-02T16:50:11Z</time></trkpt><trkpt lat="44.17864066356902" lon="9.597531509419444"><ele>175.0</ele><time>2026-05-02T16:50:12Z</time></trkpt><trkpt lat="44.17854307022532" lon="9.597666621842542"><ele>175.0</ele><time>2026-05-02T16:50:13Z</time></trkpt><trkpt lat="44.17840929422436" lon="9.597764189917992"><ele>175.0</ele><time>2026-05-02T16:50:14Z</time></trkpt><trkpt lat="44.178254037082375" lon="9.597809146072954"><ele>172.33333333333334</ele><time>2026-05-02T16:50:15Z</time></trkpt><trkpt lat="44.178088891173964" lon="9.597835411987006"><ele>169.66666666666666</ele><time>2026-05-02T16:50:16Z</time></trkpt><trkpt lat="44.17792170015544" lon="9.59787609880671"><ele>167.0</ele><time>2026-05-02T16:50:17Z</time></trkpt><trkpt lat="44.17778022192747" lon="9.597939452800922"><ele>167.0</ele><time>2026-05-02T16:50:18Z</time></trkpt><trkpt lat="44.177663294399395" lon="9.598000146482853"><ele>167.0</ele><time>2026-05-02T16:50:19Z</time></trkpt><trkpt lat="44.17756987545717" lon="9.59806015550684"><ele>167.0</ele><time>2026-05-02T16:50:20Z</time></trkpt><trkpt lat="44.17748354507523" lon="9.598122134703136"><ele>167.0</ele><time>2026-05-02T16:50:20.999Z</time></trkpt><trkpt lat="44.17738930295606" lon="9.598199232101697"><ele>167.0</ele><time>2026-05-02T16:50:21.999Z</time></trkpt><trkpt lat="44.177300893084215" lon="9.598268711993914"><ele>164.16666666666666</ele><time>2026-05-02T16:50:22.999Z</time></trkpt><trkpt lat="44.177239323139624" lon="9.598323049507552"><ele>161.33333333333331</ele><time>2026-05-02T16:50:23.999Z</time></trkpt><trkpt lat="44.177193589018756" lon="9.59839423804215"><ele>158.5</ele><time>2026-05-02T16:50:24.999Z</time></trkpt><trkpt lat="44.17717934955096" lon="9.598484349430068"><ele>155.66666666666666</ele><time>2026-05-02T16:50:25.999Z</time></trkpt><trkpt lat="44.17721764046266" lon="9.598630119728783"><ele>152.83333333333334</ele><time>2026-05-02T16:50:27.999Z</time></trkpt><trkpt lat="44.17728422434131" lon="9.598708810484876"><ele>150.0</ele><time>2026-05-02T16:50:29.999Z</time></trkpt><trkpt lat="44.17735694025164" lon="9.598779396386197"><ele>150.0</ele><time>2026-05-02T16:50:31.999Z</time></trkpt><trkpt lat="44.177477071313405" lon="9.598859110337985"><ele>150.0</ele><time>2026-05-02T16:50:33.999Z</time></trkpt><trkpt lat="44.177570626338216" lon="9.598912871951415"><ele>150.0</ele><time>2026-05-02T16:50:34.999Z</time></trkpt><trkpt lat="44.177691884632935" lon="9.598913870773975"><ele>150.0</ele><time>2026-05-02T16:50:35.999Z</time></trkpt><trkpt lat="44.17782411064506" lon="9.598889067503073"><ele>150.0</ele><time>2026-05-02T16:50:36.999Z</time></trkpt><trkpt lat="44.17796588028508" lon="9.59886335030572"><ele>150.0</ele><time>2026-05-02T16:50:37.999Z</time></trkpt><trkpt lat="44.17811298243988" lon="9.598838472670776"><ele>150.0</ele><time>2026-05-02T16:50:38.999Z</time></trkpt><trkpt lat="44.178251370563466" lon="9.598809941106747"><ele>150.0</ele><time>2026-05-02T16:50:39.999Z</time></trkpt><trkpt lat="44.17838714444526" lon="9.598801350467992"><ele>149.5</ele><time>2026-05-02T16:50:40.999Z</time></trkpt><trkpt lat="44.1785158137111" lon="9.598760665685708"><ele>149.0</ele><time>2026-05-02T16:50:41.999Z</time></trkpt><trkpt lat="44.17864205206987" lon="9.598756484805113"><ele>148.5</ele><time>2026-05-02T16:50:42.999Z</time></trkpt><trkpt lat="44.17876199722694" lon="9.598810303307031"><ele>148.0</ele><time>2026-05-02T16:50:43.999Z</time></trkpt><trkpt lat="44.178872714247206" lon="9.598893145532312"><ele>148.0</ele><time>2026-05-02T16:50:44.999Z</time></trkpt><trkpt lat="44.17896821662313" lon="9.598982291703264"><ele>148.0</ele><time>2026-05-02T16:50:45.999Z</time></trkpt><trkpt lat="44.179020590224624" lon="9.599136858322101"><ele>148.0</ele><time>2026-05-02T16:50:46.999Z</time></trkpt><trkpt lat="44.17903291335629" lon="9.599301502597466"><ele>148.0</ele><time>2026-05-02T16:50:47.999Z</time></trkpt><trkpt lat="44.17907395785829" lon="9.599429767580549"><ele>145.0</ele><time>2026-05-02T16:50:48.999Z</time></trkpt><trkpt lat="44.17906669177977" lon="9.599544301521126"><ele>142.0</ele><time>2026-05-02T16:50:49.999Z</time></trkpt><trkpt lat="44.17901149523961" lon="9.599642172437646"><ele>139.0</ele><time>2026-05-02T16:50:50.999Z</time></trkpt><trkpt lat="44.178918111790516" lon="9.599714164095385"><ele>136.0</ele><time>2026-05-02T16:50:51.999Z</time></trkpt><trkpt lat="44.178818763825994" lon="9.599826562220946"><ele>133.0</ele><time>2026-05-02T16:50:52.999Z</time></trkpt><trkpt lat="44.17870917357058" lon="9.599948822760213"><ele>133.0</ele><time>2026-05-02T16:50:53.999Z</time></trkpt><trkpt lat="44.17860376127083" lon="9.60006642230769"><ele>133.0</ele><time>2026-05-02T16:50:54.999Z</time></trkpt><trkpt lat="44.17850651326008" lon="9.600203053175344"><ele>133.0</ele><time>2026-05-02T16:50:55.999Z</time></trkpt><trkpt lat="44.17844734856438" lon="9.6003852795132"><ele>133.0</ele><time>2026-05-02T16:50:56.999Z</time></trkpt><trkpt lat="44.17840272044896" lon="9.600541543963024"><ele>133.25</ele><time>2026-05-02T16:50:57.999Z</time></trkpt><trkpt lat="44.17837370859786" lon="9.600697013716003"><ele>133.5</ele><time>2026-05-02T16:50:58.999Z</time></trkpt><trkpt lat="44.1783600835678" lon="9.600855261712606"><ele>133.75</ele><time>2026-05-02T16:50:59.999Z</time></trkpt><trkpt lat="44.17839955573976" lon="9.601026151179855"><ele>134.0</ele><time>2026-05-02T16:51:00.999Z</time></trkpt><trkpt lat="44.17845786664259" lon="9.601150475778613"><ele>134.0</ele><time>2026-05-02T16:51:01.999Z</time></trkpt><trkpt lat="44.17847872261994" lon="9.601287933162316"><ele>134.0</ele><time>2026-05-02T16:51:02.999Z</time></trkpt><trkpt lat="44.17842730020421" lon="9.601414114669506"><ele>134.0</ele><time>2026-05-02T16:51:03.999Z</time></trkpt><trkpt lat="44.17837326117697" lon="9.601520776705977"><ele>134.0</ele><time>2026-05-02T16:51:04.999Z</time></trkpt><trkpt lat="44.17833924322158" lon="9.601640672513259"><ele>134.0</ele><time>2026-05-02T16:51:05.999Z</time></trkpt><trkpt lat="44.17833494383601" lon="9.601774618279622"><ele>134.0</ele><time>2026-05-02T16:51:06.999Z</time></trkpt><trkpt lat="44.17835718259807" lon="9.601914923216285"><ele>134.0</ele><time>2026-05-02T16:51:07.999Z</time></trkpt><trkpt lat="44.17838273572741" lon="9.602044769399852"><ele>134.0</ele><time>2026-05-02T16:51:08.999Z</time></trkpt><trkpt lat="44.178389892947536" lon="9.602164864851053"><ele>134.0</ele><time>2026-05-02T16:51:09.999Z</time></trkpt><trkpt lat="44.17836877058023" lon="9.602291537415534"><ele>134.0</ele><time>2026-05-02T16:51:10.999Z</time></trkpt><trkpt lat="44.17833509020484" lon="9.602417764635431"><ele>134.0</ele><time>2026-05-02T16:51:11.999Z</time></trkpt><trkpt lat="44.178309721783734" lon="9.60254949376715"><ele>134.0</ele><time>2026-05-02T16:51:12.999Z</time></trkpt><trkpt lat="44.178283173638235" lon="9.602714906437079"><ele>134.0</ele><time>2026-05-02T16:51:13.999Z</time></trkpt><trkpt lat="44.1782715494256" lon="9.602869424927622"><ele>134.0</ele><time>2026-05-02T16:51:14.999Z</time></trkpt><trkpt lat="44.17822647032746" lon="9.60311261556498"><ele>122.33333333333333</ele><time>2026-05-02T16:51:15.999Z</time></trkpt><trkpt lat="44.17818185481703" lon="9.603325000604714"><ele>110.66666666666666</ele><time>2026-05-02T16:51:16.999Z</time></trkpt><trkpt lat="44.178135972679826" lon="9.603550363368626"><ele>99.0</ele><time>2026-05-02T16:51:17.999Z</time></trkpt><trkpt lat="44.178113470403" lon="9.603776594624604"><ele>97.33333333333333</ele><time>2026-05-02T16:51:18.999Z</time></trkpt><trkpt lat="44.17811613573758" lon="9.604026087598122"><ele>95.66666666666666</ele><time>2026-05-02T16:51:19.999Z</time></trkpt><trkpt lat="44.17813177359649" lon="9.60426367345008"><ele>94.0</ele><time>2026-05-02T16:51:20.998Z</time></trkpt><trkpt lat="44.17814505205009" lon="9.604476090009726"><ele>95.75</ele><time>2026-05-02T16:51:21.998Z</time></trkpt><trkpt lat="44.178161380238414" lon="9.604666117899166"><ele>97.5</ele><time>2026-05-02T16:51:22.998Z</time></trkpt><trkpt lat="44.17817732182003" lon="9.60484969679584"><ele>99.25</ele><time>2026-05-02T16:51:23.998Z</time></trkpt><trkpt lat="44.1782013068082" lon="9.605009793695544"><ele>101.0</ele><time>2026-05-02T16:51:24.998Z</time></trkpt><trkpt lat="44.17826071710288" lon="9.605146744734345"><ele>104.8</ele><time>2026-05-02T16:51:25.998Z</time></trkpt><trkpt lat="44.17834180847684" lon="9.605244942304273"><ele>108.6</ele><time>2026-05-02T16:51:26.998Z</time></trkpt><trkpt lat="44.178425408469266" lon="9.605304567819848"><ele>112.4</ele><time>2026-05-02T16:51:27.998Z</time></trkpt><trkpt lat="44.178517246538235" lon="9.605407130430532"><ele>116.2</ele><time>2026-05-02T16:51:29.998Z</time></trkpt><trkpt lat="44.178524321430196" lon="9.60549626796641"><ele>120.0</ele><time>2026-05-02T16:51:30.998Z</time></trkpt><trkpt lat="44.17847945656574" lon="9.60557738921042"><ele>121.0</ele><time>2026-05-02T16:51:31.998Z</time></trkpt><trkpt lat="44.178392811674954" lon="9.60562907352061"><ele>122.0</ele><time>2026-05-02T16:51:32.998Z</time></trkpt><trkpt lat="44.1783062515401" lon="9.605645658535211"><ele>123.0</ele><time>2026-05-02T16:51:33.998Z</time></trkpt><trkpt lat="44.17822458928159" lon="9.605668580534644"><ele>124.0</ele><time>2026-05-02T16:51:34.998Z</time></trkpt><trkpt lat="44.17814067860993" lon="9.605670108893316"><ele>125.0</ele><time>2026-05-02T16:51:35.998Z</time></trkpt><trkpt lat="44.17804783087403" lon="9.605633488090598"><ele>126.0</ele><time>2026-05-02T16:51:36.998Z</time></trkpt><trkpt lat="44.17794673672133" lon="9.60558471444876"><ele>126.75</ele><time>2026-05-02T16:51:37.998Z</time></trkpt><trkpt lat="44.17782823432307" lon="9.605522466207487"><ele>127.5</ele><time>2026-05-02T16:51:38.998Z</time></trkpt><trkpt lat="44.17770788143582" lon="9.605439941226754"><ele>128.25</ele><time>2026-05-02T16:51:39.998Z</time></trkpt><trkpt lat="44.177586544985964" lon="9.605344691670396"><ele>129.0</ele><time>2026-05-02T16:51:40.998Z</time></trkpt><trkpt lat="44.17746632026209" lon="9.605228536021748"><ele>122.0</ele><time>2026-05-02T16:51:42Z</time></trkpt><trkpt lat="44.177336164613095" lon="9.605118424124191"><ele>115.0</ele><time>2026-05-02T16:51:43Z</time></trkpt><trkpt lat="44.17721465034452" lon="9.604999684533007"><ele>108.0</ele><time>2026-05-02T16:51:44Z</time></trkpt><trkpt lat="44.17708211910968" lon="9.60490673646938"><ele>101.0</ele><time>2026-05-02T16:51:45Z</time></trkpt><trkpt lat="44.17693393593319" lon="9.60484431886401"><ele>101.0</ele><time>2026-05-02T16:51:46Z</time></trkpt><trkpt lat="44.17678200026391" lon="9.604819488269856"><ele>101.0</ele><time>2026-05-02T16:51:47Z</time></trkpt><trkpt lat="44.17662767150569" lon="9.604795553871636"><ele>101.0</ele><time>2026-05-02T16:51:48Z</time></trkpt><trkpt lat="44.176481958279595" lon="9.604778807774762"><ele>97.33333333333333</ele><time>2026-05-02T16:51:49Z</time></trkpt><trkpt lat="44.17633138630537" lon="9.60477679565146"><ele>93.66666666666666</ele><time>2026-05-02T16:51:50Z</time></trkpt><trkpt lat="44.17617159191693" lon="9.604794654663742"><ele>90.0</ele><time>2026-05-02T16:51:51Z</time></trkpt><trkpt lat="44.17601958697454" lon="9.60482198464297"><ele>90.0</ele><time>2026-05-02T16:51:52Z</time></trkpt><trkpt lat="44.17587015442851" lon="9.60485701156393"><ele>90.0</ele><time>2026-05-02T16:51:53Z</time></trkpt><trkpt lat="44.17572259923998" lon="9.60488832606671"><ele>90.0</ele><time>2026-05-02T16:51:54Z</time></trkpt><trkpt lat="44.17556834897391" lon="9.604942262087377"><ele>85.33333333333333</ele><time>2026-05-02T16:51:55Z</time></trkpt><trkpt lat="44.17540525464307" lon="9.604984389758721"><ele>80.66666666666666</ele><time>2026-05-02T16:51:56Z</time></trkpt><trkpt lat="44.17524510172067" lon="9.60507133463111"><ele>76.0</ele><time>2026-05-02T16:51:57Z</time></trkpt><trkpt lat="44.17509626918261" lon="9.605163994044686"><ele>76.0</ele><time>2026-05-02T16:51:58Z</time></trkpt><trkpt lat="44.174952939295686" lon="9.605256379862878"><ele>76.0</ele><time>2026-05-02T16:51:59Z</time></trkpt><trkpt lat="44.174812796756264" lon="9.605340491340517"><ele>76.0</ele><time>2026-05-02T16:52:00Z</time></trkpt><trkpt lat="44.17466255713373" lon="9.605418478157743"><ele>77.75</ele><time>2026-05-02T16:52:01Z</time></trkpt><trkpt lat="44.174518091021966" lon="9.605472902735283"><ele>79.5</ele><time>2026-05-02T16:52:02Z</time></trkpt><trkpt lat="44.1743729185961" lon="9.605510897460519"><ele>81.25</ele><time>2026-05-02T16:52:03Z</time></trkpt><trkpt lat="44.17423498657623" lon="9.605520804510542"><ele>83.0</ele><time>2026-05-02T16:52:04Z</time></trkpt><trkpt lat="44.17410560151995" lon="9.605516115665875"><ele>77.75</ele><time>2026-05-02T16:52:05Z</time></trkpt><trkpt lat="44.17398325881295" lon="9.605511312146447"><ele>72.5</ele><time>2026-05-02T16:52:06Z</time></trkpt><trkpt lat="44.173862678380736" lon="9.605513228363284"><ele>67.25</ele><time>2026-05-02T16:52:07Z</time></trkpt><trkpt lat="44.173743122454425" lon="9.60553130545019"><ele>62.0</ele><time>2026-05-02T16:52:08Z</time></trkpt><trkpt lat="44.173633334099776" lon="9.605552391572605"><ele>62.0</ele><time>2026-05-02T16:52:09Z</time></trkpt><trkpt lat="44.173513860162195" lon="9.605577445373719"><ele>62.0</ele><time>2026-05-02T16:52:10Z</time></trkpt><trkpt lat="44.17343554924646" lon="9.605617530284592"><ele>62.0</ele><time>2026-05-02T16:52:11Z</time></trkpt><trkpt lat="44.17335017298783" lon="9.605660373176342"><ele>62.0</ele><time>2026-05-02T16:52:12Z</time></trkpt><trkpt lat="44.17326954864135" lon="9.605758007330826"><ele>62.0</ele><time>2026-05-02T16:52:13Z</time></trkpt><trkpt lat="44.17319874470337" lon="9.605897531688054"><ele>54.0</ele><time>2026-05-02T16:52:14Z</time></trkpt><trkpt lat="44.173141371050754" lon="9.606070947191784"><ele>46.0</ele><time>2026-05-02T16:52:15Z</time></trkpt><trkpt lat="44.17307981058121" lon="9.60624864988142"><ele>38.0</ele><time>2026-05-02T16:52:16Z</time></trkpt><trkpt lat="44.17300768261512" lon="9.606414731966149"><ele>30.0</ele><time>2026-05-02T16:52:17Z</time></trkpt><trkpt lat="44.17294099934472" lon="9.606564306773675"><ele>30.0</ele><time>2026-05-02T16:52:18Z</time></trkpt><trkpt lat="44.17287816273598" lon="9.606702368725024"><ele>30.0</ele><time>2026-05-02T16:52:19Z</time></trkpt><trkpt lat="44.172837164784916" lon="9.606836041765877"><ele>30.0</ele><time>2026-05-02T16:52:20Z</time></trkpt><trkpt lat="44.172819373599275" lon="9.60698328350671"><ele>30.0</ele><time>2026-05-02T16:52:21Z</time></trkpt><trkpt lat="44.172825724060296" lon="9.607135117118661"><ele>30.0</ele><time>2026-05-02T16:52:22Z</time></trkpt><trkpt lat="44.172833615052305" lon="9.607291362193461"><ele>29.6</ele><time>2026-05-02T16:52:22.999Z</time></trkpt><trkpt lat="44.17283659384238" lon="9.60744293422535"><ele>29.2</ele><time>2026-05-02T16:52:23.999Z</time></trkpt><trkpt lat="44.172838295005846" lon="9.607594497781694"><ele>28.799999999999997</ele><time>2026-05-02T16:52:24.999Z</time></trkpt><trkpt lat="44.172839338039836" lon="9.607753887189189"><ele>28.4</ele><time>2026-05-02T16:52:25.999Z</time></trkpt><trkpt lat="44.17284187249682" lon="9.607904449039763"><ele>28.0</ele><time>2026-05-02T16:52:26.999Z</time></trkpt><trkpt lat="44.172844251963404" lon="9.608052082165202"><ele>28.0</ele><time>2026-05-02T16:52:27.999Z</time></trkpt><trkpt lat="44.17284551962638" lon="9.608199285033532"><ele>27.999999999999996</ele><time>2026-05-02T16:52:28.999Z</time></trkpt><trkpt lat="44.17286534567117" lon="9.608339597551806"><ele>27.999999999999996</ele><time>2026-05-02T16:52:29.999Z</time></trkpt><trkpt lat="44.17290818559746" lon="9.608465057299869"><ele>28.0</ele><time>2026-05-02T16:52:30.999Z</time></trkpt><trkpt lat="44.172939509762664" lon="9.60860410563611"><ele>28.0</ele><time>2026-05-02T16:52:31.999Z</time></trkpt><trkpt lat="44.17298253823477" lon="9.608738901648126"><ele>26.799999999999997</ele><time>2026-05-02T16:52:32.999Z</time></trkpt><trkpt lat="44.17302641752869" lon="9.60887417263917"><ele>25.599999999999998</ele><time>2026-05-02T16:52:33.999Z</time></trkpt><trkpt lat="44.17307898426544" lon="9.609006603962458"><ele>24.4</ele><time>2026-05-02T16:52:34.999Z</time></trkpt><trkpt lat="44.17312229075578" lon="9.609148090420266"><ele>23.200000000000003</ele><time>2026-05-02T16:52:35.999Z</time></trkpt><trkpt lat="44.173157673975325" lon="9.609288007147681"><ele>22.0</ele><time>2026-05-02T16:52:36.999Z</time></trkpt><trkpt lat="44.17319758380843" lon="9.609431378100204"><ele>28.6</ele><time>2026-05-02T16:52:37.999Z</time></trkpt><trkpt lat="44.173227556191826" lon="9.609577288556851"><ele>35.2</ele><time>2026-05-02T16:52:38.999Z</time></trkpt><trkpt lat="44.17324403523099" lon="9.609732507492511"><ele>41.8</ele><time>2026-05-02T16:52:39.999Z</time></trkpt><trkpt lat="44.17326346614099" lon="9.609879561850677"><ele>48.4</ele><time>2026-05-02T16:52:40.999Z</time></trkpt><trkpt lat="44.17326408964096" lon="9.610027988062619"><ele>55.0</ele><time>2026-05-02T16:52:41.999Z</time></trkpt><trkpt lat="44.17325507214446" lon="9.610174147749968"><ele>55.0</ele><time>2026-05-02T16:52:42.999Z</time></trkpt><trkpt lat="44.17323449291133" lon="9.610313807052512"><ele>55.0</ele><time>2026-05-02T16:52:43.999Z</time></trkpt><trkpt lat="44.17322080294825" lon="9.610455265953787"><ele>55.0</ele><time>2026-05-02T16:52:44.999Z</time></trkpt><trkpt lat="44.173202391515744" lon="9.610596498614777"><ele>55.0</ele><time>2026-05-02T16:52:45.999Z</time></trkpt><trkpt lat="44.17317289250759" lon="9.610732127271447"><ele>55.0</ele><time>2026-05-02T16:52:46.999Z</time></trkpt><trkpt lat="44.173154289763865" lon="9.610862056834089"><ele>53.8</ele><time>2026-05-02T16:52:47.999Z</time></trkpt><trkpt lat="44.17317126445264" lon="9.61098695690993"><ele>52.6</ele><time>2026-05-02T16:52:48.999Z</time></trkpt><trkpt lat="44.173223976719385" lon="9.611109479929194"><ele>51.400000000000006</ele><time>2026-05-02T16:52:49.999Z</time></trkpt><trkpt lat="44.173274060378795" lon="9.611229085121488"><ele>50.2</ele><time>2026-05-02T16:52:50.999Z</time></trkpt><trkpt lat="44.17333410119597" lon="9.61133555861665"><ele>49.0</ele><time>2026-05-02T16:52:51.999Z</time></trkpt><trkpt lat="44.173404928160565" lon="9.61143134557156"><ele>46.49999999999999</ele><time>2026-05-02T16:52:52.999Z</time></trkpt><trkpt lat="44.173459319387455" lon="9.611528906845047"><ele>44.0</ele><time>2026-05-02T16:52:53.999Z</time></trkpt><trkpt lat="44.17350908921031" lon="9.611620088691144"><ele>41.5</ele><time>2026-05-02T16:52:54.999Z</time></trkpt><trkpt lat="44.173562178783946" lon="9.61170936324882"><ele>39.0</ele><time>2026-05-02T16:52:55.999Z</time></trkpt><trkpt lat="44.173619236021935" lon="9.611784634402"><ele>36.5</ele><time>2026-05-02T16:52:56.999Z</time></trkpt><trkpt lat="44.17366513130208" lon="9.61186040229856"><ele>34.0</ele><time>2026-05-02T16:52:57.999Z</time></trkpt><trkpt lat="44.173712099006266" lon="9.611953977052284"><ele>34.0</ele><time>2026-05-02T16:52:59.999Z</time></trkpt><trkpt lat="44.17367911392548" lon="9.612060266255435"><ele>34.0</ele><time>2026-05-02T16:53:02.999Z</time></trkpt><trkpt lat="44.17359795791022" lon="9.61201776112122"><ele>34.0</ele><time>2026-05-02T16:53:03.999Z</time></trkpt><trkpt lat="44.17354667950118" lon="9.611885231447902"><ele>34.0</ele><time>2026-05-02T16:53:04.999Z</time></trkpt><trkpt lat="44.173476085631584" lon="9.611785710984716"><ele>34.0</ele><time>2026-05-02T16:53:05.999Z</time></trkpt><trkpt lat="44.17339959675639" lon="9.611702606936763"><ele>34.0</ele><time>2026-05-02T16:53:06.999Z</time></trkpt><trkpt lat="44.17333094564482" lon="9.611606356541524"><ele>34.0</ele><time>2026-05-02T16:53:07.999Z</time></trkpt><trkpt lat="44.17325824679753" lon="9.61150668266091"><ele>34.0</ele><time>2026-05-02T16:53:08.999Z</time></trkpt><trkpt lat="44.17318473709903" lon="9.611398964124376"><ele>34.0</ele><time>2026-05-02T16:53:09.999Z</time></trkpt><trkpt lat="44.173094142765464" lon="9.611303360300424"><ele>34.0</ele><time>2026-05-02T16:53:10.999Z</time></trkpt><trkpt lat="44.17302585071658" lon="9.611204189977101"><ele>30.8</ele><time>2026-05-02T16:53:11.999Z</time></trkpt><trkpt lat="44.17297260400628" lon="9.61111251486541"><ele>27.599999999999998</ele><time>2026-05-02T16:53:12.999Z</time></trkpt><trkpt lat="44.1729244144879" lon="9.611034505584309"><ele>24.4</ele><time>2026-05-02T16:53:13.999Z</time></trkpt><trkpt lat="44.17284910509254" lon="9.61092404002158"><ele>21.2</ele><time>2026-05-02T16:53:15.999Z</time></trkpt><trkpt lat="44.17277370866344" lon="9.610921435807548"><ele>18.0</ele><time>2026-05-02T16:53:17.999Z</time></trkpt><trkpt lat="44.172724048700246" lon="9.611072587179272"><ele>17.4</ele><time>2026-05-02T16:53:19.999Z</time></trkpt><trkpt lat="44.172802062489836" lon="9.611164585977448"><ele>16.8</ele><time>2026-05-02T16:53:20.999Z</time></trkpt><trkpt lat="44.17283366174541" lon="9.611256527766331"><ele>16.2</ele><time>2026-05-02T16:53:21.999Z</time></trkpt><trkpt lat="44.17288553933661" lon="9.611355661763527"><ele>15.6</ele><time>2026-05-02T16:53:22.998Z</time></trkpt><trkpt lat="44.17294613514719" lon="9.61147033024773"><ele>15.0</ele><time>2026-05-02T16:53:23.998Z</time></trkpt><trkpt lat="44.173009608294" lon="9.611590443665609"><ele>15.0</ele><time>2026-05-02T16:53:24.998Z</time></trkpt><trkpt lat="44.1730622102691" lon="9.611689985026963"><ele>15.0</ele><time>2026-05-02T16:53:25.998Z</time></trkpt><trkpt lat="44.173124541659895" lon="9.611774130301903"><ele>15.0</ele><time>2026-05-02T16:53:26.998Z</time></trkpt><trkpt lat="44.17316990308894" lon="9.611879734004846"><ele>15.0</ele><time>2026-05-02T16:53:27.998Z</time></trkpt><trkpt lat="44.17322262623783" lon="9.611978650658301"><ele>15.0</ele><time>2026-05-02T16:53:28.998Z</time></trkpt><trkpt lat="44.173273724915006" lon="9.61207854111753"><ele>15.0</ele><time>2026-05-02T16:53:29.998Z</time></trkpt><trkpt lat="44.1733028513313" lon="9.612158576764369"><ele>14.5</ele><time>2026-05-02T16:53:30.998Z</time></trkpt><trkpt lat="44.17335065314041" lon="9.612254160690064"><ele>14.0</ele><time>2026-05-02T16:53:32.998Z</time></trkpt><trkpt lat="44.173318662269594" lon="9.612337216932028"><ele>13.5</ele><time>2026-05-02T16:53:35.998Z</time></trkpt><trkpt lat="44.17324998870491" lon="9.612329059435735"><ele>13.0</ele><time>2026-05-02T16:53:36.998Z</time></trkpt><trkpt lat="44.173189301821395" lon="9.612190999234228"><ele>12.5</ele><time>2026-05-02T16:53:37.998Z</time></trkpt><trkpt lat="44.173119827942216" lon="9.612121011816365"><ele>12.0</ele><time>2026-05-02T16:53:38.998Z</time></trkpt><trkpt lat="44.17306891165745" lon="9.612024352370504"><ele>12.5</ele><time>2026-05-02T16:53:39.998Z</time></trkpt><trkpt lat="44.172993569617034" lon="9.611977087955076"><ele>13.0</ele><time>2026-05-02T16:53:40.998Z</time></trkpt><trkpt lat="44.1729449325133" lon="9.61189221700347"><ele>13.5</ele><time>2026-05-02T16:53:41.998Z</time></trkpt><trkpt lat="44.17289049124666" lon="9.611813522479595"><ele>14.0</ele><time>2026-05-02T16:53:42.998Z</time></trkpt><trkpt lat="44.172822564632085" lon="9.611725880011464"><ele>14.5</ele><time>2026-05-02T16:53:43.998Z</time></trkpt><trkpt lat="44.17275327450747" lon="9.611639216679183"><ele>15.0</ele><time>2026-05-02T16:53:44.998Z</time></trkpt><trkpt lat="44.17268517295891" lon="9.611546398822652"><ele>15.0</ele><time>2026-05-02T16:53:45.998Z</time></trkpt><trkpt lat="44.172619620275704" lon="9.611460841519397"><ele>15.0</ele><time>2026-05-02T16:53:46.998Z</time></trkpt><trkpt lat="44.17255735607331" lon="9.611378272848585"><ele>15.0</ele><time>2026-05-02T16:53:48Z</time></trkpt><trkpt lat="44.17249680411873" lon="9.611300214796904"><ele>15.0</ele><time>2026-05-02T16:53:49Z</time></trkpt><trkpt lat="44.172437626005184" lon="9.611222459671884"><ele>15.0</ele><time>2026-05-02T16:53:50Z</time></trkpt><trkpt lat="44.17238186898375" lon="9.611130601189366"><ele>15.0</ele><time>2026-05-02T16:53:51Z</time></trkpt><trkpt lat="44.172350424912345" lon="9.611035280245448"><ele>15.6</ele><time>2026-05-02T16:53:52Z</time></trkpt><trkpt lat="44.17233021854718" lon="9.610900634208972"><ele>16.2</ele><time>2026-05-02T16:53:54Z</time></trkpt><trkpt lat="44.172319313444746" lon="9.610786759488056"><ele>16.8</ele><time>2026-05-02T16:53:56Z</time></trkpt><trkpt lat="44.172363988189055" lon="9.610640885861207"><ele>17.4</ele><time>2026-05-02T16:53:58Z</time></trkpt><trkpt lat="44.172417373547226" lon="9.610544510355101"><ele>18.0</ele><time>2026-05-02T16:53:59Z</time></trkpt><trkpt lat="44.172453387488645" lon="9.610412887639885"><ele>18.333333333333332</ele><time>2026-05-02T16:54:00Z</time></trkpt><trkpt lat="44.17247599955685" lon="9.610256620583225"><ele>18.666666666666668</ele><time>2026-05-02T16:54:01Z</time></trkpt><trkpt lat="44.172487781089615" lon="9.610128637231306"><ele>19.0</ele><time>2026-05-02T16:54:02Z</time></trkpt><trkpt lat="44.17250510588531" lon="9.610025817343871"><ele>19.333333333333336</ele><time>2026-05-02T16:54:03Z</time></trkpt><trkpt lat="44.17251181263972" lon="9.609922803954499"><ele>19.666666666666668</ele><time>2026-05-02T16:54:04Z</time></trkpt><trkpt lat="44.17252182123446" lon="9.609814599928049"><ele>20.0</ele><time>2026-05-02T16:54:05Z</time></trkpt><trkpt lat="44.17252008817423" lon="9.609703845479956"><ele>20.0</ele><time>2026-05-02T16:54:06Z</time></trkpt><trkpt lat="44.17250380311284" lon="9.60959214128483"><ele>20.0</ele><time>2026-05-02T16:54:07Z</time></trkpt><trkpt lat="44.17248116853404" lon="9.609485250639072"><ele>20.0</ele><time>2026-05-02T16:54:08Z</time></trkpt><trkpt lat="44.172458901808156" lon="9.609375566478136"><ele>20.0</ele><time>2026-05-02T16:54:09Z</time></trkpt><trkpt lat="44.172446410595185" lon="9.60925774623689"><ele>20.0</ele><time>2026-05-02T16:54:10Z</time></trkpt><trkpt lat="44.17242306451951" lon="9.60915712259654"><ele>20.0</ele><time>2026-05-02T16:54:11Z</time></trkpt><trkpt lat="44.17238981303548" lon="9.60907066262531"><ele>18.0</ele><time>2026-05-02T16:54:12Z</time></trkpt><trkpt lat="44.172340787096125" lon="9.608992340809326"><ele>16.0</ele><time>2026-05-02T16:54:13Z</time></trkpt><trkpt lat="44.17228345223407" lon="9.60892004053458"><ele>14.0</ele><time>2026-05-02T16:54:14Z</time></trkpt><trkpt lat="44.172221478540436" lon="9.608830379909863"><ele>12.0</ele><time>2026-05-02T16:54:15Z</time></trkpt><trkpt lat="44.172158528375554" lon="9.608752803798957"><ele>10.0</ele><time>2026-05-02T16:54:16Z</time></trkpt><trkpt lat="44.17209556546204" lon="9.608682019957225"><ele>8.0</ele><time>2026-05-02T16:54:17Z</time></trkpt><trkpt lat="44.172031201413525" lon="9.60863041788066"><ele>7.999999999999999</ele><time>2026-05-02T16:54:18Z</time></trkpt><trkpt lat="44.171955070431245" lon="9.608583713475012"><ele>8.0</ele><time>2026-05-02T16:54:19Z</time></trkpt><trkpt lat="44.171887755224326" lon="9.608559924597312"><ele>8.0</ele><time>2026-05-02T16:54:20Z</time></trkpt><trkpt lat="44.171804111627694" lon="9.608554309794377"><ele>8.0</ele><time>2026-05-02T16:54:21Z</time></trkpt><trkpt lat="44.17172004564981" lon="9.608569143974856"><ele>7.999999999999999</ele><time>2026-05-02T16:54:22Z</time></trkpt><trkpt lat="44.17164606296495" lon="9.608607910627624"><ele>8.0</ele><time>2026-05-02T16:54:23Z</time></trkpt><trkpt lat="44.17157132817327" lon="9.608644420841795"><ele>7.833333333333333</ele><time>2026-05-02T16:54:24Z</time></trkpt><trkpt lat="44.17148781420738" lon="9.608693766940442"><ele>7.666666666666666</ele><time>2026-05-02T16:54:25Z</time></trkpt><trkpt lat="44.17140018133276" lon="9.608745950018394"><ele>7.5</ele><time>2026-05-02T16:54:26Z</time></trkpt><trkpt lat="44.17132123201096" lon="9.60879459511774"><ele>7.333333333333334</ele><time>2026-05-02T16:54:27Z</time></trkpt><trkpt lat="44.171252759148416" lon="9.608837027298906"><ele>7.166666666666667</ele><time>2026-05-02T16:54:28Z</time></trkpt><trkpt lat="44.171188226364585" lon="9.60887707875423"><ele>7.0</ele><time>2026-05-02T16:54:29Z</time></trkpt><trkpt lat="44.171125359758015" lon="9.60891633707098"><ele>7.0</ele><time>2026-05-02T16:54:30Z</time></trkpt><trkpt lat="44.17102179177024" lon="9.608981232646313"><ele>6.999999999999999</ele><time>2026-05-02T16:54:32Z</time></trkpt><trkpt lat="44.1709648640327" lon="9.609042797778285"><ele>6.999999999999999</ele><time>2026-05-02T16:54:33.999Z</time></trkpt><trkpt lat="44.170899267667515" lon="9.6090808908908"><ele>7.0</ele><time>2026-05-02T16:54:36.999Z</time></trkpt><trkpt lat="44.17088237979622" lon="9.609307583752448"><ele>7.0</ele><time>2026-05-02T16:55:05.999Z</time></trkpt><trkpt lat="44.17091594735055" lon="9.60945837141909"><ele>6.8</ele><time>2026-05-02T16:55:07.999Z</time></trkpt><trkpt lat="44.17093464057737" lon="9.60954234258441"><ele>6.6</ele><time>2026-05-02T16:55:08.999Z</time></trkpt><trkpt lat="44.17097018950893" lon="9.609702386100516"><ele>6.3999999999999995</ele><time>2026-05-02T16:55:10.999Z</time></trkpt><trkpt lat="44.17100271093049" lon="9.609855108844654"><ele>6.199999999999999</ele><time>2026-05-02T16:55:12.999Z</time></trkpt><trkpt lat="44.17101939765295" lon="9.609993687302786"><ele>6.0</ele><time>2026-05-02T16:55:14.999Z</time></trkpt><trkpt lat="44.17105200957711" lon="9.610100241368894"><ele>6.0</ele><time>2026-05-02T16:55:16.999Z</time></trkpt><trkpt lat="44.17108040882278" lon="9.610233450685723"><ele>6.0</ele><time>2026-05-02T16:55:18.999Z</time></trkpt><trkpt lat="44.17112435840537" lon="9.610341959147972"><ele>6.0</ele><time>2026-05-02T16:55:20.999Z</time></trkpt><trkpt lat="44.171127059220744" lon="9.610431963279355"><ele>6.0</ele><time>2026-05-02T16:55:21.999Z</time></trkpt><trkpt lat="44.17114843963436" lon="9.61057719474999"><ele>6.0</ele><time>2026-05-02T16:55:23.999Z</time></trkpt><trkpt lat="44.17116987588705" lon="9.610698472723934"><ele>6.199999999999999</ele><time>2026-05-02T16:55:25.999Z</time></trkpt><trkpt lat="44.17122501089821" lon="9.610836141878584"><ele>6.3999999999999995</ele><time>2026-05-02T16:55:27.999Z</time></trkpt><trkpt lat="44.17124855408127" lon="9.61092426852972"><ele>6.6</ele><time>2026-05-02T16:55:28.999Z</time></trkpt><trkpt lat="44.17127546619981" lon="9.611059561744007"><ele>6.8</ele><time>2026-05-02T16:55:30.999Z</time></trkpt><trkpt lat="44.171293616783025" lon="9.611216868495445"><ele>7.0</ele><time>2026-05-02T16:55:32.999Z</time></trkpt><trkpt lat="44.171301390986045" lon="9.611307423468636"><ele>7.0</ele><time>2026-05-02T16:55:33.998Z</time></trkpt><trkpt lat="44.17132490905778" lon="9.611419240970152"><ele>6.999999999999999</ele><time>2026-05-02T16:55:34.998Z</time></trkpt><trkpt lat="44.17134627756765" lon="9.611543830882393"><ele>6.999999999999999</ele><time>2026-05-02T16:55:35.998Z</time></trkpt><trkpt lat="44.17136156327282" lon="9.611699215805931"><ele>7.0</ele><time>2026-05-02T16:55:36.998Z</time></trkpt><trkpt lat="44.171402639528004" lon="9.611792489409002"><ele>7.0</ele><time>2026-05-02T16:55:37.998Z</time></trkpt><trkpt lat="44.17143443832614" lon="9.61190068465276"><ele>7.000000000000001</ele><time>2026-05-02T16:55:38.998Z</time></trkpt><trkpt lat="44.171477066843515" lon="9.612048805669618"><ele>7.0</ele><time>2026-05-02T16:55:40.998Z</time></trkpt><trkpt lat="44.17150936930161" lon="9.612176275815443"><ele>7.0</ele><time>2026-05-02T16:55:42.998Z</time></trkpt><trkpt lat="44.17151020053203" lon="9.61227566366985"><ele>7.0</ele><time>2026-05-02T16:55:44.998Z</time></trkpt><trkpt lat="44.17154756952453" lon="9.612358038309761"><ele>7.000000000000001</ele><time>2026-05-02T16:55:47.998Z</time></trkpt><trkpt lat="44.171560080698086" lon="9.612453910709707"><ele>7.0</ele><time>2026-05-02T16:55:49.998Z</time></trkpt><trkpt lat="44.171594802692205" lon="9.612610798812117"><ele>7.0</ele><time>2026-05-02T16:55:51.998Z</time></trkpt><trkpt lat="44.17160493615506" lon="9.6127026143474"><ele>6.999999999999999</ele><time>2026-05-02T16:55:52.998Z</time></trkpt><trkpt lat="44.17163532072868" lon="9.61285363679733"><ele>6.999999999999999</ele><time>2026-05-02T16:55:55Z</time></trkpt><trkpt lat="44.17166982514368" lon="9.612994707941532"><ele>7.0</ele><time>2026-05-02T16:55:57Z</time></trkpt><trkpt lat="44.17171225894136" lon="9.613134438503279"><ele>7.0</ele><time>2026-05-02T16:55:59Z</time></trkpt><trkpt lat="44.17174284538407" lon="9.61324238818854"><ele>7.000000000000001</ele><time>2026-05-02T16:56:01Z</time></trkpt><trkpt lat="44.1717532341866" lon="9.613355677801492"><ele>7.0</ele><time>2026-05-02T16:56:03Z</time></trkpt><trkpt lat="44.171776456492054" lon="9.613465341399655"><ele>7.0</ele><time>2026-05-02T16:56:05Z</time></trkpt><trkpt lat="44.17180119283157" lon="9.613581571257411"><ele>7.0</ele><time>2026-05-02T16:56:07Z</time></trkpt><trkpt lat="44.171827421131326" lon="9.613704811429553"><ele>7.000000000000001</ele><time>2026-05-02T16:56:09Z</time></trkpt><trkpt lat="44.171858113664065" lon="9.613782554833241"><ele>7.0</ele><time>2026-05-02T16:56:17Z</time></trkpt><trkpt lat="44.171861610179086" lon="9.61387275190153"><ele>7.0</ele><time>2026-05-02T16:56:29Z</time></trkpt><trkpt lat="44.171888836885564" lon="9.613963439678187"><ele>6.999999999999999</ele><time>2026-05-02T16:56:31Z</time></trkpt><trkpt lat="44.17191371196334" lon="9.6140640664737"><ele>6.999999999999999</ele><time>2026-05-02T16:56:33Z</time></trkpt><trkpt lat="44.171920583438315" lon="9.614183761434932"><ele>7.0</ele><time>2026-05-02T16:56:35Z</time></trkpt><trkpt lat="44.17184668004388" lon="9.61437461828554"><ele>7.0</ele><time>2026-05-02T16:56:36.999Z</time></trkpt><trkpt lat="44.17177158422045" lon="9.614462031249124"><ele>7.0</ele><time>2026-05-02T16:56:37.999Z</time></trkpt><trkpt lat="44.17167466122087" lon="9.614525310433917"><ele>7.0</ele><time>2026-05-02T16:56:38.999Z</time></trkpt><trkpt lat="44.17156574443334" lon="9.614612093605041"><ele>7.0</ele><time>2026-05-02T16:56:39.999Z</time></trkpt><trkpt lat="44.171452106718384" lon="9.614710218358251"><ele>7.0</ele><time>2026-05-02T16:56:40.999Z</time></trkpt><trkpt lat="44.1713352413774" lon="9.614807138431836"><ele>7.25</ele><time>2026-05-02T16:56:41.999Z</time></trkpt><trkpt lat="44.1712136708873" lon="9.614903958041737"><ele>7.5</ele><time>2026-05-02T16:56:42.999Z</time></trkpt><trkpt lat="44.17109389090236" lon="9.6149956775009"><ele>7.75</ele><time>2026-05-02T16:56:43.999Z</time></trkpt><trkpt lat="44.17097085614731" lon="9.615089479118026"><ele>8.0</ele><time>2026-05-02T16:56:44.999Z</time></trkpt><trkpt lat="44.17084621848018" lon="9.615196266762212"><ele>8.0</ele><time>2026-05-02T16:56:45.999Z</time></trkpt><trkpt lat="44.17072252096357" lon="9.615301173961003"><ele>8.0</ele><time>2026-05-02T16:56:46.999Z</time></trkpt><trkpt lat="44.17060197992922" lon="9.61540576971911"><ele>8.0</ele><time>2026-05-02T16:56:47.999Z</time></trkpt><trkpt lat="44.17049718110799" lon="9.615495448204207"><ele>8.0</ele><time>2026-05-02T16:56:48.999Z</time></trkpt><trkpt lat="44.170408900981265" lon="9.61556892195784"><ele>9.600000000000001</ele><time>2026-05-02T16:56:49.999Z</time></trkpt><trkpt lat="44.170343678824764" lon="9.615628840205671"><ele>11.200000000000001</ele><time>2026-05-02T16:56:50.999Z</time></trkpt><trkpt lat="44.17025152060775" lon="9.615704186363176"><ele>12.8</ele><time>2026-05-02T16:56:52.999Z</time></trkpt><trkpt lat="44.170194968514814" lon="9.615821235560945"><ele>14.4</ele><time>2026-05-02T16:56:55.999Z</time></trkpt><trkpt lat="44.17024054897742" lon="9.615934501718733"><ele>16.0</ele><time>2026-05-02T16:56:56.999Z</time></trkpt><trkpt lat="44.17028537040518" lon="9.616023850851587"><ele>16.0</ele><time>2026-05-02T16:56:57.999Z</time></trkpt><trkpt lat="44.17032264240802" lon="9.616103288109729"><ele>16.0</ele><time>2026-05-02T16:56:58.999Z</time></trkpt><trkpt lat="44.17037464085647" lon="9.616168766916605"><ele>16.0</ele><time>2026-05-02T16:56:59.999Z</time></trkpt><trkpt lat="44.17047050614392" lon="9.616261688451788"><ele>16.0</ele><time>2026-05-02T16:57:01.999Z</time></trkpt><trkpt lat="44.17057493826803" lon="9.616309991932102"><ele>16.0</ele><time>2026-05-02T16:57:03.999Z</time></trkpt><trkpt lat="44.170713654985846" lon="9.616367972887966"><ele>15.5</ele><time>2026-05-02T16:57:05.999Z</time></trkpt><trkpt lat="44.17080698313248" lon="9.616417849662094"><ele>15.0</ele><time>2026-05-02T16:57:06.999Z</time></trkpt><trkpt lat="44.17092704357444" lon="9.616434807112784"><ele>14.5</ele><time>2026-05-02T16:57:07.999Z</time></trkpt><trkpt lat="44.17104177429619" lon="9.616480228210786"><ele>14.0</ele><time>2026-05-02T16:57:08.999Z</time></trkpt><trkpt lat="44.17117650459636" lon="9.616511869901123"><ele>14.0</ele><time>2026-05-02T16:57:09.999Z</time></trkpt><trkpt lat="44.171310348183034" lon="9.616557091374089"><ele>14.0</ele><time>2026-05-02T16:57:10.999Z</time></trkpt><trkpt lat="44.171446560020804" lon="9.616598396003361"><ele>14.0</ele><time>2026-05-02T16:57:11.999Z</time></trkpt><trkpt lat="44.17158216338839" lon="9.616646353139554"><ele>14.0</ele><time>2026-05-02T16:57:12.999Z</time></trkpt><trkpt lat="44.171722877242274" lon="9.616700625666573"><ele>14.75</ele><time>2026-05-02T16:57:13.999Z</time></trkpt><trkpt lat="44.17186905387207" lon="9.616763494867028"><ele>15.5</ele><time>2026-05-02T16:57:14.999Z</time></trkpt><trkpt lat="44.172015408702315" lon="9.616806618317357"><ele>16.25</ele><time>2026-05-02T16:57:15.999Z</time></trkpt><trkpt lat="44.17215409414012" lon="9.616844031144682"><ele>17.0</ele><time>2026-05-02T16:57:16.999Z</time></trkpt><trkpt lat="44.172279536282076" lon="9.616899446168908"><ele>18.166666666666668</ele><time>2026-05-02T16:57:17.999Z</time></trkpt><trkpt lat="44.17237113609094" lon="9.616933116960158"><ele>19.333333333333336</ele><time>2026-05-02T16:57:18.999Z</time></trkpt><trkpt lat="44.17245017982228" lon="9.617014923346993"><ele>20.5</ele><time>2026-05-02T16:57:19.999Z</time></trkpt><trkpt lat="44.172521221639656" lon="9.617098462309826"><ele>21.666666666666668</ele><time>2026-05-02T16:57:20.999Z</time></trkpt><trkpt lat="44.172563862067264" lon="9.617197878320404"><ele>22.833333333333332</ele><time>2026-05-02T16:57:21.999Z</time></trkpt><trkpt lat="44.17261774939227" lon="9.617270127445874"><ele>24.0</ele><time>2026-05-02T16:57:22.999Z</time></trkpt><trkpt lat="44.17267331642773" lon="9.617348103444641"><ele>23.999999999999996</ele><time>2026-05-02T16:57:23.999Z</time></trkpt><trkpt lat="44.17271554030179" lon="9.617436654066534"><ele>24.0</ele><time>2026-05-02T16:57:24.999Z</time></trkpt><trkpt lat="44.17275138056254" lon="9.617523518303134"><ele>24.0</ele><time>2026-05-02T16:57:25.999Z</time></trkpt><trkpt lat="44.17279258832485" lon="9.617609210285371"><ele>24.0</ele><time>2026-05-02T16:57:26.999Z</time></trkpt><trkpt lat="44.17283740743371" lon="9.617686742397337"><ele>24.0</ele><time>2026-05-02T16:57:27.999Z</time></trkpt><trkpt lat="44.17288269317582" lon="9.617750001366595"><ele>23.999999999999996</ele><time>2026-05-02T16:57:28.999Z</time></trkpt><trkpt lat="44.17292373630994" lon="9.617824206196282"><ele>24.0</ele><time>2026-05-02T16:57:29.999Z</time></trkpt><trkpt lat="44.17298325358529" lon="9.617881725909754"><ele>22.285714285714285</ele><time>2026-05-02T16:57:30.999Z</time></trkpt><trkpt lat="44.17302287279129" lon="9.617958088914401"><ele>20.57142857142857</ele><time>2026-05-02T16:57:31.999Z</time></trkpt><trkpt lat="44.17307195780402" lon="9.618027922848897"><ele>18.857142857142854</ele><time>2026-05-02T16:57:32.999Z</time></trkpt><trkpt lat="44.17312037572797" lon="9.618097402332774"><ele>17.142857142857142</ele><time>2026-05-02T16:57:33.999Z</time></trkpt><trkpt lat="44.173181534268515" lon="9.618159145532028"><ele>15.428571428571427</ele><time>2026-05-02T16:57:34.999Z</time></trkpt><trkpt lat="44.17322287559077" lon="9.61824012285273"><ele>13.714285714285714</ele><time>2026-05-02T16:57:35.999Z</time></trkpt><trkpt lat="44.173257909247084" lon="9.618323264948"><ele>12.0</ele><time>2026-05-02T16:57:36.998Z</time></trkpt><trkpt lat="44.173304883707075" lon="9.618391193376699"><ele>12.0</ele><time>2026-05-02T16:57:39.998Z</time></trkpt><trkpt lat="44.173380720060884" lon="9.618238764031348"><ele>12.0</ele><time>2026-05-02T16:57:41.998Z</time></trkpt><trkpt lat="44.17333238475046" lon="9.618160469759944"><ele>12.0</ele><time>2026-05-02T16:57:42.998Z</time></trkpt><trkpt lat="44.173298069823495" lon="9.618074758722912"><ele>12.0</ele><time>2026-05-02T16:57:43.998Z</time></trkpt><trkpt lat="44.1732554352356" lon="9.617975296876708"><ele>12.0</ele><time>2026-05-02T16:57:44.998Z</time></trkpt><trkpt lat="44.17320810265947" lon="9.617867651525403"><ele>14.399999999999999</ele><time>2026-05-02T16:57:45.998Z</time></trkpt><trkpt lat="44.173162522451406" lon="9.617763680891422"><ele>16.799999999999997</ele><time>2026-05-02T16:57:46.998Z</time></trkpt><trkpt lat="44.17311098182921" lon="9.617594661880911"><ele>19.2</ele><time>2026-05-02T16:57:48.998Z</time></trkpt><trkpt lat="44.173089085070465" lon="9.61749415730609"><ele>21.599999999999998</ele><time>2026-05-02T16:57:49.998Z</time></trkpt><trkpt lat="44.17304897741361" lon="9.617324648986385"><ele>24.0</ele><time>2026-05-02T16:57:51.998Z</time></trkpt><trkpt lat="44.172999073153136" lon="9.617253780871048"><ele>24.0</ele><time>2026-05-02T16:57:55.998Z</time></trkpt><trkpt lat="44.17296008314919" lon="9.617156006312857"><ele>24.0</ele><time>2026-05-02T16:57:58.998Z</time></trkpt><trkpt lat="44.17291668406514" lon="9.617085643290915"><ele>24.0</ele><time>2026-05-02T16:58:03Z</time></trkpt><trkpt lat="44.1728730306001" lon="9.617014867940364"><ele>24.0</ele><time>2026-05-02T16:58:07Z</time></trkpt><trkpt lat="44.17282888632207" lon="9.616940583910893"><ele>24.0</ele><time>2026-05-02T16:58:10Z</time></trkpt><trkpt lat="44.17276415006784" lon="9.616862094127583"><ele>24.0</ele><time>2026-05-02T16:58:12Z</time></trkpt><trkpt lat="44.17271177374258" lon="9.616743223292396"><ele>21.0</ele><time>2026-05-02T16:58:14Z</time></trkpt><trkpt lat="44.1726407539547" lon="9.616601951736166"><ele>18.0</ele><time>2026-05-02T16:58:16Z</time></trkpt><trkpt lat="44.17256068688542" lon="9.61648993621582"><ele>15.0</ele><time>2026-05-02T16:58:18Z</time></trkpt><trkpt lat="44.17250267574891" lon="9.616392136250623"><ele>12.0</ele><time>2026-05-02T16:58:20Z</time></trkpt><trkpt lat="44.17243924312322" lon="9.616302681029378"><ele>9.0</ele><time>2026-05-02T16:58:22Z</time></trkpt><trkpt lat="44.17240857711613" lon="9.616211795197449"><ele>8.666666666666666</ele><time>2026-05-02T16:58:23Z</time></trkpt><trkpt lat="44.17235202766345" lon="9.616123416264907"><ele>8.333333333333334</ele><time>2026-05-02T16:58:24Z</time></trkpt><trkpt lat="44.1722982755814" lon="9.616035039025142"><ele>8.0</ele><time>2026-05-02T16:58:25Z</time></trkpt><trkpt lat="44.17224932200604" lon="9.61594723155532"><ele>7.666666666666667</ele><time>2026-05-02T16:58:26Z</time></trkpt><trkpt lat="44.172242054331186" lon="9.615831012356157"><ele>7.333333333333334</ele><time>2026-05-02T16:58:27Z</time></trkpt><trkpt lat="44.172204300090534" lon="9.615746025732053"><ele>7.0</ele><time>2026-05-02T16:58:28Z</time></trkpt><trkpt lat="44.17216699092442" lon="9.615660396353187"><ele>7.000000000000001</ele><time>2026-05-02T16:58:29Z</time></trkpt><trkpt lat="44.17213154782051" lon="9.615570582557405"><ele>7.0</ele><time>2026-05-02T16:58:30Z</time></trkpt><trkpt lat="44.17210161554213" lon="9.615491145430786"><ele>7.0</ele><time>2026-05-02T16:58:31Z</time></trkpt><trkpt lat="44.172048336322014" lon="9.615349070465111"><ele>7.0</ele><time>2026-05-02T16:58:33Z</time></trkpt><trkpt lat="44.171995733912965" lon="9.615234826367898"><ele>7.000000000000001</ele><time>2026-05-02T16:58:35Z</time></trkpt><trkpt lat="44.17193873376415" lon="9.615158458801043"><ele>7.0</ele><time>2026-05-02T16:58:37Z</time></trkpt><trkpt lat="44.17189327849825" lon="9.615069142684357"><ele>7.000000000000001</ele><time>2026-05-02T16:58:39Z</time></trkpt><trkpt lat="44.171857097321926" lon="9.614944713426576"><ele>7.0</ele><time>2026-05-02T16:58:41Z</time></trkpt><trkpt lat="44.17180178104383" lon="9.614859002085673"><ele>7.0</ele><time>2026-05-02T16:58:42.999Z</time></trkpt><trkpt lat="44.17176473535645" lon="9.614767576372925"><ele>7.0</ele><time>2026-05-02T16:58:44.999Z</time></trkpt><trkpt lat="44.17177511415395" lon="9.61466343239626"><ele>7.000000000000001</ele><time>2026-05-02T16:58:46.999Z</time></trkpt><trkpt lat="44.171784476023525" lon="9.614543011827257"><ele>7.0</ele><time>2026-05-02T16:58:52.999Z</time></trkpt><trkpt lat="44.17186601228069" lon="9.614462349860565"><ele>7.0</ele><time>2026-05-02T16:58:54.999Z</time></trkpt><trkpt lat="44.17193620845918" lon="9.614406173563726"><ele>6.999999999999999</ele><time>2026-05-02T16:58:56.999Z</time></trkpt><trkpt lat="44.172005608481726" lon="9.61434981578256"><ele>6.999999999999999</ele><time>2026-05-02T16:58:58.999Z</time></trkpt><trkpt lat="44.171969813433215" lon="9.614177645860218"><ele>7.0</ele><time>2026-05-02T16:59:03.999Z</time></trkpt><trkpt lat="44.171919742740435" lon="9.614041699580895"><ele>7.0</ele><time>2026-05-02T16:59:05.999Z</time></trkpt><trkpt lat="44.17189042416381" lon="9.613903155495175"><ele>7.000000000000001</ele><time>2026-05-02T16:59:07.999Z</time></trkpt><trkpt lat="44.17186341350756" lon="9.613766396157953"><ele>7.0</ele><time>2026-05-02T16:59:09.999Z</time></trkpt><trkpt lat="44.17184894498918" lon="9.613664716061447"><ele>7.0</ele><time>2026-05-02T16:59:11.999Z</time></trkpt><trkpt lat="44.17182317341536" lon="9.613555690373255"><ele>7.0</ele><time>2026-05-02T16:59:14.999Z</time></trkpt><trkpt lat="44.17179638049101" lon="9.613449430067929"><ele>7.000000000000001</ele><time>2026-05-02T16:59:17.999Z</time></trkpt><trkpt lat="44.17179586141567" lon="9.613343298264079"><ele>7.0</ele><time>2026-05-02T16:59:19.999Z</time></trkpt><trkpt lat="44.171774383058136" lon="9.613236340892879"><ele>7.000000000000001</ele><time>2026-05-02T16:59:21.999Z</time></trkpt><trkpt lat="44.17173848716898" lon="9.613145445807218"><ele>7.0</ele><time>2026-05-02T16:59:23.999Z</time></trkpt><trkpt lat="44.17171765268542" lon="9.613035950582065"><ele>7.0</ele><time>2026-05-02T16:59:25.999Z</time></trkpt><trkpt lat="44.17169542905556" lon="9.612911970088255"><ele>7.0</ele><time>2026-05-02T16:59:27.999Z</time></trkpt><trkpt lat="44.171675880662605" lon="9.612803540426858"><ele>7.000000000000001</ele><time>2026-05-02T16:59:29.999Z</time></trkpt><trkpt lat="44.17165257332497" lon="9.612683636048176"><ele>7.0</ele><time>2026-05-02T16:59:31.999Z</time></trkpt><trkpt lat="44.17161631920873" lon="9.612602245837277"><ele>7.0</ele><time>2026-05-02T16:59:32.999Z</time></trkpt><trkpt lat="44.171578939582496" lon="9.61246037426163"><ele>6.999999999999999</ele><time>2026-05-02T16:59:34.999Z</time></trkpt><trkpt lat="44.17156405897743" lon="9.612310318922235"><ele>6.999999999999999</ele><time>2026-05-02T16:59:36.999Z</time></trkpt><trkpt lat="44.17153320573813" lon="9.612166319388338"><ele>7.0</ele><time>2026-05-02T16:59:38.999Z</time></trkpt><trkpt lat="44.17149978013291" lon="9.612010527284125"><ele>7.0</ele><time>2026-05-02T16:59:40.999Z</time></trkpt><trkpt lat="44.17147743877805" lon="9.611906349985334"><ele>7.000000000000001</ele><time>2026-05-02T16:59:41.999Z</time></trkpt><trkpt lat="44.17145506195231" lon="9.61180200873492"><ele>7.0</ele><time>2026-05-02T16:59:42.998Z</time></trkpt><trkpt lat="44.171433648514466" lon="9.611702159006658"><ele>7.0</ele><time>2026-05-02T16:59:43.998Z</time></trkpt><trkpt lat="44.1713921454015" lon="9.611545228730083"><ele>7.0</ele><time>2026-05-02T16:59:44.998Z</time></trkpt><trkpt lat="44.17136615956306" lon="9.611447807931926"><ele>7.000000000000001</ele><time>2026-05-02T16:59:45.998Z</time></trkpt><trkpt lat="44.17134696238566" lon="9.611354366595913"><ele>7.0</ele><time>2026-05-02T16:59:46.998Z</time></trkpt><trkpt lat="44.171333783555916" lon="9.611254054427357"><ele>7.000000000000001</ele><time>2026-05-02T16:59:47.998Z</time></trkpt><trkpt lat="44.17130703657531" lon="9.611165753234367"><ele>7.0</ele><time>2026-05-02T16:59:48.998Z</time></trkpt><trkpt lat="44.17128731678582" lon="9.611081543205989"><ele>7.0</ele><time>2026-05-02T16:59:49.998Z</time></trkpt><trkpt lat="44.171260810983355" lon="9.610932963755538"><ele>7.0</ele><time>2026-05-02T16:59:51.998Z</time></trkpt><trkpt lat="44.17125933995794" lon="9.61081434977549"><ele>7.000000000000001</ele><time>2026-05-02T16:59:53.998Z</time></trkpt><trkpt lat="44.17123410216459" lon="9.610718595912212"><ele>7.0</ele><time>2026-05-02T16:59:55.998Z</time></trkpt><trkpt lat="44.171213192584275" lon="9.610614483209336"><ele>7.000000000000001</ele><time>2026-05-02T16:59:57.998Z</time></trkpt><trkpt lat="44.17118638394902" lon="9.610514475174265"><ele>7.0</ele><time>2026-05-02T16:59:59.998Z</time></trkpt><trkpt lat="44.17114810816241" lon="9.61041840509152"><ele>7.0</ele><time>2026-05-02T17:00:03.998Z</time></trkpt><trkpt lat="44.171136151901344" lon="9.610304352555577"><ele>7.0</ele><time>2026-05-02T17:00:07Z</time></trkpt><trkpt lat="44.1710988859388" lon="9.610196943149614"><ele>7.000000000000001</ele><time>2026-05-02T17:00:10Z</time></trkpt><trkpt lat="44.17108833359436" lon="9.610093126310282"><ele>7.0</ele><time>2026-05-02T17:00:12Z</time></trkpt><trkpt lat="44.17105832984317" lon="9.609971527837098"><ele>7.0</ele><time>2026-05-02T17:00:14Z</time></trkpt><trkpt lat="44.17104038585731" lon="9.609864306474758"><ele>7.0</ele><time>2026-05-02T17:00:17Z</time></trkpt><trkpt lat="44.17101854177629" lon="9.609764379203762"><ele>7.0</ele><time>2026-05-02T17:00:19Z</time></trkpt><trkpt lat="44.17099773550881" lon="9.609669199502058"><ele>7.0</ele><time>2026-05-02T17:00:22Z</time></trkpt><trkpt lat="44.170976171464034" lon="9.609572331099663"><ele>7.0</ele><time>2026-05-02T17:00:26Z</time></trkpt><trkpt lat="44.170940297498305" lon="9.60948627480581"><ele>7.0</ele><time>2026-05-02T17:00:29Z</time></trkpt><trkpt lat="44.170921268941555" lon="9.609378975481794"><ele>7.0</ele><time>2026-05-02T17:00:34Z</time></trkpt><trkpt lat="44.17090640422491" lon="9.609291310638586"><ele>7.000000000000001</ele><time>2026-05-02T17:00:36Z</time></trkpt><trkpt lat="44.17088005894802" lon="9.609165850474477"><ele>7.0</ele><time>2026-05-02T17:00:38Z</time></trkpt><trkpt lat="44.17084365935392" lon="9.609037176623033"><ele>7.0</ele><time>2026-05-02T17:00:40Z</time></trkpt><trkpt lat="44.17081712386635" lon="9.608950886069197"><ele>7.0</ele><time>2026-05-02T17:00:42Z</time></trkpt><trkpt lat="44.17078227707617" lon="9.608849353102578"><ele>7.000000000000001</ele><time>2026-05-02T17:00:45Z</time></trkpt><trkpt lat="44.170766328087986" lon="9.608736367143024"><ele>7.0</ele><time>2026-05-02T17:00:48Z</time></trkpt><trkpt lat="44.17074006543674" lon="9.608630692304404"><ele>7.166666666666667</ele><time>2026-05-02T17:00:49.999Z</time></trkpt><trkpt lat="44.1706761141035" lon="9.60854344614544"><ele>7.333333333333334</ele><time>2026-05-02T17:00:52.999Z</time></trkpt><trkpt lat="44.17060877190378" lon="9.608514998645084"><ele>7.5</ele><time>2026-05-02T17:00:58.999Z</time></trkpt><trkpt lat="44.17051592769964" lon="9.608583564375422"><ele>7.666666666666666</ele><time>2026-05-02T17:01:04.999Z</time></trkpt><trkpt lat="44.170461876015864" lon="9.608662551719771"><ele>7.833333333333333</ele><time>2026-05-02T17:01:08.999Z</time></trkpt><trkpt lat="44.17037598655203" lon="9.60863666101479"><ele>8.0</ele><time>2026-05-02T17:01:11.999Z</time></trkpt><trkpt lat="44.17033648791927" lon="9.608538600039891"><ele>6.75</ele><time>2026-05-02T17:01:13.999Z</time></trkpt><trkpt lat="44.170417562091544" lon="9.608331674809103"><ele>5.5</ele><time>2026-05-02T17:01:16.999Z</time></trkpt><trkpt lat="44.17048931017287" lon="9.60825787388073"><ele>4.25</ele><time>2026-05-02T17:01:17.999Z</time></trkpt><trkpt lat="44.17057796153652" lon="9.608186492317998"><ele>3.0</ele><time>2026-05-02T17:01:18.999Z</time></trkpt><trkpt lat="44.17066872384418" lon="9.608086656843735"><ele>3.25</ele><time>2026-05-02T17:01:19.999Z</time></trkpt><trkpt lat="44.170766642164516" lon="9.607980227733426"><ele>3.5</ele><time>2026-05-02T17:01:20.999Z</time></trkpt><trkpt lat="44.17086431557774" lon="9.607862535399939"><ele>3.75</ele><time>2026-05-02T17:01:21.999Z</time></trkpt><trkpt lat="44.17097560336999" lon="9.60775287619306"><ele>4.0</ele><time>2026-05-02T17:01:22.999Z</time></trkpt><trkpt lat="44.17108745550287" lon="9.607627598430147"><ele>4.0</ele><time>2026-05-02T17:01:23.999Z</time></trkpt><trkpt lat="44.1711970026533" lon="9.607487808999306"><ele>4.0</ele><time>2026-05-02T17:01:24.999Z</time></trkpt><trkpt lat="44.17131581007176" lon="9.607358098142756"><ele>4.0</ele><time>2026-05-02T17:01:25.999Z</time></trkpt><trkpt lat="44.171440801056136" lon="9.60722419627739"><ele>5.0</ele><time>2026-05-02T17:01:26.999Z</time></trkpt><trkpt lat="44.17156033242494" lon="9.607072201877633"><ele>6.0</ele><time>2026-05-02T17:01:27.999Z</time></trkpt><trkpt lat="44.171682249386464" lon="9.606916598687512"><ele>7.0</ele><time>2026-05-02T17:01:28.999Z</time></trkpt><trkpt lat="44.17179760850491" lon="9.606756671189109"><ele>7.0</ele><time>2026-05-02T17:01:29.999Z</time></trkpt><trkpt lat="44.1718980782415" lon="9.606605222628762"><ele>7.0</ele><time>2026-05-02T17:01:30.999Z</time></trkpt><trkpt lat="44.1719897141488" lon="9.606468700477162"><ele>7.0</ele><time>2026-05-02T17:01:31.999Z</time></trkpt><trkpt lat="44.17206947064674" lon="9.606363966854804"><ele>7.0</ele><time>2026-05-02T17:01:32.999Z</time></trkpt><trkpt lat="44.17214090808909" lon="9.606282519188495"><ele>7.000000000000001</ele><time>2026-05-02T17:01:33.999Z</time></trkpt><trkpt lat="44.17218219261833" lon="9.606211304324258"><ele>7.0</ele><time>2026-05-02T17:01:34.999Z</time></trkpt><trkpt lat="44.17224435600087" lon="9.606136925862598"><ele>7.0</ele><time>2026-05-02T17:01:35.999Z</time></trkpt><trkpt lat="44.172292435023934" lon="9.606038194242254"><ele>7.0</ele><time>2026-05-02T17:01:36.999Z</time></trkpt><trkpt lat="44.17233475365139" lon="9.605951666819042"><ele>7.000000000000001</ele><time>2026-05-02T17:01:37.999Z</time></trkpt><trkpt lat="44.17237793437721" lon="9.605863684863763"><ele>7.0</ele><time>2026-05-02T17:01:38.999Z</time></trkpt><trkpt lat="44.172419336401674" lon="9.605774217695496"><ele>7.25</ele><time>2026-05-02T17:01:39.999Z</time></trkpt><trkpt lat="44.17247710095977" lon="9.605666182001015"><ele>7.5</ele><time>2026-05-02T17:01:40.999Z</time></trkpt><trkpt lat="44.172541353177465" lon="9.605538540014145"><ele>7.75</ele><time>2026-05-02T17:01:41.999Z</time></trkpt><trkpt lat="44.17260704096165" lon="9.605377242710132"><ele>8.0</ele><time>2026-05-02T17:01:42.999Z</time></trkpt><trkpt lat="44.17269741561815" lon="9.605193390212245"><ele>8.0</ele><time>2026-05-02T17:01:43.999Z</time></trkpt><trkpt lat="44.172749896995825" lon="9.60497275486369"><ele>8.0</ele><time>2026-05-02T17:01:44.999Z</time></trkpt><trkpt lat="44.17281285996502" lon="9.604746531405585"><ele>8.0</ele><time>2026-05-02T17:01:45.999Z</time></trkpt><trkpt lat="44.17287533343646" lon="9.604507485162692"><ele>6.333333333333333</ele><time>2026-05-02T17:01:46.999Z</time></trkpt><trkpt lat="44.17292825422941" lon="9.604278947716134"><ele>4.666666666666666</ele><time>2026-05-02T17:01:47.999Z</time></trkpt><trkpt lat="44.172975662925275" lon="9.604056606197666"><ele>3.0</ele><time>2026-05-02T17:01:48.999Z</time></trkpt><trkpt lat="44.17288415668842" lon="9.60439917699823"><ele>3.0</ele><time>2026-05-02T17:01:49.998Z</time></trkpt><trkpt lat="44.17290897311462" lon="9.604267301348024"><ele>3.0</ele><time>2026-05-02T17:01:50.998Z</time></trkpt><trkpt lat="44.17293097659908" lon="9.60412927493907"><ele>3.0</ele><time>2026-05-02T17:01:51.998Z</time></trkpt><trkpt lat="44.17295405501275" lon="9.604002395924777"><ele>3.0</ele><time>2026-05-02T17:01:52.998Z</time></trkpt><trkpt lat="44.17298184455578" lon="9.603897013643513"><ele>3.0</ele><time>2026-05-02T17:01:53.998Z</time></trkpt><trkpt lat="44.17301015341376" lon="9.603790654803756"><ele>3.0</ele><time>2026-05-02T17:01:55.998Z</time></trkpt><trkpt lat="44.172951284152546" lon="9.603913358573429"><ele>3.0</ele><time>2026-05-02T17:01:59.998Z</time></trkpt><trkpt lat="44.17285239273219" lon="9.603991079476444"><ele>3.0</ele><time>2026-05-02T17:02:00.998Z</time></trkpt><trkpt lat="44.172828320172584" lon="9.604125954473968"><ele>3.0</ele><time>2026-05-02T17:02:01.998Z</time></trkpt><trkpt lat="44.172801101940074" lon="9.604266926105593"><ele>3.0</ele><time>2026-05-02T17:02:02.998Z</time></trkpt><trkpt lat="44.17276860316742" lon="9.60442409448054"><ele>4.25</ele><time>2026-05-02T17:02:03.998Z</time></trkpt><trkpt lat="44.1727304002613" lon="9.604585194806967"><ele>5.5</ele><time>2026-05-02T17:02:04.998Z</time></trkpt><trkpt lat="44.172683898789245" lon="9.604759156075271"><ele>6.75</ele><time>2026-05-02T17:02:05.998Z</time></trkpt><trkpt lat="44.172633882448" lon="9.604938908374782"><ele>8.0</ele><time>2026-05-02T17:02:06.998Z</time></trkpt><trkpt lat="44.172639436743076" lon="9.605192067553103"><ele>6.25</ele><time>2026-05-02T17:02:07.998Z</time></trkpt><trkpt lat="44.17256528061625" lon="9.60534931788822"><ele>4.5</ele><time>2026-05-02T17:02:08.998Z</time></trkpt><trkpt lat="44.1724932645525" lon="9.605512250095112"><ele>2.75</ele><time>2026-05-02T17:02:09.998Z</time></trkpt><trkpt lat="44.1724163615387" lon="9.60566954473464"><ele>1.0</ele><time>2026-05-02T17:02:10.998Z</time></trkpt><trkpt lat="44.17233222133029" lon="9.605841235700812"><ele>1.0</ele><time>2026-05-02T17:02:12Z</time></trkpt><trkpt lat="44.17225836971233" lon="9.605990184882314"><ele>1.0</ele><time>2026-05-02T17:02:13Z</time></trkpt><trkpt lat="44.17218436871847" lon="9.606124542376806"><ele>1.0</ele><time>2026-05-02T17:02:15Z</time></trkpt><trkpt lat="44.17214291957671" lon="9.606191139949887"><ele>1.0</ele><time>2026-05-02T17:02:16Z</time></trkpt><trkpt lat="44.172064050602785" lon="9.60624658458215"><ele>1.0</ele><time>2026-05-02T17:02:17Z</time></trkpt><trkpt lat="44.17201624622933" lon="9.60638366534197"><ele>2.5</ele><time>2026-05-02T17:02:18Z</time></trkpt><trkpt lat="44.171936021327845" lon="9.606470853633443"><ele>4.0</ele><time>2026-05-02T17:02:19Z</time></trkpt><trkpt lat="44.17186290125165" lon="9.606578792822468"><ele>5.5</ele><time>2026-05-02T17:02:20Z</time></trkpt><trkpt lat="44.17180446032798" lon="9.606735229159435"><ele>7.0</ele><time>2026-05-02T17:02:21Z</time></trkpt><trkpt lat="44.171719409528535" lon="9.60684779870036"><ele>7.0</ele><time>2026-05-02T17:02:22Z</time></trkpt><trkpt lat="44.17162894545847" lon="9.606966604702803"><ele>7.0</ele><time>2026-05-02T17:02:23Z</time></trkpt><trkpt lat="44.17152911868259" lon="9.607078268142528"><ele>7.0</ele><time>2026-05-02T17:02:24Z</time></trkpt><trkpt lat="44.17143424367065" lon="9.607186962038478"><ele>7.0</ele><time>2026-05-02T17:02:25Z</time></trkpt><trkpt lat="44.171326626864214" lon="9.607257861214093"><ele>6.500000000000001</ele><time>2026-05-02T17:02:26Z</time></trkpt><trkpt lat="44.171239403582454" lon="9.607353259336897"><ele>6.0</ele><time>2026-05-02T17:02:27Z</time></trkpt><trkpt lat="44.17115869047258" lon="9.607441508047282"><ele>5.5</ele><time>2026-05-02T17:02:28Z</time></trkpt><trkpt lat="44.171089511919234" lon="9.60751813332082"><ele>5.0</ele><time>2026-05-02T17:02:29Z</time></trkpt><trkpt lat="44.17103696711102" lon="9.607576334347689"><ele>4.5</ele><time>2026-05-02T17:02:30Z</time></trkpt><trkpt lat="44.17098715440242" lon="9.607631372313273"><ele>4.0</ele><time>2026-05-02T17:02:31Z</time></trkpt><trkpt lat="44.17088483479456" lon="9.607743911153015"><ele>4.0</ele><time>2026-05-02T17:02:33Z</time></trkpt><trkpt lat="44.17083067364103" lon="9.607803742631893"><ele>3.9999999999999996</ele><time>2026-05-02T17:02:34Z</time></trkpt><trkpt lat="44.17078275859037" lon="9.607872599590957"><ele>4.0</ele><time>2026-05-02T17:02:35Z</time></trkpt><trkpt lat="44.170729867879636" lon="9.607937561988601"><ele>4.0</ele><time>2026-05-02T17:02:36Z</time></trkpt><trkpt lat="44.17067102587624" lon="9.6080003143094"><ele>3.9999999999999996</ele><time>2026-05-02T17:02:37Z</time></trkpt><trkpt lat="44.17060977718317" lon="9.608059829132682"><ele>4.0</ele><time>2026-05-02T17:02:38Z</time></trkpt><trkpt lat="44.17054613202652" lon="9.608122975330911"><ele>4.0</ele><time>2026-05-02T17:02:39Z</time></trkpt><trkpt lat="44.170482884570134" lon="9.608186773057605"><ele>3.8000000000000003</ele><time>2026-05-02T17:02:40Z</time></trkpt><trkpt lat="44.17043278043235" lon="9.60825668398396"><ele>3.6000000000000005</ele><time>2026-05-02T17:02:41Z</time></trkpt><trkpt lat="44.17037562495926" lon="9.608311794165397"><ele>3.4</ele><time>2026-05-02T17:02:42Z</time></trkpt><trkpt lat="44.17031534158876" lon="9.608347659040154"><ele>3.2</ele><time>2026-05-02T17:02:43Z</time></trkpt><trkpt lat="44.170227417330615" lon="9.60843470041799"><ele>3.0</ele><time>2026-05-02T17:02:45Z</time></trkpt><trkpt lat="44.17030160436096" lon="9.60863320256758"><ele>3.833333333333333</ele><time>2026-05-02T17:02:47Z</time></trkpt><trkpt lat="44.170399389661256" lon="9.608666691870692"><ele>4.666666666666666</ele><time>2026-05-02T17:02:49Z</time></trkpt><trkpt lat="44.17042578222322" lon="9.60877875292378"><ele>5.5</ele><time>2026-05-02T17:02:52Z</time></trkpt><trkpt lat="44.170431627094075" lon="9.608683487365354"><ele>6.333333333333333</ele><time>2026-05-02T17:02:53Z</time></trkpt><trkpt lat="44.170403872475646" lon="9.608808684910942"><ele>7.166666666666666</ele><time>2026-05-02T17:02:54Z</time></trkpt><trkpt lat="44.17034010679061" lon="9.608875109927395"><ele>8.0</ele><time>2026-05-02T17:02:55Z</time></trkpt><trkpt lat="44.17028450751064" lon="9.608938159295096"><ele>8.0</ele><time>2026-05-02T17:02:55.999Z</time></trkpt><trkpt lat="44.17023051752973" lon="9.609000962672425"><ele>7.999999999999999</ele><time>2026-05-02T17:02:56.999Z</time></trkpt><trkpt lat="44.170172064618434" lon="9.609056648351332"><ele>8.0</ele><time>2026-05-02T17:02:57.999Z</time></trkpt><trkpt lat="44.17012341877344" lon="9.6091217648432"><ele>8.0</ele><time>2026-05-02T17:02:58.999Z</time></trkpt><trkpt lat="44.170066302494426" lon="9.60917632390046"><ele>7.999999999999999</ele><time>2026-05-02T17:02:59.999Z</time></trkpt><trkpt lat="44.170007729298" lon="9.609233669349408"><ele>8.0</ele><time>2026-05-02T17:03:00.999Z</time></trkpt><trkpt lat="44.16996422406021" lon="9.609301670815793"><ele>8.0</ele><time>2026-05-02T17:03:01.999Z</time></trkpt><trkpt lat="44.169914722777236" lon="9.609372641055844"><ele>7.5</ele><time>2026-05-02T17:03:02.999Z</time></trkpt><trkpt lat="44.16982271258877" lon="9.609481583364044"><ele>7.0</ele><time>2026-05-02T17:03:04.999Z</time></trkpt><trkpt lat="44.169741728284166" lon="9.609607110883374"><ele>6.5</ele><time>2026-05-02T17:03:06.999Z</time></trkpt><trkpt lat="44.1696885313064" lon="9.609676966232716"><ele>6.0</ele><time>2026-05-02T17:03:08.999Z</time></trkpt><trkpt lat="44.16982263265802" lon="9.609727810042616"><ele>6.333333333333333</ele><time>2026-05-02T17:03:12.999Z</time></trkpt><trkpt lat="44.16989537234881" lon="9.609679878093365"><ele>6.666666666666666</ele><time>2026-05-02T17:03:14.999Z</time></trkpt><trkpt lat="44.169968352082996" lon="9.609633930440522"><ele>7.0</ele><time>2026-05-02T17:03:15.999Z</time></trkpt><trkpt lat="44.17003178818446" lon="9.609594033881725"><ele>7.333333333333333</ele><time>2026-05-02T17:03:16.999Z</time></trkpt><trkpt lat="44.17011914668926" lon="9.609539091929637"><ele>7.666666666666666</ele><time>2026-05-02T17:03:17.999Z</time></trkpt><trkpt lat="44.17020959604938" lon="9.609482304235998"><ele>8.0</ele><time>2026-05-02T17:03:18.999Z</time></trkpt><trkpt lat="44.17031374270897" lon="9.60943171265118"><ele>7.999999999999999</ele><time>2026-05-02T17:03:19.999Z</time></trkpt><trkpt lat="44.17041518494448" lon="9.609384150575602"><ele>8.0</ele><time>2026-05-02T17:03:20.999Z</time></trkpt><trkpt lat="44.17048897705395" lon="9.609314976579114"><ele>8.0</ele><time>2026-05-02T17:03:21.999Z</time></trkpt><trkpt lat="44.17056089079889" lon="9.609272296709111"><ele>8.0</ele><time>2026-05-02T17:03:22.999Z</time></trkpt><trkpt lat="44.17062765796845" lon="9.609212860369011"><ele>7.999999999999999</ele><time>2026-05-02T17:03:23.999Z</time></trkpt><trkpt lat="44.170697809328644" lon="9.609180566542854"><ele>8.0</ele><time>2026-05-02T17:03:24.999Z</time></trkpt><trkpt lat="44.17078529784839" lon="9.609181344245616"><ele>7.800000000000001</ele><time>2026-05-02T17:03:28.999Z</time></trkpt><trkpt lat="44.17085505763544" lon="9.60934830633687"><ele>7.6000000000000005</ele><time>2026-05-02T17:03:30.999Z</time></trkpt><trkpt lat="44.170865599559576" lon="9.609485444456034"><ele>7.3999999999999995</ele><time>2026-05-02T17:03:31.999Z</time></trkpt><trkpt lat="44.1709062533005" lon="9.609599347844691"><ele>7.199999999999999</ele><time>2026-05-02T17:03:32.999Z</time></trkpt><trkpt lat="44.17095774309311" lon="9.609692046038827"><ele>7.0</ele><time>2026-05-02T17:03:33.999Z</time></trkpt><trkpt lat="44.17098080539954" lon="9.609794480586217"><ele>7.000000000000001</ele><time>2026-05-02T17:03:34.999Z</time></trkpt><trkpt lat="44.17099353589976" lon="9.609902730242089"><ele>7.0</ele><time>2026-05-02T17:03:35.999Z</time></trkpt><trkpt lat="44.171020948875295" lon="9.610012244872197"><ele>7.0</ele><time>2026-05-02T17:03:36.999Z</time></trkpt><trkpt lat="44.171056536086994" lon="9.610123225315592"><ele>7.0</ele><time>2026-05-02T17:03:37.999Z</time></trkpt><trkpt lat="44.171059316909734" lon="9.610255070552897"><ele>7.000000000000001</ele><time>2026-05-02T17:03:38.999Z</time></trkpt><trkpt lat="44.17109623016659" lon="9.61035669801266"><ele>7.0</ele><time>2026-05-02T17:03:39.999Z</time></trkpt><trkpt lat="44.17111633509419" lon="9.610457120569098"><ele>7.0</ele><time>2026-05-02T17:03:40.999Z</time></trkpt><trkpt lat="44.1711380330034" lon="9.610573592932338"><ele>6.999999999999999</ele><time>2026-05-02T17:03:42.999Z</time></trkpt><trkpt lat="44.171133255820386" lon="9.610666249218147"><ele>6.999999999999999</ele><time>2026-05-02T17:03:51.999Z</time></trkpt><trkpt lat="44.1709568670919" lon="9.610789346463596"><ele>7.0</ele><time>2026-05-02T17:03:54.999Z</time></trkpt><trkpt lat="44.17088565616632" lon="9.6108267438559"><ele>7.0</ele><time>2026-05-02T17:03:55.998Z</time></trkpt><trkpt lat="44.170817713150214" lon="9.610876251792233"><ele>7.000000000000001</ele><time>2026-05-02T17:03:56.998Z</time></trkpt><trkpt lat="44.17073466927431" lon="9.610936763227231"><ele>7.0</ele><time>2026-05-02T17:03:57.998Z</time></trkpt><trkpt lat="44.170671402754245" lon="9.610981507085368"><ele>7.0</ele><time>2026-05-02T17:03:58.998Z</time></trkpt><trkpt lat="44.1705734005351" lon="9.61105043732026"><ele>7.0</ele><time>2026-05-02T17:04:00.998Z</time></trkpt><trkpt lat="44.170516155371054" lon="9.6110907009037"><ele>7.000000000000001</ele><time>2026-05-02T17:04:01.998Z</time></trkpt><trkpt lat="44.17044516588921" lon="9.611134297476049"><ele>7.0</ele><time>2026-05-02T17:04:03.998Z</time></trkpt><trkpt lat="44.17034017561757" lon="9.610992842247319"><ele>7.142857142857142</ele><time>2026-05-02T17:04:10.998Z</time></trkpt><trkpt lat="44.17032207878802" lon="9.610899735421587"><ele>7.285714285714286</ele><time>2026-05-02T17:04:12.998Z</time></trkpt><trkpt lat="44.17028020838752" lon="9.610833792437825"><ele>7.428571428571429</ele><time>2026-05-02T17:04:14.998Z</time></trkpt><trkpt lat="44.170248943296954" lon="9.61073214433365"><ele>7.571428571428571</ele><time>2026-05-02T17:04:18Z</time></trkpt><trkpt lat="44.170224547179465" lon="9.610642362593902"><ele>7.7142857142857135</ele><time>2026-05-02T17:04:22Z</time></trkpt><trkpt lat="44.17018893081146" lon="9.61054544118183"><ele>7.857142857142857</ele><time>2026-05-02T17:04:26Z</time></trkpt><trkpt lat="44.17015502161624" lon="9.610459943609184"><ele>8.0</ele><time>2026-05-02T17:04:28Z</time></trkpt><trkpt lat="44.170122573569806" lon="9.610344689942131"><ele>8.0</ele><time>2026-05-02T17:04:30Z</time></trkpt><trkpt lat="44.17005514401087" lon="9.610223842643615"><ele>8.0</ele><time>2026-05-02T17:04:32Z</time></trkpt><trkpt lat="44.17002912437595" lon="9.610078652749952"><ele>8.0</ele><time>2026-05-02T17:04:34Z</time></trkpt><trkpt lat="44.1700028338697" lon="9.60997003528191"><ele>8.0</ele><time>2026-05-02T17:04:36Z</time></trkpt><trkpt lat="44.16995313600111" lon="9.60986801189118"><ele>8.0</ele><time>2026-05-02T17:04:38Z</time></trkpt><trkpt lat="44.16992646330327" lon="9.609784236349592"><ele>8.0</ele><time>2026-05-02T17:04:41Z</time></trkpt></trkseg></trk></gpx>